Provisional Data: Tuscarora Creek near Woodhull, NY


Please select a monitoring station.
Please select start date.
Please select start date.

Toggle Unit: C/F Toggle Unit: C/F
Sample Time Temperature (C) Temperature (F) Specific Conductivity (mS/cm) pH   Turbidity (NTU+) DO (mg/L)
4/18/2023 12:00:00 AM 11.58 52.844 0.232 8.14 3.38 9.57
4/18/2023 12:15:00 AM 11.45 52.61 0.232 8.11 3.53 9.59
4/18/2023 12:30:00 AM 11.3 52.34 0.232 8.08 3.5 9.61
4/18/2023 12:45:00 AM 11.2 52.16 0.232 8.06 3.56 9.63
4/18/2023 1:00:00 AM 11.11 51.998 0.232 8.03 4.03 9.65
4/18/2023 1:15:00 AM 11.01 51.818 0.233 8.02 3.72 9.67
4/18/2023 1:30:00 AM 10.91 51.638 0.234 8 3.51 9.69
4/18/2023 1:45:00 AM 10.8 51.44 0.235 7.99 3.91 9.72
4/18/2023 2:00:00 AM 10.7 51.26 0.237 7.98 3.39 9.76
4/18/2023 2:15:00 AM 10.62 51.116 0.237 7.97 3.58 9.77
4/18/2023 2:30:00 AM 10.53 50.954 0.237 7.96 3.5 9.79
4/18/2023 2:45:00 AM 10.43 50.774 0.237 7.96 3.62 9.82
4/18/2023 3:00:00 AM 10.34 50.612 0.237 7.95 3.49 9.85
4/18/2023 3:15:00 AM 10.24 50.432 0.237 7.95 3.67 9.87
4/18/2023 3:30:00 AM 10.17 50.306 0.237 7.94 3.33 9.9
4/18/2023 3:45:00 AM 10.1 50.18 0.236 7.94 3.55 9.93
4/18/2023 4:00:00 AM 10.02 50.036 0.236 7.94 3.66 9.95
4/18/2023 4:15:00 AM 9.96 49.928 0.236 7.93 3.62 9.96
4/18/2023 4:30:00 AM 9.87 49.766 0.236 7.93 3.43 10
4/18/2023 4:45:00 AM 9.8 49.64 0.236 7.93 3.57 10.02
4/18/2023 5:00:00 AM 9.71 49.478 0.236 7.93 3.19 10.05
4/18/2023 5:15:00 AM 9.63 49.334 0.236 7.93 3.85 10.06
4/18/2023 5:30:00 AM 9.55 49.19 0.236 7.93 3.71 10.1
4/18/2023 5:45:00 AM 9.46 49.028 0.236 7.93 3.3 10.12
4/18/2023 6:00:00 AM 9.39 48.902 0.237 7.92 3.52 10.14
4/18/2023 6:15:00 AM 9.32 48.776 0.237 7.92 3.26 10.16
4/18/2023 6:30:00 AM 9.25 48.65 0.237 7.92 3.32 10.18
4/18/2023 6:45:00 AM 9.19 48.542 0.237 7.93 3.35 10.24
4/18/2023 7:00:00 AM 9.11 48.398 0.237 7.94 3.47 10.33
4/18/2023 7:15:00 AM 9.06 48.308 0.237 7.96 3.03 10.46
4/18/2023 7:30:00 AM 9.03 48.254 0.237 7.99 3.1 10.65
4/18/2023 7:45:00 AM 8.99 48.182 0.237 8.03 3.09 10.87
4/18/2023 8:00:00 AM 8.98 48.164 0.237 8.08 3.06 11.08
4/18/2023 8:15:00 AM 8.96 48.128 0.237 8.12 2.97 11.29
4/18/2023 8:30:00 AM 8.96 48.128 0.237 8.17 2.76 11.46
4/18/2023 8:45:00 AM 8.95 48.11 0.236 8.22 2.87 11.61
4/18/2023 9:00:00 AM 8.92 48.056 0.237 8.25 2.98 11.71
4/18/2023 9:15:00 AM 8.9 48.02 0.236 8.28 3.11 11.79
4/18/2023 9:30:00 AM 8.91 48.038 0.236 8.32 2.88 11.9
4/18/2023 9:45:00 AM 8.92 48.056 0.236 8.37 3 12.05
4/18/2023 10:00:00 AM 8.94 48.092 0.236 8.41 3.05 12.18
4/18/2023 10:15:00 AM 8.94 48.092 0.235 8.45 2.83 12.25
4/18/2023 10:30:00 AM 9 48.2 0.235 8.49 2.82 12.35
4/18/2023 10:45:00 AM 9.05 48.29 0.235 8.54 2.66 12.48
4/18/2023 11:00:00 AM 9.1 48.38 0.234 8.59 2.68 12.6
4/18/2023 11:15:00 AM 9.14 48.452 0.234 8.63 2.73 12.68
4/18/2023 11:30:00 AM 9.16 48.488 0.235 8.66 2.69 12.73
4/18/2023 11:45:00 AM 9.19 48.542 0.235 8.69 2.56 12.78
4/18/2023 12:00:00 PM 9.18 48.524 0.234 8.71 2.48 12.79
4/18/2023 12:15:00 PM 9.23 48.614 0.234 8.74 2.76 12.86
4/18/2023 12:30:00 PM 9.28 48.704 0.234 8.77 2.44 12.9
4/18/2023 12:45:00 PM 9.34 48.812 0.233 8.8 2.43 12.95
4/18/2023 1:00:00 PM 9.3 48.74 0.232 8.83 2.5 12.93
4/18/2023 1:15:00 PM 9.26 48.668 0.232 8.85 2.5 12.91
4/18/2023 1:30:00 PM 9.54 49.172 0.231 8.87 2.53 12.92
4/18/2023 1:45:00 PM 9.56 49.208 0.231 8.9 2.47 12.94
4/18/2023 2:00:00 PM 9.61 49.298 0.23 8.92 2.37 12.92
4/18/2023 2:15:00 PM 9.51 49.118 0.23 8.93 2.4 12.87
4/18/2023 2:30:00 PM 9.43 48.974 0.23 8.95 2.46 12.85
4/18/2023 2:45:00 PM 9.37 48.866 0.23 8.97 2.36 12.8
4/18/2023 3:00:00 PM 9.33 48.794 0.229 8.98 2.27 12.74
4/18/2023 3:15:00 PM 9.26 48.668 0.229 8.99 2.49 12.67
4/18/2023 3:30:00 PM 9.23 48.614 0.229 8.99 2.22 12.62
4/18/2023 3:45:00 PM 9.16 48.488 0.228 9 2.24 12.57
4/18/2023 4:00:00 PM 9.14 48.452 0.228 9 2.19 12.51
4/18/2023 4:15:00 PM 9.12 48.416 0.228 9.01 2.42 12.45
4/18/2023 4:30:00 PM 9.09 48.362 0.228 9.02 2.3 12.38
4/18/2023 4:45:00 PM 9.11 48.398 0.228 9.02 2.27 12.33
4/18/2023 5:00:00 PM 9.1 48.38 0.227 9.02 2.28 12.31
4/18/2023 5:15:00 PM 9.07 48.326 0.227 9.04 2.29 12.33
4/18/2023 5:30:00 PM 9.02 48.236 0.227 9.04 2.28 12.33
4/18/2023 5:45:00 PM 9.05 48.29 0.227 9.05 2.33 12.34
4/18/2023 6:00:00 PM 9.06 48.308 0.227 9.06 2.31 12.4
4/18/2023 6:15:00 PM 9.08 48.344 0.226 9.07 2.29 12.43
4/18/2023 6:30:00 PM 9.06 48.308 0.226 9.08 2.21 12.42
4/18/2023 6:45:00 PM 9.04 48.272 0.226 9.08 2.47 12.36
4/18/2023 7:00:00 PM 8.97 48.146 0.226 9.07 2.23 12.21
4/18/2023 7:15:00 PM 8.87 47.966 0.227 9.04 2.35 12.02
4/18/2023 7:30:00 PM 8.77 47.786 0.228 9 2.31 11.83
4/18/2023 7:45:00 PM 8.67 47.606 0.228 8.95 2.7 11.65
4/18/2023 8:00:00 PM 8.6 47.48 0.229 8.9 2.41 11.48
4/18/2023 8:15:00 PM 8.53 47.354 0.23 8.85 2.63 11.33
4/18/2023 8:30:00 PM 8.47 47.246 0.23 8.8 2.42 11.2
4/18/2023 8:45:00 PM 8.43 47.174 0.231 8.75 2.43 11.11
4/18/2023 9:00:00 PM 8.39 47.102 0.231 8.71 2.46 11.04
4/18/2023 9:15:00 PM 8.37 47.066 0.23 8.67 2.66 10.99
4/18/2023 9:30:00 PM 8.32 46.976 0.23 8.62 2.66 10.95
4/18/2023 9:45:00 PM 8.28 46.904 0.23 8.57 2.89 10.92
4/18/2023 10:00:00 PM 8.23 46.814 0.23 8.52 2.66 10.9
4/18/2023 10:15:00 PM 8.18 46.724 0.229 8.47 2.79 10.87
4/18/2023 10:30:00 PM 8.12 46.616 0.229 8.42 2.59 10.87
4/18/2023 10:45:00 PM 8.08 46.544 0.229 8.37 2.64 10.86
4/18/2023 11:00:00 PM 8.03 46.454 0.229 8.32 2.58 10.86
4/18/2023 11:15:00 PM 7.99 46.382 0.229 8.29 2.56 10.86
4/18/2023 11:30:00 PM 7.94 46.292 0.229 8.25 2.73 10.86
4/18/2023 11:45:00 PM 7.91 46.238 0.229 8.22 2.41 10.86
4/19/2023 12:00:00 AM 7.87 46.166 0.229 8.19 2.62 10.84
4/19/2023 12:15:00 AM 7.83 46.094 0.229 8.17 2.51 10.85
4/19/2023 12:30:00 AM 7.79 46.022 0.229 8.15 2.75 10.87
4/19/2023 12:45:00 AM 7.74 45.932 0.229 8.12 2.48 10.87
4/19/2023 1:00:00 AM 7.68 45.824 0.229 8.1 2.57 10.87
4/19/2023 1:15:00 AM 7.65 45.77 0.228 8.08 2.7 10.87
4/19/2023 1:30:00 AM 7.61 45.698 0.229 8.07 2.79 10.88
4/19/2023 1:45:00 AM 7.57 45.626 0.229 8.05 2.56 10.88
4/19/2023 2:00:00 AM 7.54 45.572 0.228 8.04 2.84 10.88
4/19/2023 2:15:00 AM 7.5 45.5 0.228 8.03 2.75 10.89
4/19/2023 2:30:00 AM 7.46 45.428 0.228 8.02 2.72 10.9
4/19/2023 2:45:00 AM 7.41 45.338 0.228 8.01 2.51 10.91
4/19/2023 3:00:00 AM 7.35 45.23 0.228 8 2.58 10.91
4/19/2023 3:15:00 AM 7.3 45.14 0.228 7.99 2.82 10.94
4/19/2023 3:30:00 AM 7.27 45.086 0.228 7.98 2.82 10.93
4/19/2023 3:45:00 AM 7.22 44.996 0.229 7.98 2.48 10.95
4/19/2023 4:00:00 AM 7.17 44.906 0.23 7.98 2.55 10.97
4/19/2023 4:15:00 AM 7.14 44.852 0.23 7.97 2.7 10.97
4/19/2023 4:30:00 AM 7.11 44.798 0.23 7.97 2.66 10.99
4/19/2023 4:45:00 AM 7.07 44.726 0.23 7.97 2.63 11
4/19/2023 5:00:00 AM 7.03 44.654 0.23 7.96 2.6 11
4/19/2023 5:15:00 AM 6.98 44.564 0.23 7.96 2.68 11.02
4/19/2023 5:30:00 AM 6.94 44.492 0.229 7.96 2.64 11.04
4/19/2023 5:45:00 AM 6.9 44.42 0.229 7.96 2.55 11.05
4/19/2023 6:00:00 AM 6.87 44.366 0.229 7.96 2.69 11.07
4/19/2023 6:15:00 AM 6.85 44.33 0.229 7.95 2.74 11.07
4/19/2023 6:30:00 AM 6.82 44.276 0.228 7.95 2.68 11.1
4/19/2023 6:45:00 AM 6.8 44.24 0.228 7.96 2.63 11.11
4/19/2023 7:00:00 AM 6.78 44.204 0.228 7.96 2.61 11.18
4/19/2023 7:15:00 AM 6.75 44.15 0.227 7.97 2.63 11.25
4/19/2023 7:30:00 AM 6.7 44.06 0.227 7.99 2.55 11.38
4/19/2023 7:45:00 AM 6.68 44.024 0.227 8.02 2.41 11.53
4/19/2023 8:00:00 AM 6.68 44.024 0.227 8.05 2.52 11.68
4/19/2023 8:15:00 AM 6.69 44.042 0.226 8.09 2.44 11.87
4/19/2023 8:30:00 AM 6.7 44.06 0.226 8.13 2.33 12.04
4/19/2023 8:45:00 AM 6.72 44.096 0.226 8.17 2.49 12.22
4/19/2023 9:00:00 AM 6.73 44.114 0.225 8.22 2.42 12.42
4/19/2023 9:15:00 AM 6.76 44.168 0.225 8.27 2.41 12.58
4/19/2023 9:30:00 AM 6.81 44.258 0.225 8.33 2.35 12.74
4/19/2023 9:45:00 AM 6.89 44.402 0.225 8.39 2.34 12.91
4/19/2023 10:00:00 AM 6.99 44.582 0.224 8.44 2.41 13.06
4/19/2023 10:15:00 AM 7.12 44.816 0.224 8.49 2.43 13.18
4/19/2023 10:30:00 AM 7.26 45.068 0.223 8.54 2.42 13.3
4/19/2023 10:45:00 AM 7.38 45.284 0.223 8.59 2.29 13.4
4/19/2023 11:00:00 AM 7.51 45.518 0.223 8.64 2.38 13.49
4/19/2023 11:15:00 AM 7.65 45.77 0.222 8.68 2.43 13.56
4/19/2023 11:30:00 AM 7.81 46.058 0.222 8.72 2.32 13.63
4/19/2023 11:45:00 AM 8.14 46.652 0.222 8.75 2.21 13.66
4/19/2023 12:00:00 PM 8.3 46.94 0.222 8.79 2.39 13.7
4/19/2023 12:15:00 PM 8.51 47.318 0.222 8.82 2.26 13.74
4/19/2023 12:30:00 PM 9.02 48.236 0.221 8.85 2.12 13.74
4/19/2023 12:45:00 PM 9.47 49.046 0.221 8.88 2.08 13.76
4/19/2023 1:00:00 PM 9.98 49.964 0.221 8.91 2.12 13.74
4/19/2023 1:15:00 PM 10.57 51.026 0.219 8.94 2.19 13.66
4/19/2023 1:30:00 PM 11.02 51.836 0.219 8.97 2.17 13.62
4/19/2023 1:45:00 PM 11.34 52.412 0.218 9 2.13 13.57
4/19/2023 2:00:00 PM 11.6 52.88 0.218 9.03 2.24 13.5
4/19/2023 2:15:00 PM 11.77 53.186 0.217 9.06 2.08 13.47
4/19/2023 2:30:00 PM 11.95 53.51 0.216 9.09 2.24 13.43
4/19/2023 2:45:00 PM 12.14 53.852 0.216 9.11 2.17 13.4
4/19/2023 3:00:00 PM 12.36 54.248 0.215 9.14 3.46 13.34
4/19/2023 3:15:00 PM 12.57 54.626 0.215 9.16 2.18 13.27
4/19/2023 3:30:00 PM 12.74 54.932 0.214 9.18 2.15 13.18
4/19/2023 3:45:00 PM 12.86 55.148 0.214 9.21 2.19 13.12
4/19/2023 4:00:00 PM 13 55.4 0.213 9.22 2.26 13.03
4/19/2023 4:15:00 PM 13.13 55.634 0.213 9.24 2.1 12.97
4/19/2023 4:30:00 PM 13.19 55.742 0.212 9.26 2.47 12.88
4/19/2023 4:45:00 PM 13.26 55.868 0.212 9.27 2.23 12.78
4/19/2023 5:00:00 PM 13.25 55.85 0.211 9.28 2.34 12.7
4/19/2023 5:15:00 PM 13.2 55.76 0.211 9.29 2.14 12.61
4/19/2023 5:30:00 PM 13.12 55.616 0.211 9.3 2.42 12.5
4/19/2023 5:45:00 PM 13.04 55.472 0.21 9.3 2.34 12.4
4/19/2023 6:00:00 PM 12.95 55.31 0.21 9.31 2.41 12.31
4/19/2023 6:15:00 PM 12.86 55.148 0.21 9.31 2.31 12.18
4/19/2023 6:30:00 PM 12.76 54.968 0.21 9.3 2.35 12.05
4/19/2023 6:45:00 PM 12.66 54.788 0.21 9.29 2.44 11.9
4/19/2023 7:00:00 PM 12.55 54.59 0.21 9.28 2.64 11.71
4/19/2023 7:15:00 PM 12.45 54.41 0.21 9.27 2.29 11.52
4/19/2023 7:30:00 PM 12.35 54.23 0.21 9.24 2.29 11.33
4/19/2023 7:45:00 PM 12.23 54.014 0.21 9.21 2.59 11.12
4/19/2023 8:00:00 PM 12.15 53.87 0.21 9.18 2.39 10.91
4/19/2023 8:15:00 PM 12.03 53.654 0.211 9.14 2.48 10.67
4/19/2023 8:30:00 PM 11.93 53.474 0.212 9.09 2.79 10.45
4/19/2023 8:45:00 PM 11.84 53.312 0.213 9.05 2.47 10.27
4/19/2023 9:00:00 PM 11.73 53.114 0.213 9 2.67 10.13
4/19/2023 9:15:00 PM 11.66 52.988 0.213 8.96 2.67 10.02
4/19/2023 9:30:00 PM 11.59 52.862 0.213 8.92 2.78 9.93
4/19/2023 9:45:00 PM 11.54 52.772 0.213 8.87 2.82 9.9
4/19/2023 10:00:00 PM 11.48 52.664 0.213 8.82 2.69 9.85
4/19/2023 10:15:00 PM 11.46 52.628 0.213 8.79 2.83 9.83
4/19/2023 10:30:00 PM 11.44 52.592 0.213 8.75 2.83 9.79
4/19/2023 10:45:00 PM 11.42 52.556 0.213 8.7 2.73 9.79
4/19/2023 11:00:00 PM 11.4 52.52 0.212 8.65 2.81 9.74
4/19/2023 11:15:00 PM 11.39 52.502 0.213 8.6 2.91 9.75
4/19/2023 11:30:00 PM 11.37 52.466 0.213 8.54 2.77 9.7
4/19/2023 11:45:00 PM 11.33 52.394 0.213 8.48 3 9.69
4/20/2023 12:00:00 AM 11.3 52.34 0.213 8.44 2.98 9.71
4/20/2023 12:15:00 AM 11.25 52.25 0.213 8.38 2.88 9.7
4/20/2023 12:30:00 AM 11.21 52.178 0.213 8.32 2.81 9.68
4/20/2023 12:45:00 AM 11.16 52.088 0.213 8.28 2.85 9.71
4/20/2023 1:00:00 AM 11.08 51.944 0.213 8.22 3.02 9.73
4/20/2023 1:15:00 AM 11 51.8 0.213 8.17 2.99 9.74
4/20/2023 1:30:00 AM 10.91 51.638 0.213 8.14 3.08 9.78
4/20/2023 1:45:00 AM 10.82 51.476 0.214 8.1 3.08 9.78
4/20/2023 2:00:00 AM 10.74 51.332 0.214 8.06 2.97 9.77
4/20/2023 2:15:00 AM 10.64 51.152 0.214 8.03 2.97 9.78
4/20/2023 2:30:00 AM 10.53 50.954 0.214 8.01 3.49 9.78
4/20/2023 2:45:00 AM 10.38 50.684 0.214 7.99 3.07 9.85
4/20/2023 3:00:00 AM 10.23 50.414 0.214 7.97 3.35 9.9
4/20/2023 3:15:00 AM 10.08 50.144 0.214 7.96 3.3 9.95
4/20/2023 3:30:00 AM 9.97 49.946 0.215 7.95 3.02 9.97
4/20/2023 3:45:00 AM 9.85 49.73 0.214 7.94 3.17 10.03
4/20/2023 4:00:00 AM 9.76 49.568 0.215 7.94 3.22 10.09
4/20/2023 4:15:00 AM 9.7 49.46 0.215 7.93 2.92 10.08
4/20/2023 4:30:00 AM 9.64 49.352 0.215 7.91 2.92 10.09
4/20/2023 4:45:00 AM 9.57 49.226 0.216 7.92 3.24 10.14
4/20/2023 5:00:00 AM 9.51 49.118 0.217 7.91 3.13 10.17
4/20/2023 5:15:00 AM 9.46 49.028 0.217 7.91 3.39 10.17
4/20/2023 5:30:00 AM 9.41 48.938 0.217 7.91 2.96 10.2
4/20/2023 5:45:00 AM 9.35 48.83 0.217 7.9 3.34 10.19
4/20/2023 6:00:00 AM 9.27 48.686 0.217 7.9 3.25 10.23
4/20/2023 6:15:00 AM 9.2 48.56 0.216 7.9 3.16 10.26
4/20/2023 6:30:00 AM 9.13 48.434 0.216 7.91 3.06 10.32
4/20/2023 6:45:00 AM 9.07 48.326 0.216 7.9 2.82 10.34
4/20/2023 7:00:00 AM 9.02 48.236 0.215 7.91 3.21 10.39
4/20/2023 7:15:00 AM 8.95 48.11 0.215 7.92 2.8 10.48
4/20/2023 7:30:00 AM 8.93 48.074 0.215 7.93 2.89 10.58
4/20/2023 7:45:00 AM 8.89 48.002 0.214 7.95 2.98 10.71
4/20/2023 8:00:00 AM 8.87 47.966 0.214 7.99 3.04 10.93
4/20/2023 8:15:00 AM 8.84 47.912 0.214 8.04 2.73 11.21
4/20/2023 8:30:00 AM 8.82 47.876 0.213 8.07 2.58 11.35
4/20/2023 8:45:00 AM 8.81 47.858 0.213 8.12 2.85 11.56
4/20/2023 9:00:00 AM 8.85 47.93 0.212 8.17 2.73 11.79
4/20/2023 9:15:00 AM 8.96 48.128 0.212 8.25 2.76 12.08
4/20/2023 9:30:00 AM 9.11 48.398 0.211 8.34 2.69 12.37
4/20/2023 9:45:00 AM 9.25 48.65 0.211 8.41 2.53 12.66
4/20/2023 10:00:00 AM 9.48 49.064 0.21 8.49 2.75 12.82
4/20/2023 10:15:00 AM 9.73 49.514 0.21 8.58 3.7 13.04
4/20/2023 10:30:00 AM 9.97 49.946 0.209 8.61 2.96 13.16
4/20/2023 10:45:00 AM 10.39 50.702 0.208 8.71 2.53 13.29
4/20/2023 11:00:00 AM 10.52 50.936 0.208 8.72 2.79 13.31
4/20/2023 11:15:00 AM 11.12 52.016 0.208 8.82 2.53 13.43
4/20/2023 11:30:00 AM 11.39 52.502 0.207 8.84 2.69 13.45
4/20/2023 11:45:00 AM 11.85 53.33 0.206 8.88 2.46 13.49
4/20/2023 12:00:00 PM 12.26 54.068 0.206 8.92 2.48 13.52
4/20/2023 12:15:00 PM 12.72 54.896 0.205 8.96 2.37 13.51
4/20/2023 12:30:00 PM 13.06 55.508 0.205 8.99 2.48 13.48
4/20/2023 12:45:00 PM 13.44 56.192 0.205 9.02 2.41 13.47
4/20/2023 1:00:00 PM 13.81 56.858 0.204 9.04 2.37 13.39
4/20/2023 1:15:00 PM 14.01 57.218 0.204 9.05 2.39 13.32
4/20/2023 1:30:00 PM 14.43 57.974 0.204 9.09 2.35 13.32
4/20/2023 1:45:00 PM 14.72 58.496 0.203 9.12 2.39 13.27
4/20/2023 2:00:00 PM 15.09 59.162 0.203 9.15 2.42 13.21
4/20/2023 2:15:00 PM 15.24 59.432 0.202 9.16 2.34 13.12
4/20/2023 2:30:00 PM 15.48 59.864 0.201 9.19 2.43 13.08
4/20/2023 2:45:00 PM 15.54 59.972 0.201 9.19 2.52 12.99
4/20/2023 3:00:00 PM 15.91 60.638 0.2 9.23 2.47 12.95
4/20/2023 3:15:00 PM 15.97 60.746 0.199 9.24 2.26 12.88
4/20/2023 3:30:00 PM 16.1 60.98 0.198 9.27 2.47 12.96
4/20/2023 3:45:00 PM 16.43 61.574 0.197 9.31 2.28 12.81
4/20/2023 4:00:00 PM 16.48 61.664 0.196 9.32 2.4 12.75
4/20/2023 4:15:00 PM 16.68 62.024 0.196 9.35 2.44 12.65
4/20/2023 4:30:00 PM 16.71 62.078 0.195 9.37 2.45 12.58
4/20/2023 4:45:00 PM 16.72 62.096 0.195 9.37 2.77 12.43
4/20/2023 5:00:00 PM 16.73 62.114 0.194 9.38 2.41 12.29
4/20/2023 5:15:00 PM 16.74 62.132 0.193 9.39 2.54 12.19
4/20/2023 5:30:00 PM 16.66 61.988 0.193 9.4 2.53 12.06
4/20/2023 5:45:00 PM 16.57 61.826 0.192 9.41 2.21 11.91
4/20/2023 6:00:00 PM 16.4 61.52 0.192 9.39 2.86 11.64
4/20/2023 6:15:00 PM 16.32 61.376 0.192 9.39 2.78 11.55
4/20/2023 6:30:00 PM 16.24 61.232 0.191 9.39 2.81 11.42
4/20/2023 6:45:00 PM 16.18 61.124 0.191 9.38 2.47 11.27
4/20/2023 7:00:00 PM 16.11 60.998 0.191 9.38 2.67 11.08
4/20/2023 7:15:00 PM 15.99 60.782 0.191 9.35 2.59 10.78
4/20/2023 7:30:00 PM 15.9 60.62 0.19 9.33 2.59 10.53
4/20/2023 7:45:00 PM 15.82 60.476 0.19 9.3 2.8 10.27
4/20/2023 8:00:00 PM 15.73 60.314 0.19 9.27 2.64 9.98
4/20/2023 8:15:00 PM 15.65 60.17 0.19 9.23 2.74 9.7
4/20/2023 8:30:00 PM 15.55 59.99 0.191 9.17 3.27 9.42
4/20/2023 8:45:00 PM 15.45 59.81 0.191 9.12 2.82 9.2
4/20/2023 9:00:00 PM 15.35 59.63 0.192 9.06 2.69 9
4/20/2023 9:15:00 PM 15.27 59.486 0.192 9.01 2.8 8.88
4/20/2023 9:30:00 PM 15.2 59.36 0.193 8.96 3.11 8.76
4/20/2023 9:45:00 PM 15.13 59.234 0.193 8.91 2.81 8.68
4/20/2023 10:00:00 PM 15.06 59.108 0.194 8.86 3.04 8.66
4/20/2023 10:15:00 PM 14.99 58.982 0.194 8.81 3.11 8.61
4/20/2023 10:30:00 PM 14.94 58.892 0.194 8.76 3.03 8.56
4/20/2023 10:45:00 PM 14.86 58.748 0.194 8.7 3.06 8.48
4/20/2023 11:00:00 PM 14.8 58.64 0.194 8.64 3 8.5
4/20/2023 11:15:00 PM 14.71 58.478 0.193 8.57 3.3 8.53
4/20/2023 11:30:00 PM 14.64 58.352 0.193 8.52 3.51 8.51
4/20/2023 11:45:00 PM 14.56 58.208 0.193 8.45 3.28 8.51
4/21/2023 12:00:00 AM 14.49 58.082 0.193 8.39 3.26 8.49
4/21/2023 12:15:00 AM 14.4 57.92 0.193 8.32 2.73 8.53
4/21/2023 12:30:00 AM 14.3 57.74 0.193 8.28 3.59 8.51
4/21/2023 12:45:00 AM 14.19 57.542 0.193 8.22 3.57 8.56
4/21/2023 1:00:00 AM 14.06 57.308 0.193 8.16 3.14 8.61
4/21/2023 1:15:00 AM 13.94 57.092 0.193 8.12 3.65 8.64
4/21/2023 1:30:00 AM 13.83 56.894 0.193 8.08 3.37 8.67
4/21/2023 1:45:00 AM 13.73 56.714 0.194 8.04 3.07 8.66
4/21/2023 2:00:00 AM 13.58 56.444 0.194 8.02 4.97 8.75
4/21/2023 2:15:00 AM 13.48 56.264 0.194 7.99 3.33 8.76
4/21/2023 2:30:00 AM 13.36 56.048 0.194 7.97 2.93 8.79
4/21/2023 2:45:00 AM 13.26 55.868 0.194 7.95 3.69 8.8
4/21/2023 3:00:00 AM 13.17 55.706 0.194 7.93 3.2 8.82
4/21/2023 3:15:00 AM 13.07 55.526 0.194 7.92 3.19 8.87
4/21/2023 3:30:00 AM 12.99 55.382 0.194 7.91 3.49 8.9
4/21/2023 3:45:00 AM 12.87 55.166 0.194 7.89 3.38 8.93
4/21/2023 4:00:00 AM 12.79 55.022 0.194 7.89 3.27 8.94
4/21/2023 4:15:00 AM 12.69 54.842 0.195 7.88 3.55 8.98
4/21/2023 4:30:00 AM 12.59 54.662 0.194 7.88 3.78 9.02
4/21/2023 4:45:00 AM 12.48 54.464 0.195 7.87 3.51 9.05
4/21/2023 5:00:00 AM 12.37 54.266 0.195 7.86 3.53 9.04
4/21/2023 5:15:00 AM 12.25 54.05 0.195 7.86 3.83 9.12
4/21/2023 5:30:00 AM 12.15 53.87 0.196 7.86 3.28 9.16
4/21/2023 5:45:00 AM 12.05 53.69 0.196 7.86 3.45 9.19
4/21/2023 6:00:00 AM 11.97 53.546 0.196 7.86 3.6 9.21
4/21/2023 6:15:00 AM 11.89 53.402 0.197 7.85 3.56 9.22
4/21/2023 6:30:00 AM 11.79 53.222 0.197 7.85 3.57 9.3
4/21/2023 6:45:00 AM 11.69 53.042 0.197 7.86 3.33 9.41
4/21/2023 7:00:00 AM 11.62 52.916 0.196 7.88 3.58 9.59
4/21/2023 7:15:00 AM 11.58 52.844 0.196 7.91 3.28 9.81
4/21/2023 7:30:00 AM 11.57 52.826 0.196 7.95 3.38 10.09
4/21/2023 7:45:00 AM 11.57 52.826 0.195 7.98 3.33 10.34
4/21/2023 8:00:00 AM 11.56 52.808 0.194 8.05 2.94 10.7
4/21/2023 8:15:00 AM 11.59 52.862 0.194 8.12 3.34 11.03
4/21/2023 8:30:00 AM 11.63 52.934 0.193 8.17 3.3 11.24
4/21/2023 8:45:00 AM 11.73 53.114 0.193 8.25 2.98 11.5
4/21/2023 9:00:00 AM 11.84 53.312 0.192 8.33 2.99 11.76
4/21/2023 9:15:00 AM 11.99 53.582 0.191 8.37 3.22 11.9
4/21/2023 9:30:00 AM 12.23 54.014 0.191 8.5 2.86 12.26
4/21/2023 9:45:00 AM 12.49 54.482 0.19 8.57 2.9 12.41
4/21/2023 10:00:00 AM 12.74 54.932 0.189 8.62 2.91 12.53
4/21/2023 10:15:00 AM 13.12 55.616 0.188 8.69 2.91 12.69
4/21/2023 10:30:00 AM 13.5 56.3 0.187 8.74 2.81 12.72
4/21/2023 10:45:00 AM 14.04 57.272 0.186 8.82 2.73 12.83
4/21/2023 11:00:00 AM 14.52 58.136 0.185 8.87 2.81 12.88
4/21/2023 11:15:00 AM 14.81 58.658 0.184 8.88 2.79 12.85
4/21/2023 11:30:00 AM 15.26 59.468 0.183 8.93 3 12.9
4/21/2023 11:45:00 AM 15.62 60.116 0.182 8.96 2.57 12.92
4/21/2023 12:00:00 PM 15.91 60.638 0.182 8.97 2.74 12.87
4/21/2023 12:15:00 PM 16.29 61.322 0.181 9.02 2.64 12.99
4/21/2023 12:30:00 PM 16.78 62.204 0.179 9.05 2.51 12.97
4/21/2023 12:45:00 PM 17.13 62.834 0.179 9.08 2.58 12.9
4/21/2023 1:00:00 PM 17.47 63.446 0.178 9.1 2.58 12.8
4/21/2023 1:15:00 PM 17.71 63.878 0.177 9.11 2.78 12.65
4/21/2023 1:30:00 PM 17.95 64.31 0.176 9.14 2.72 12.68
4/21/2023 1:45:00 PM 18.39 65.102 0.176 9.17 2.5 12.6
4/21/2023 2:00:00 PM 18.62 65.516 0.175 9.18 2.62 12.44
4/21/2023 2:15:00 PM 18.78 65.804 0.174 9.2 2.84 12.42
4/21/2023 2:30:00 PM 19.34 66.812 0.173 9.25 2.65 12.33
4/21/2023 2:45:00 PM 19.48 67.064 0.172 9.26 2.8 12.28
4/21/2023 3:00:00 PM 19.51 67.118 0.17 9.27 2.58 12.12
4/21/2023 3:15:00 PM 19.74 67.532 0.169 9.29 2.45 11.99
4/21/2023 3:30:00 PM 19.84 67.712 0.167 9.3 2.91 11.83
4/21/2023 3:45:00 PM 19.85 67.73 0.166 9.3 2.32 11.61
4/21/2023 4:00:00 PM 19.92 67.856 0.164 9.32 2.52 11.59
4/21/2023 4:15:00 PM 20.08 68.144 0.163 9.34 2.71 11.49
4/21/2023 4:30:00 PM 20.09 68.162 0.162 9.34 2.4 11.39
4/21/2023 4:45:00 PM 20.08 68.144 0.161 9.35 2.36 11.3
4/21/2023 5:00:00 PM 19.96 67.92799 0.159 9.34 2.76 11.02
4/21/2023 5:15:00 PM 19.85 67.73 0.158 9.34 2.57 10.87
4/21/2023 5:30:00 PM 19.63 67.334 0.157 9.33 2.81 10.6
4/21/2023 5:45:00 PM 19.5 67.1 0.156 9.31 2.64 10.33
4/21/2023 6:00:00 PM 19.36 66.848 0.155 9.3 2.6 10.12
4/21/2023 6:15:00 PM 19.29 66.722 0.154 9.3 2.72 10.16
4/21/2023 6:30:00 PM 19.24 66.632 0.153 9.29 2.8 10.1
4/21/2023 6:45:00 PM 19.16 66.488 0.152 9.28 3.19 9.97
4/21/2023 7:00:00 PM 19.09 66.362 0.151 9.26 2.72 9.71
4/21/2023 7:15:00 PM 19 66.2 0.15 9.24 5.29 9.56
4/21/2023 7:30:00 PM 18.93 66.074 0.149 9.22 5.64 9.3
4/21/2023 7:45:00 PM 18.87 65.966 0.148 9.18 3.04 9
4/21/2023 8:00:00 PM 18.79 65.82201 0.148 9.13 3.38 8.67
4/21/2023 8:15:00 PM 18.71 65.67799 0.147 9.07 2.78 8.35
4/21/2023 8:30:00 PM 18.61 65.498 0.146 9.01 3.57 8.06
4/21/2023 8:45:00 PM 18.51 65.318 0.146 8.94 3.84 7.78
4/21/2023 9:00:00 PM 18.42 65.156 0.145 8.84 3.33 7.7
4/21/2023 9:15:00 PM 18.34 65.012 0.144 8.78 3.33 7.45
4/21/2023 9:30:00 PM 18.29 64.922 0.144 8.7 3.47 7.35
4/21/2023 9:45:00 PM 18.25 64.85 0.143 8.6 11.86 7.32
4/21/2023 10:00:00 PM 18.19 64.742 0.142 8.56 3.54 7.32
4/21/2023 10:15:00 PM 18.14 64.652 0.14 8.5 3.3 7.36
4/21/2023 10:30:00 PM 18.1 64.58 0.139 8.43 3.03 7.27
4/21/2023 10:45:00 PM 18.05 64.49 0.137 8.38 3.13 7.32
4/21/2023 11:00:00 PM 17.99 64.382 0.135 8.3 3.46 7.42
4/21/2023 11:15:00 PM 17.89 64.202 0.132 8.23 3.43 7.29
4/21/2023 11:30:00 PM 17.87 64.166 0.13 8.19 3.44 7.25
4/21/2023 11:45:00 PM 17.8 64.04 0.127 8.14 3.27 7.15
4/22/2023 12:00:00 AM 17.73 63.914 0.124 8.08 3.37 7.23
4/22/2023 12:15:00 AM 17.62 63.716 0.121 8.03 4.39 7.11
4/22/2023 12:30:00 AM 17.54 63.572 0.117 8 3.26 7.15
4/22/2023 12:45:00 AM 17.38 63.284 0.112 7.97 3.75 7.4
4/22/2023 1:00:00 AM 17.29 63.122 0.107 7.93 8.06 7.3
4/22/2023 1:15:00 AM 17.25 63.05 0.103 7.92 3.62 7.28
4/22/2023 1:30:00 AM 17.16 62.888 0.094 7.9 3.77 7.28
4/22/2023 1:45:00 AM 17.07 62.726 0.082 7.9 3.6 7.42
4/22/2023 2:00:00 AM 16.97 62.546 0.069 7.88 3.96 7.46
4/22/2023 2:15:00 AM 16.86 62.348 0.056 7.87 4.41 7.5
4/22/2023 2:30:00 AM 16.75 62.15 0.044 7.86 3.65 7.5
4/22/2023 2:45:00 AM 16.62 61.916 0.035 7.86 4.2 7.67
4/22/2023 3:00:00 AM 16.51 61.718 0.027 7.86 3.74 7.71
4/22/2023 3:15:00 AM 16.38 61.484 0.021 7.85 3.92 7.76
4/22/2023 3:30:00 AM 16.24 61.232 0.017 7.85 4.84 7.81
4/22/2023 3:45:00 AM 16.08 60.944 0.014 7.85 3.53 7.88
4/22/2023 4:00:00 AM 15.96 60.728 0.012 7.84 3.56 7.87
4/22/2023 4:15:00 AM 15.78 60.404 0.01 7.84 3.71 7.97
4/22/2023 4:30:00 AM 15.64 60.152 0.008 7.83 4.12 7.97
4/22/2023 4:45:00 AM 15.45 59.81 0.007 7.84 3.5 8.1
4/22/2023 5:00:00 AM 15.33 59.594 0.006 7.84 3.87 8.09
4/22/2023 5:15:00 AM 15.21 59.378 0.005 7.84 3.7 8.15
4/22/2023 5:30:00 AM 15.09 59.162 0.005 7.84 3.55 8.2
4/22/2023 5:45:00 AM 14.94 58.892 0.005 7.85 3.79 8.32
4/22/2023 6:00:00 AM 14.84 58.712 0.004 7.84 3.83 8.3
4/22/2023 6:15:00 AM 14.74 58.532 0.004 7.84 3.88 8.31
4/22/2023 6:30:00 AM 14.62 58.316 0.004 7.84 3.74 8.39
4/22/2023 6:45:00 AM 14.53 58.154 0.004 7.85 3.83 8.44
4/22/2023 7:00:00 AM 14.45 58.01 0.004 7.86 3.64 8.55
4/22/2023 7:15:00 AM 14.39 57.902 0.004 7.89 3.75 8.74
4/22/2023 7:30:00 AM 14.34 57.812 0.004 7.9 4.19 8.93
4/22/2023 7:45:00 AM 14.31 57.758 0.004 7.93 3.71 9.12
4/22/2023 8:00:00 AM 14.29 57.722 0.004 7.99 3.64 9.42
4/22/2023 8:15:00 AM 14.3 57.74 0.004 8.02 3.57 9.66
4/22/2023 8:30:00 AM 14.32 57.776 0.004 8.1 3.81 10.01
4/22/2023 8:45:00 AM 14.37 57.866 0.005 8.17 4.03 10.34
4/22/2023 9:00:00 AM 14.46 58.028 0.005 8.28 4.17 10.71
4/22/2023 9:15:00 AM 14.6 58.28 0.005 8.36 3.91 10.98
4/22/2023 9:30:00 AM 14.7 58.46 0.005 8.44 3.86 11.25
4/22/2023 9:45:00 AM 14.83 58.694 0.005 8.51 4.06 11.46
4/22/2023 10:00:00 AM 15 59 0.006 8.59 4.08 11.61
4/22/2023 10:15:00 AM 15.14 59.252 0.006 8.64 4.01 11.72
4/22/2023 10:30:00 AM 15.34 59.612 0.006 8.69 4.27 11.85
4/22/2023 10:45:00 AM 15.49 59.882 0.006 8.75 4.13 11.98
4/22/2023 11:00:00 AM 15.68 60.224 0.007 8.79 4.25 12.08
4/22/2023 11:15:00 AM 16 60.8 0.007 8.84 3.97 12.17
4/22/2023 11:30:00 AM 16.4 61.52 0.007 8.88 3.54 12.23
4/22/2023 11:45:00 AM 16.74 62.132 0.007 8.93 3.57 12.3
4/22/2023 12:00:00 PM 16.85 62.33 0.007 8.96 3.68 12.27
4/22/2023 12:15:00 PM 16.87 62.366 0.007 8.97 3.55 12.21
4/22/2023 12:30:00 PM 16.79 62.222 0.007 8.99 3.73 12.15
4/22/2023 12:45:00 PM 16.87 62.366 0.007 9.01 3.52 12.13
4/22/2023 1:00:00 PM 17.01 62.618 0.007 9.03 3.34 12.19
4/22/2023 1:15:00 PM 17.02 62.636 0.007 9.06 3.44 12.17
4/22/2023 1:30:00 PM 16.96 62.528 0.007 9.07 3.5 12.07
4/22/2023 1:45:00 PM 16.76 62.168 0.007 9.07 3.33 11.87
4/22/2023 2:00:00 PM 16.65 61.97 0.006 9.07 3.32 11.67
4/22/2023 2:15:00 PM 16.51 61.718 0.006 9.07 3.01 11.34
4/22/2023 2:30:00 PM 16.5 61.7 0.006 9.05 17.32 11.09
4/22/2023 2:45:00 PM 16.48 61.664 0.006 9.05 3.92 10.99
4/22/2023 3:00:00 PM 16.5 61.7 0.006 9.06 3.05 11.07
4/22/2023 3:15:00 PM 16.48 61.664 0.006 9.08 2.97 11.11
4/22/2023 3:30:00 PM 16.35 61.43 0.006 9.09 3.02 11.02
4/22/2023 3:45:00 PM 16.24 61.232 0.006 9.08 3.18 10.8
4/22/2023 4:00:00 PM 16.11 60.998 0.005 9.07 3.23 10.5
4/22/2023 4:15:00 PM 16 60.8 0.005 9.03 3.27 10.23
4/22/2023 4:30:00 PM 15.89 60.602 0.005 9 3.36 10.01
4/22/2023 4:45:00 PM 15.79 60.422 0.005 8.94 3.43 9.85
4/22/2023 5:00:00 PM 15.73 60.314 0.005 8.9 3.34 9.72
4/22/2023 5:15:00 PM 15.7 60.26 0.005 8.85 5.28 9.57
4/22/2023 5:30:00 PM 15.7 60.26 0.005 8.84 3.7 9.55
4/22/2023 5:45:00 PM 15.67 60.206 0.005 8.82 3.96 9.44
4/22/2023 6:00:00 PM 15.64 60.152 0.005 8.81 4.31 9.39
4/22/2023 6:15:00 PM 15.62 60.116 0.005 8.79 4.08 9.35
4/22/2023 6:30:00 PM 15.62 60.116 0.005 8.76 4.71 9.37
4/22/2023 6:45:00 PM 15.61 60.098 0.005 8.73 4.73 9.38
4/22/2023 7:00:00 PM 15.56 60.008 0.005 8.67 4.74 9.35
4/22/2023 7:15:00 PM 15.47 59.846 0.005 8.59 3.67 9.17
4/22/2023 7:30:00 PM 15.39 59.702 0.005 8.52 3.94 9.11
4/22/2023 7:45:00 PM 15.33 59.594 0.005 8.44 4.41 8.98
4/22/2023 8:00:00 PM 15.26 59.468 0.005 8.37 4.68 8.9
4/22/2023 8:15:00 PM 15.19 59.342 0.004 8.29 5.7 8.83
4/22/2023 8:30:00 PM 15.08 59.144 0.004 8.23 4.87 8.74
4/22/2023 8:45:00 PM 14.97 58.946 0.004 8.18 5.35 8.78
4/22/2023 9:00:00 PM 14.82 58.676 0.004 8.13 5.44 8.78
4/22/2023 9:15:00 PM 14.69 58.442 0.004 8.09 6.05 8.76
4/22/2023 9:30:00 PM 14.56 58.208 0.004 8.06 5.05 8.83
4/22/2023 9:45:00 PM 14.43 57.974 0.004 8.02 6.07 8.84
4/22/2023 10:00:00 PM 14.29 57.722 0.004 8.01 6.86 8.91
4/22/2023 10:15:00 PM 14.19 57.542 0.004 7.99 7.55 8.92
4/22/2023 10:30:00 PM 14.08 57.344 0.004 7.98 7.56 8.94
4/22/2023 10:45:00 PM 14.01 57.218 0.004 7.97 8.64 9
4/22/2023 11:00:00 PM 13.84 56.912 0.004 7.96 8.65 9.08
4/22/2023 11:15:00 PM 13.68 56.624 0.004 7.95 8.72 9.14
4/22/2023 11:30:00 PM 13.5 56.3 0.004 7.94 9.64 9.18
4/22/2023 11:45:00 PM 13.31 55.958 0.004 7.94 9.44 9.25
4/23/2023 12:00:00 AM 13.15 55.67 0.004 7.94 9.54 9.3
4/23/2023 12:15:00 AM 13 55.4 0.004 7.94 10.68 9.35
4/23/2023 12:30:00 AM 12.89 55.202 0.004 7.93 11.51 9.4
4/23/2023 12:45:00 AM 12.8 55.04 0.004 7.93 12.09 9.45
4/23/2023 1:00:00 AM 12.71 54.878 0.004 7.93 12.12 9.48
4/23/2023 1:15:00 AM 12.61 54.698 0.004 7.93 11.65 9.5
4/23/2023 1:30:00 AM 12.48 54.464 0.004 7.93 11.87 9.55
4/23/2023 1:45:00 AM 12.36 54.248 0.004 7.93 12.46 9.61
4/23/2023 2:00:00 AM 12.24 54.032 0.004 7.93 11.66 9.64
4/23/2023 2:15:00 AM 12.13 53.834 0.004 7.93 11.16 9.71
4/23/2023 2:30:00 AM 12.04 53.672 0.004 7.92 11.81 9.74
4/23/2023 2:45:00 AM 11.93 53.474 0.004 7.92 11.4 9.78
4/23/2023 3:00:00 AM 11.82 53.276 0.004 7.93 11.64 9.83
4/23/2023 3:15:00 AM 11.71 53.078 0.003 7.93 12.16 9.85
4/23/2023 3:30:00 AM 11.61 52.898 0.004 7.93 11.55 9.88
4/23/2023 3:45:00 AM 11.51 52.718 0.003 7.93 12.08 9.93
4/23/2023 4:00:00 AM 11.41 52.538 0.003 7.93 11.36 9.95
4/23/2023 4:15:00 AM 11.33 52.394 0.003 7.94 11.83 9.97
4/23/2023 4:30:00 AM 11.25 52.25 0.004 7.93 12.37 10
4/23/2023 4:45:00 AM 11.16 52.088 0.003 7.93 12.88 10.01
4/23/2023 5:00:00 AM 11.06 51.908 0.003 7.94 11.79 10.06
4/23/2023 5:15:00 AM 11 51.8 0.003 7.94 12.66 10.07
4/23/2023 5:30:00 AM 10.93 51.674 0.003 7.94 13.06 10.1
4/23/2023 5:45:00 AM 10.88 51.584 0.003 7.94 12.77 10.11
4/23/2023 6:00:00 AM 10.83 51.494 0.004 7.94 12.52 10.13
4/23/2023 6:15:00 AM 10.77 51.386 0.004 7.95 11.71 10.16
4/23/2023 6:30:00 AM 10.71 51.278 0.004 7.95 12.53 10.18
4/23/2023 6:45:00 AM 10.64 51.152 0.004 7.96 10.37 10.23
4/23/2023 7:00:00 AM 10.57 51.026 0.004 7.97 13.51 10.32
4/23/2023 7:15:00 AM 10.54 50.972 0.003 7.99 10.13 10.43
4/23/2023 7:30:00 AM 10.5 50.9 0.004 8.02 10.27 10.55
4/23/2023 7:45:00 AM 10.47 50.846 0.004 8.04 9.09 10.69
4/23/2023 8:00:00 AM 10.44 50.792 0.004 8.08 8.76 10.84
4/23/2023 8:15:00 AM 10.46 50.828 0.004 8.11 9.23 11
4/23/2023 8:30:00 AM 10.48 50.864 0.004 8.14 9.29 11.12
4/23/2023 8:45:00 AM 10.57 51.026 0.004 8.19 8.68 11.26
4/23/2023 9:00:00 AM 10.66 51.188 0.004 8.23 8.08 11.36
4/23/2023 9:15:00 AM 10.79 51.422 0.004 8.29 7.84 11.5
4/23/2023 9:30:00 AM 10.98 51.764 0.004 8.34 7.65 11.61
4/23/2023 9:45:00 AM 11.05 51.89 0.005 8.38 7.7 11.71
4/23/2023 10:00:00 AM 11.16 52.088 0.004 8.42 6.93 11.77
4/23/2023 10:15:00 AM 11.28 52.304 0.005 8.47 6.79 11.86
4/23/2023 10:30:00 AM 11.46 52.628 0.005 8.51 6.6 11.92
4/23/2023 10:45:00 AM 11.62 52.916 0.005 8.56 6.43 11.99
4/23/2023 11:00:00 AM 11.65 52.97 0.005 8.6 6.15 11.99
4/23/2023 11:15:00 AM 11.59 52.862 0.005 8.62 6.44 11.91
4/23/2023 11:30:00 AM 11.53 52.754 0.005 8.63 5.66 11.84
4/23/2023 11:45:00 AM 11.48 52.664 0.005 8.64 5.68 11.8
4/23/2023 12:00:00 PM 11.46 52.628 0.005 8.66 5.65 11.77
4/23/2023 12:15:00 PM 11.49 52.682 0.005 8.69 5.29 11.75
4/23/2023 12:30:00 PM 11.58 52.844 0.005 8.71 5.22 11.78
4/23/2023 12:45:00 PM 11.83 53.294 0.005 8.75 5.11 11.88
4/23/2023 1:00:00 PM 12.23 54.014 0.005 8.79 5.57 12.02
4/23/2023 1:15:00 PM 12.75 54.95 0.005 8.83 4.53 12.07
4/23/2023 1:30:00 PM 12.89 55.202 0.006 8.86 5.14 12.08
4/23/2023 1:45:00 PM 13.05 55.49 0.006 8.88 4.95 12.01
4/23/2023 2:00:00 PM 13.11 55.598 0.006 8.91 7.19 11.97
4/23/2023 2:15:00 PM 12.92 55.256 0.006 8.93 4.91 11.96
4/23/2023 2:30:00 PM 12.84 55.112 0.005 8.95 4.62 11.95
4/23/2023 2:45:00 PM 12.82 55.076 0.005 8.95 4.61 11.87
4/23/2023 3:00:00 PM 12.77 54.986 0.005 8.95 4.91 11.72
4/23/2023 3:15:00 PM 12.69 54.842 0.006 8.93 4.51 11.55
4/23/2023 3:30:00 PM 12.62 54.716 0.005 8.9 4.61 11.38
4/23/2023 3:45:00 PM 12.53 54.554 0.005 8.88 4.01 11.26
4/23/2023 4:00:00 PM 12.46 54.428 0.005 8.87 4.24 11.16
4/23/2023 4:15:00 PM 12.39 54.302 0.005 8.84 4.24 11.09
4/23/2023 4:30:00 PM 12.35 54.23 0.005 8.81 4.26 11.02
4/23/2023 4:45:00 PM 12.34 54.212 0.005 8.82 4.39 11.06
4/23/2023 5:00:00 PM 12.29 54.122 0.005 8.81 4.26 11.07
4/23/2023 5:15:00 PM 12.26 54.068 0.005 8.79 4.17 11.03
4/23/2023 5:30:00 PM 12.22 53.996 0.005 8.76 4.08 10.93
4/23/2023 5:45:00 PM 12.16 53.888 0.005 8.73 4.03 10.81
4/23/2023 6:00:00 PM 12.11 53.798 0.005 8.69 4.15 10.76
4/23/2023 6:15:00 PM 12.05 53.69 0.005 8.67 4.11 10.75
4/23/2023 6:30:00 PM 12.02 53.636 0.005 8.64 3.48 10.74
4/23/2023 6:45:00 PM 11.98 53.564 0.005 8.61 3.54 10.73
4/23/2023 7:00:00 PM 11.94 53.492 0.005 8.61 3.95 10.8
4/23/2023 7:15:00 PM 11.89 53.402 0.005 8.6 3.68 10.79
4/23/2023 7:30:00 PM 11.81 53.258 0.004 8.54 3.78 10.72
4/23/2023 7:45:00 PM 11.72 53.096 0.004 8.49 3.87 10.63
4/23/2023 8:00:00 PM 11.6 52.88 0.004 8.43 3.7 10.53
4/23/2023 8:15:00 PM 11.51 52.718 0.004 8.35 3.62 10.36
4/23/2023 8:30:00 PM 11.39 52.502 0.004 8.28 3.91 10.25
4/23/2023 8:45:00 PM 11.29 52.322 0.004 8.23 3.94 10.21
4/23/2023 9:00:00 PM 11.21 52.178 0.004 8.19 3.52 10.18
4/23/2023 9:15:00 PM 11.12 52.016 0.004 8.15 3.76 10.16
4/23/2023 9:30:00 PM 11.04 51.872 0.004 8.11 4 10.12
4/23/2023 9:45:00 PM 10.94 51.692 0.004 8.09 4.16 10.11
4/23/2023 10:00:00 PM 10.85 51.53 0.004 8.06 4.03 10.1
4/23/2023 10:15:00 PM 10.75 51.35 0.004 8.04 3.94 10.11
4/23/2023 10:30:00 PM 10.65 51.17 0.004 8.03 4.22 10.13
4/23/2023 10:45:00 PM 10.55 50.99 0.004 8.03 3.96 10.14
4/23/2023 11:00:00 PM 10.45 50.81 0.004 8.01 4.45 10.15
4/23/2023 11:15:00 PM 10.35 50.63 0.004 7.98 4.17 10.14
4/23/2023 11:30:00 PM 10.25 50.45 0.004 7.99 3.9 10.16
4/23/2023 11:45:00 PM 10.13 50.234 0.004 7.94 4.28 10.15
4/24/2023 12:00:00 AM 10.03 50.054 0.004 7.97 4.11 10.2
4/24/2023 12:15:00 AM 9.9 49.82 0.004 7.94 4.05 10.2
4/24/2023 12:30:00 AM 9.79 49.622 0.004 7.96 4.28 10.29
4/24/2023 12:45:00 AM 9.7 49.46 0.004 7.95 3.75 10.28
4/24/2023 1:00:00 AM 9.63 49.334 0.004 7.93 4.08 10.25
4/24/2023 1:15:00 AM 9.53 49.154 0.004 7.95 3.87 10.33
4/24/2023 1:30:00 AM 9.45 49.01 0.004 7.94 4.16 10.37
4/24/2023 1:45:00 AM 9.39 48.902 0.004 7.94 3.91 10.39
4/24/2023 2:00:00 AM 9.32 48.776 0.004 7.92 4.14 10.39
4/24/2023 2:15:00 AM 9.24 48.632 0.004 7.94 4.33 10.44
4/24/2023 2:30:00 AM 9.18 48.524 0.004 7.93 4.27 10.44
4/24/2023 2:45:00 AM 9.1 48.38 0.004 7.93 3.9 10.49
4/24/2023 3:00:00 AM 9.04 48.272 0.004 7.91 3.79 10.46
4/24/2023 3:15:00 AM 8.96 48.128 0.004 7.93 4.05 10.53
4/24/2023 3:30:00 AM 8.89 48.002 0.004 7.93 4.44 10.55
4/24/2023 3:45:00 AM 8.82 47.876 0.004 7.92 3.95 10.55
4/24/2023 4:00:00 AM 8.74 47.732 0.004 7.92 3.82 10.58
4/24/2023 4:15:00 AM 8.66 47.588 0.004 7.93 3.8 10.63
4/24/2023 4:30:00 AM 8.59 47.462 0.004 7.93 3.56 10.66
4/24/2023 4:45:00 AM 8.53 47.354 0.004 7.93 3.97 10.68
4/24/2023 5:00:00 AM 8.46 47.228 0.004 7.93 3.59 10.7
4/24/2023 5:15:00 AM 8.4 47.12 0.004 7.92 4.04 10.71
4/24/2023 5:30:00 AM 8.32 46.976 0.005 7.93 3.83 10.74
4/24/2023 5:45:00 AM 8.28 46.904 0.005 7.88 4.47 10.68
4/24/2023 6:00:00 AM 8.18 46.724 0.005 7.93 3.57 10.79
4/24/2023 6:15:00 AM 8.13 46.634 0.005 7.92 4.39 10.78
4/24/2023 6:30:00 AM 8.07 46.526 0.005 7.93 3.66 10.84
4/24/2023 6:45:00 AM 8.02 46.436 0.005 7.94 3.54 10.91
4/24/2023 7:00:00 AM 7.97 46.346 0.004 7.96 3 11.05
4/24/2023 7:15:00 AM 7.95 46.31 0.004 7.99 3.64 11.23
4/24/2023 7:30:00 AM 7.96 46.328 0.005 8.03 3.32 11.44
4/24/2023 7:45:00 AM 8 46.4 0.005 8.1 3.57 11.75
4/24/2023 8:00:00 AM 8.04 46.472 0.005 8.16 3.36 11.98
4/24/2023 8:15:00 AM 8.09 46.562 0.005 8.22 3.3 12.16
4/24/2023 8:30:00 AM 8.12 46.616 0.005 8.28 3.19 12.32
4/24/2023 8:45:00 AM 8.17 46.706 0.005 8.28 3.09 12.39
4/24/2023 9:00:00 AM 8.21 46.778 0.005 8.38 3.04 12.56
4/24/2023 9:15:00 AM 8.36 47.048 0.005 8.42 3.05 12.69
4/24/2023 9:30:00 AM 8.6 47.48 0.005 8.49 3.07 12.84
4/24/2023 9:45:00 AM 8.79 47.822 0.005 8.54 2.8 12.94
4/24/2023 10:00:00 AM 8.93 48.074 0.005 8.58 2.68 12.95
4/24/2023 10:15:00 AM 9.09 48.362 0.005 8.61 2.87 12.96
4/24/2023 10:30:00 AM 9.27 48.686 0.006 8.65 2.78 12.97
4/24/2023 10:45:00 AM 9.25 48.65 0.005 8.66 2.77 12.91
4/24/2023 11:00:00 AM 9.42 48.956 0.006 8.68 2.72 12.94
4/24/2023 11:15:00 AM 9.41 48.938 0.006 8.71 2.63 13.02
4/24/2023 11:30:00 AM 9.42 48.956 0.005 8.75 2.49 13.04
4/24/2023 11:45:00 AM 9.64 49.352 0.006 8.79 2.58 13.12
4/24/2023 12:00:00 PM 9.87 49.766 0.005 8.84 2.45 13.21
4/24/2023 12:15:00 PM 9.99 49.982 0.006 8.88 2.57 13.25
4/24/2023 12:30:00 PM 9.88 49.784 0.005 8.9 2.68 13.15
4/24/2023 12:45:00 PM 9.85 49.73 0.005 8.91 2.64 13.1
4/24/2023 1:00:00 PM 10.18 50.324 0.006 8.95 2.6 13.13
4/24/2023 1:15:00 PM 10.61 51.098 0.006 8.97 2.54 13.19
4/24/2023 1:30:00 PM 11 51.8 0.006 9.01 2.32 13.12
4/24/2023 1:45:00 PM 10.84 51.512 0.006 9.01 2.37 12.85
4/24/2023 2:00:00 PM 10.68 51.224 0.006 8.99 2.72 12.6
4/24/2023 2:15:00 PM 10.65 51.17 0.006 8.97 2.44 12.48
4/24/2023 2:30:00 PM 10.76 51.368 0.006 9.01 2.4 12.55
4/24/2023 2:45:00 PM 10.72 51.296 0.006 9.03 2.43 12.63
4/24/2023 3:00:00 PM 10.61 51.098 0.006 9.03 2.64 12.6
4/24/2023 3:15:00 PM 10.67 51.206 0.006 9.05 2.64 12.62
4/24/2023 3:30:00 PM 10.99 51.782 0.006 9.1 2.35 12.76
4/24/2023 3:45:00 PM 11.46 52.628 0.006 9.14 2.75 12.8
4/24/2023 4:00:00 PM 11.75 53.15 0.006 9.15 2.63 12.81
4/24/2023 4:15:00 PM 12 53.6 0.006 9.18 2.71 12.82
4/24/2023 4:30:00 PM 12.04 53.672 0.007 9.19 2.69 12.78
4/24/2023 4:45:00 PM 11.98 53.564 0.006 9.2 2.57 12.7
4/24/2023 5:00:00 PM 11.85 53.33 0.006 9.19 2.61 12.57
4/24/2023 5:15:00 PM 11.71 53.078 0.006 9.18 2.64 12.38
4/24/2023 5:30:00 PM 11.72 53.096 0.006 9.18 2.52 12.29
4/24/2023 5:45:00 PM 11.72 53.096 0.006 9.18 2.62 12.25
4/24/2023 6:00:00 PM 11.67 53.006 0.006 9.18 2.39 12.21
4/24/2023 6:15:00 PM 11.65 52.97 0.006 9.18 2.58 12.13
4/24/2023 6:30:00 PM 11.62 52.916 0.006 9.17 2.65 12.02
4/24/2023 6:45:00 PM 11.59 52.862 0.006 9.14 2.58 11.8
4/24/2023 7:00:00 PM 11.54 52.772 0.006 9.11 2.6 11.61
4/24/2023 7:15:00 PM 11.48 52.664 0.006 9.07 2.45 11.45
4/24/2023 7:30:00 PM 11.38 52.484 0.006 9.02 2.29 11.28
4/24/2023 7:45:00 PM 11.29 52.322 0.006 8.97 2.55 11.09
4/24/2023 8:00:00 PM 11.22 52.196 0.005 8.91 2.42 10.92
4/24/2023 8:15:00 PM 11.15 52.07 0.006 8.86 2.61 10.75
4/24/2023 8:30:00 PM 11.09 51.962 0.006 8.81 17.95 10.6
4/24/2023 8:45:00 PM 11.03 51.854 0.006 8.74 2.66 10.47
4/24/2023 9:00:00 PM 10.96 51.728 0.006 8.67 2.91 10.4
4/24/2023 9:15:00 PM 10.88 51.584 0.006 8.6 3.08 10.33
4/24/2023 9:30:00 PM 10.81 51.458 0.005 8.53 2.79 10.29
4/24/2023 9:45:00 PM 10.73 51.314 0.005 8.46 2.92 10.27
4/24/2023 10:00:00 PM 10.67 51.206 0.006 8.4 3.01 10.24
4/24/2023 10:15:00 PM 10.59 51.062 0.006 8.35 3.02 10.23
4/24/2023 10:30:00 PM 10.5 50.9 0.005 8.29 2.85 10.22
4/24/2023 10:45:00 PM 10.39 50.702 0.005 8.24 2.86 10.21
4/24/2023 11:00:00 PM 10.28 50.504 0.005 8.2 3.09 10.22
4/24/2023 11:15:00 PM 10.15 50.27 0.005 8.15 3.07 10.23
4/24/2023 11:30:00 PM 10.02 50.036 0.005 8.1 2.65 10.22
4/24/2023 11:45:00 PM 9.91 49.838 0.005 8.08 3.03 10.23
4/25/2023 12:00:00 AM 9.78 49.604 0.005 8.07 3.33 10.3
4/25/2023 12:15:00 AM 9.67 49.406 0.005 8.04 3.05 10.31
4/25/2023 12:30:00 AM 9.57 49.226 0.005 8.02 3.04 10.34
4/25/2023 12:45:00 AM 9.47 49.046 0.005 7.99 3.14 10.34
4/25/2023 1:00:00 AM 9.34 48.812 0.005 7.99 3.39 10.39
4/25/2023 1:15:00 AM 9.24 48.632 0.005 7.97 3.76 10.36
4/25/2023 1:30:00 AM 9.11 48.398 0.005 7.98 3.41 10.48
4/25/2023 1:45:00 AM 9.01 48.218 0.005 7.97 3.45 10.47
4/25/2023 2:00:00 AM 8.89 48.002 0.005 7.97 3.34 10.54
4/25/2023 2:15:00 AM 8.75 47.75 0.005 7.96 3.72 10.58
4/25/2023 2:30:00 AM 8.66 47.588 0.005 7.95 3.01 10.59
4/25/2023 2:45:00 AM 8.56 47.408 0.005 7.94 3.45 10.62
4/25/2023 3:00:00 AM 8.44 47.192 0.005 7.95 3.26 10.67
4/25/2023 3:15:00 AM 8.36 47.048 0.005 7.94 3.14 10.65
4/25/2023 3:30:00 AM 8.22 46.796 0.005 7.94 3.16 10.72
4/25/2023 3:45:00 AM 8.09 46.562 0.005 7.94 3.17 10.76
4/25/2023 4:00:00 AM 7.99 46.382 0.005 7.94 3.23 10.79
4/25/2023 4:15:00 AM 7.89 46.202 0.005 7.94 2.95 10.82
4/25/2023 4:30:00 AM 7.79 46.022 0.005 7.93 3.1 10.83
4/25/2023 4:45:00 AM 7.68 45.824 0.005 7.94 3.36 10.89
4/25/2023 5:00:00 AM 7.6 45.68 0.005 7.92 3.43 10.9
4/25/2023 5:15:00 AM 7.53 45.554 0.005 7.93 3.37 10.93
4/25/2023 5:30:00 AM 7.43 45.374 0.005 7.94 3.06 10.97
4/25/2023 5:45:00 AM 7.37 45.266 0.005 7.91 3.35 10.98
4/25/2023 6:00:00 AM 7.29 45.122 0.005 7.93 2.95 11.02
4/25/2023 6:15:00 AM 7.22 44.996 0.005 7.91 2.91 11.04
4/25/2023 6:30:00 AM 7.16 44.888 0.005 7.93 3.07 11.13
4/25/2023 6:45:00 AM 7.1 44.78 0.005 7.95 3.09 11.22
4/25/2023 7:00:00 AM 7.02 44.636 0.005 7.98 3.04 11.41
4/25/2023 7:15:00 AM 6.98 44.564 0.005 8.01 3.13 11.57
4/25/2023 7:30:00 AM 6.95 44.51 0.005 8.05 2.92 11.83
4/25/2023 7:45:00 AM 6.94 44.492 0.005 8.08 2.96 12.01
4/25/2023 8:00:00 AM 6.94 44.492 0.005 8.15 3.02 12.27
4/25/2023 8:15:00 AM 6.94 44.492 0.005 8.21 2.73 12.47
4/25/2023 8:30:00 AM 6.99 44.582 0.005 8.24 2.71 12.63
4/25/2023 8:45:00 AM 7.04 44.672 0.005 8.3 2.65 12.79
4/25/2023 9:00:00 AM 7.13 44.834 0.005 8.34 2.83 12.93
4/25/2023 9:15:00 AM 7.23 45.014 0.005 8.41 2.84 13.13
4/25/2023 9:30:00 AM 7.41 45.338 0.005 8.48 2.64 13.23
4/25/2023 9:45:00 AM 7.57 45.626 0.005 8.56 2.84 13.39
4/25/2023 10:00:00 AM 7.7 45.86 0.005 8.59 2.74 13.43
4/25/2023 10:15:00 AM 7.79 46.022 0.005 8.65 2.84 13.5
4/25/2023 10:30:00 AM 7.98 46.364 0.005 8.69 2.72 13.55
4/25/2023 10:45:00 AM 8.3 46.94 0.006 8.73 2.84 13.64
4/25/2023 11:00:00 AM 8.55 47.39 0.006 8.77 2.95 13.7
4/25/2023 11:15:00 AM 8.55 47.39 0.006 8.79 2.75 13.63
4/25/2023 11:30:00 AM 8.48 47.264 0.006 8.81 2.8 13.53
4/25/2023 11:45:00 AM 8.74 47.732 0.006 8.83 3.12 13.56
4/25/2023 12:00:00 PM 8.88 47.984 0.006 8.85 6.45 13.52
4/25/2023 12:15:00 PM 8.8 47.84 0.314 8.52 2.99 13.79
4/25/2023 12:30:00 PM 8.85 47.93 0.314 8.6 2.51 13.83
4/25/2023 12:45:00 PM 8.99 48.182 0.313 8.68 2.55 13.88
4/25/2023 1:00:00 PM 9.24 48.632 0.313 8.75 2.48 13.92
4/25/2023 1:15:00 PM 9.65 49.37 0.313 8.81 2.56 13.97
4/25/2023 1:30:00 PM 10.25 50.45 0.313 8.87 2.71 13.98
4/25/2023 1:45:00 PM 10.49 50.882 0.313 8.92 2.44 13.93
4/25/2023 2:00:00 PM 10.87 51.566 0.313 8.97 2.61 13.87
4/25/2023 2:15:00 PM 11.14 52.052 0.314 9.01 2.53 13.85
4/25/2023 2:30:00 PM 11.24 52.232 0.313 9.05 2.59 13.84
4/25/2023 2:45:00 PM 11.45 52.61 0.314 9.08 2.4 13.77
4/25/2023 3:00:00 PM 11.6 52.88 0.313 9.12 2.54 13.7
4/25/2023 3:15:00 PM 11.61 52.898 0.313 9.15 2.44 13.66
4/25/2023 3:30:00 PM 11.67 53.006 0.313 9.18 2.41 13.62
4/25/2023 3:45:00 PM 11.71 53.078 0.313 9.2 2.49 13.54
4/25/2023 4:00:00 PM 11.67 53.006 0.312 9.22 2.43 13.46
4/25/2023 4:15:00 PM 11.85 53.33 0.312 9.24 2.44 13.4
4/25/2023 4:30:00 PM 11.95 53.51 0.312 9.26 2.31 13.35
4/25/2023 4:45:00 PM 12 53.6 0.311 9.28 2.53 13.25
4/25/2023 5:00:00 PM 11.95 53.51 0.311 9.29 2.4 13.15
4/25/2023 5:15:00 PM 11.96 53.528 0.31 9.3 2.44 13.09
4/25/2023 5:30:00 PM 11.93 53.474 0.31 9.31 2.35 13.04
4/25/2023 5:45:00 PM 11.88 53.384 0.309 9.31 2.35 12.89
4/25/2023 6:00:00 PM 11.84 53.312 0.31 9.31 2.21 12.79
4/25/2023 6:15:00 PM 11.84 53.312 0.309 9.3 2.26 12.66
4/25/2023 6:30:00 PM 11.82 53.276 0.31 9.3 2.5 12.48
4/25/2023 6:45:00 PM 11.79 53.222 0.309 9.27 2.42 12.26
4/25/2023 7:00:00 PM 11.76 53.168 0.31 9.25 2.41 12.05
4/25/2023 7:15:00 PM 11.71 53.078 0.311 9.22 2.28 11.86
4/25/2023 7:30:00 PM 11.65 52.97 0.312 9.18 2.34 11.68
4/25/2023 7:45:00 PM 11.58 52.844 0.314 9.13 2.39 11.45
4/25/2023 8:00:00 PM 11.51 52.718 0.316 9.08 2.29 11.23
4/25/2023 8:15:00 PM 11.44 52.592 0.316 9.02 2.29 11.02
4/25/2023 8:30:00 PM 11.37 52.466 0.316 8.96 2.34 10.84
4/25/2023 8:45:00 PM 11.28 52.304 0.316 8.89 2.44 10.69
4/25/2023 9:00:00 PM 11.22 52.196 0.316 8.83 2.64 10.59
4/25/2023 9:15:00 PM 11.15 52.07 0.316 8.75 2.49 10.51
4/25/2023 9:30:00 PM 11.06 51.908 0.315 8.68 2.41 10.46
4/25/2023 9:45:00 PM 10.99 51.782 0.315 8.6 2.44 10.42
4/25/2023 10:00:00 PM 10.93 51.674 0.316 8.54 2.41 10.4
4/25/2023 10:15:00 PM 10.86 51.548 0.316 8.47 2.52 10.39
4/25/2023 10:30:00 PM 10.81 51.458 0.316 8.4 2.46 10.37
4/25/2023 10:45:00 PM 10.73 51.314 0.316 8.34 2.63 10.36
4/25/2023 11:00:00 PM 10.63 51.134 0.317 8.28 2.66 10.35
4/25/2023 11:15:00 PM 10.53 50.954 0.317 8.22 2.65 10.35
4/25/2023 11:30:00 PM 10.43 50.774 0.317 8.17 2.75 10.35
4/25/2023 11:45:00 PM 10.31 50.558 0.317 8.13 3.48 10.36
4/26/2023 12:00:00 AM 10.19 50.342 0.317 8.09 2.65 10.39
4/26/2023 12:15:00 AM 10.06 50.108 0.318 8.06 3.42 10.41
4/26/2023 12:30:00 AM 9.94 49.892 0.318 8.04 2.62 10.44
4/26/2023 12:45:00 AM 9.82 49.676 0.318 8.01 2.85 10.47
4/26/2023 1:00:00 AM 9.72 49.496 0.318 7.99 2.65 10.48
4/26/2023 1:15:00 AM 9.61 49.298 0.318 7.97 2.73 10.51
4/26/2023 1:30:00 AM 9.49 49.082 0.318 7.96 2.84 10.54
4/26/2023 1:45:00 AM 9.4 48.92 0.318 7.94 2.74 10.58
4/26/2023 2:00:00 AM 9.3 48.74 0.318 7.93 2.97 10.62
4/26/2023 2:15:00 AM 9.22 48.596 0.319 7.91 2.81 10.64
4/26/2023 2:30:00 AM 9.13 48.434 0.319 7.9 2.66 10.68
4/26/2023 2:45:00 AM 9.05 48.29 0.319 7.89 2.83 10.69
4/26/2023 3:00:00 AM 8.96 48.128 0.319 7.88 2.8 10.73
4/26/2023 3:15:00 AM 8.87 47.966 0.319 7.88 2.78 10.76
4/26/2023 3:30:00 AM 8.78 47.804 0.32 7.86 2.72 10.78
4/26/2023 3:45:00 AM 8.7 47.66 0.321 7.86 2.62 10.81
4/26/2023 4:00:00 AM 8.62 47.516 0.322 7.85 2.63 10.83
4/26/2023 4:15:00 AM 8.55 47.39 0.324 7.85 2.77 10.86
4/26/2023 4:30:00 AM 8.47 47.246 0.324 7.84 2.77 10.88
4/26/2023 4:45:00 AM 8.41 47.138 0.324 7.84 2.68 10.9
4/26/2023 5:00:00 AM 8.33 46.994 0.324 7.83 2.54 10.93
4/26/2023 5:15:00 AM 8.27 46.886 0.323 7.83 2.71 10.95
4/26/2023 5:30:00 AM 8.21 46.778 0.323 7.82 2.62 10.98
4/26/2023 5:45:00 AM 8.13 46.634 0.322 7.82 2.66 11
4/26/2023 6:00:00 AM 8.06 46.508 0.321 7.82 2.84 11.03
4/26/2023 6:15:00 AM 7.99 46.382 0.321 7.81 2.64 11.06
4/26/2023 6:30:00 AM 7.94 46.292 0.321 7.82 2.49 11.1
4/26/2023 6:45:00 AM 7.88 46.184 0.321 7.81 3.67 11.16
4/26/2023 7:00:00 AM 7.84 46.112 0.321 7.82 3.44 11.25
4/26/2023 7:15:00 AM 7.8 46.04 0.32 7.84 2.48 11.34
4/26/2023 7:30:00 AM 7.77 45.986 0.32 7.86 2.64 11.51
4/26/2023 7:45:00 AM 7.76 45.968 0.32 7.9 2.44 11.78
4/26/2023 8:00:00 AM 7.77 45.986 0.32 7.95 2.74 12.1
4/26/2023 8:15:00 AM 7.84 46.112 0.32 8.02 2.52 12.44
4/26/2023 8:30:00 AM 7.9 46.22 0.319 8.09 3.31 12.74
4/26/2023 8:45:00 AM 7.97 46.346 0.319 8.17 2.55 12.98
4/26/2023 9:00:00 AM 8.1 46.58 0.319 8.25 2.59 13.21
4/26/2023 9:15:00 AM 8.22 46.796 0.318 8.34 2.54 13.4
4/26/2023 9:30:00 AM 8.38 47.084 0.318 8.42 2.48 13.59
4/26/2023 9:45:00 AM 8.53 47.354 0.317 8.49 2.4 13.73
4/26/2023 10:00:00 AM 8.57 47.426 0.317 8.55 2.51 13.81
4/26/2023 10:15:00 AM 8.52 47.336 0.317 8.57 2.6 13.69
4/26/2023 10:30:00 AM 8.45 47.21 0.317 8.58 2.65 13.51
4/26/2023 10:45:00 AM 8.36 47.048 0.317 8.58 2.59 13.39
4/26/2023 11:00:00 AM 8.32 46.976 0.316 8.59 2.75 13.35
4/26/2023 11:15:00 AM 8.33 46.994 0.316 8.61 2.97 13.45
4/26/2023 11:30:00 AM 8.56 47.408 0.315 8.66 2.81 13.64
4/26/2023 11:45:00 AM 8.93 48.074 0.315 8.71 3.66 13.86
4/26/2023 12:00:00 PM 9.22 48.596 0.315 8.79 2.85 14.03
4/26/2023 12:15:00 PM 9.57 49.226 0.315 8.87 2.75 14.14
4/26/2023 12:30:00 PM 9.84 49.712 0.315 8.93 2.75 14.2
4/26/2023 12:45:00 PM 10.28 50.504 0.316 8.98 2.75 14.23
4/26/2023 1:00:00 PM 10.34 50.612 0.316 9.01 3.65 14.11
4/26/2023 1:15:00 PM 10.23 50.414 0.315 9.04 2.91 13.95
4/26/2023 1:30:00 PM 10.11 50.198 0.314 9.05 3.02 13.9
4/26/2023 1:45:00 PM 10.32 50.576 0.313 9.09 2.84 13.95
4/26/2023 2:00:00 PM 10.59 51.062 0.312 9.13 2.94 14.03
4/26/2023 2:15:00 PM 11.01 51.818 0.311 9.17 2.88 14.08
4/26/2023 2:30:00 PM 11.25 52.25 0.311 9.22 3.1 14.06
4/26/2023 2:45:00 PM 11.31 52.358 0.31 9.26 2.73 13.88
4/26/2023 3:00:00 PM 11.43 52.574 0.31 9.31 3.04 13.77
4/26/2023 3:15:00 PM 11.76 53.168 0.309 9.34 3.18 13.77
4/26/2023 3:30:00 PM 12.05 53.69 0.309 9.37 3.14 13.78
4/26/2023 3:45:00 PM 12.02 53.636 0.309 9.37 3.36 13.59
4/26/2023 4:00:00 PM 11.87 53.366 0.309 9.37 3.2 13.5
4/26/2023 4:15:00 PM 11.96 53.528 0.309 9.39 2.91 13.52
4/26/2023 4:30:00 PM 12.15 53.87 0.308 9.42 2.96 13.5
4/26/2023 4:45:00 PM 12.32 54.176 0.308 9.44 3.03 13.37
4/26/2023 5:00:00 PM 12.41 54.338 0.308 9.45 2.84 13.29
4/26/2023 5:15:00 PM 12.45 54.41 0.308 9.46 2.93 13.22
4/26/2023 5:30:00 PM 12.4 54.32 0.308 9.47 2.9 13.11
4/26/2023 5:45:00 PM 12.35 54.23 0.308 9.47 2.94 12.95
4/26/2023 6:00:00 PM 12.29 54.122 0.308 9.45 2.81 12.85
4/26/2023 6:15:00 PM 12.2 53.96 0.308 9.45 2.89 12.79
4/26/2023 6:30:00 PM 12.12 53.816 0.308 9.44 3.13 12.66
4/26/2023 6:45:00 PM 12.04 53.672 0.308 9.42 2.88 12.51
4/26/2023 7:00:00 PM 12.02 53.636 0.309 9.41 2.67 12.38
4/26/2023 7:15:00 PM 11.96 53.528 0.309 9.39 3.51 12.2
4/26/2023 7:30:00 PM 11.89 53.402 0.309 9.36 2.63 11.97
4/26/2023 7:45:00 PM 11.81 53.258 0.31 9.32 2.61 11.72
4/26/2023 8:00:00 PM 11.76 53.168 0.312 9.26 2.6 11.44
4/26/2023 8:15:00 PM 11.72 53.096 0.314 9.19 2.57 11.14
4/26/2023 8:30:00 PM 11.68 53.024 0.316 9.13 2.48 10.91
4/26/2023 8:45:00 PM 11.64 52.952 0.318 9.05 2.54 10.7
4/26/2023 9:00:00 PM 11.6 52.88 0.319 8.98 2.52 10.55
4/26/2023 9:15:00 PM 11.58 52.844 0.319 8.91 2.7 10.44
4/26/2023 9:30:00 PM 11.54 52.772 0.318 8.85 2.63 10.36
4/26/2023 9:45:00 PM 11.48 52.664 0.318 8.79 2.69 10.32
4/26/2023 10:00:00 PM 11.41 52.538 0.317 8.72 2.58 10.29
4/26/2023 10:15:00 PM 11.31 52.358 0.317 8.65 2.71 10.27
4/26/2023 10:30:00 PM 11.23 52.214 0.317 8.57 2.63 10.25
4/26/2023 10:45:00 PM 11.15 52.07 0.317 8.49 2.6 10.24
4/26/2023 11:00:00 PM 11.07 51.926 0.317 8.42 2.54 10.24
4/26/2023 11:15:00 PM 11.01 51.818 0.317 8.35 3.04 10.23
4/26/2023 11:30:00 PM 10.93 51.674 0.317 8.28 3.41 10.24
4/26/2023 11:45:00 PM 10.85 51.53 0.317 8.24 2.71 10.25
4/27/2023 12:00:00 AM 10.76 51.368 0.317 8.2 2.65 10.25
4/27/2023 12:15:00 AM 10.66 51.188 0.317 8.15 2.72 10.26
4/27/2023 12:30:00 AM 10.53 50.954 0.318 8.12 2.73 10.29
4/27/2023 12:45:00 AM 10.39 50.702 0.318 8.09 2.99 10.31
4/27/2023 1:00:00 AM 10.27 50.486 0.318 8.06 2.81 10.34
4/27/2023 1:15:00 AM 10.12 50.216 0.318 8.03 2.97 10.36
4/27/2023 1:30:00 AM 9.99 49.982 0.319 8.01 2.76 10.4
4/27/2023 1:45:00 AM 9.83 49.694 0.319 7.99 2.79 10.44
4/27/2023 2:00:00 AM 9.7 49.46 0.319 7.97 2.94 10.46
4/27/2023 2:15:00 AM 9.56 49.208 0.319 7.96 2.67 10.5
4/27/2023 2:30:00 AM 9.47 49.046 0.319 7.94 3.87 10.53
4/27/2023 2:45:00 AM 9.38 48.884 0.319 7.93 2.78 10.56
4/27/2023 3:00:00 AM 9.31 48.758 0.32 7.92 2.69 10.59
4/27/2023 3:15:00 AM 9.24 48.632 0.32 7.91 2.74 10.61
4/27/2023 3:30:00 AM 9.15 48.47 0.32 7.9 2.79 10.64
4/27/2023 3:45:00 AM 9.07 48.326 0.32 7.89 2.73 10.66
4/27/2023 4:00:00 AM 8.99 48.182 0.321 7.88 2.93 10.69
4/27/2023 4:15:00 AM 8.91 48.038 0.321 7.87 2.87 10.71
4/27/2023 4:30:00 AM 8.82 47.876 0.323 7.86 3.61 10.74
4/27/2023 4:45:00 AM 8.71 47.678 0.324 7.86 2.77 10.77
4/27/2023 5:00:00 AM 8.62 47.516 0.324 7.85 3.54 10.79
4/27/2023 5:15:00 AM 8.53 47.354 0.325 7.84 2.76 10.81
4/27/2023 5:30:00 AM 8.43 47.174 0.324 7.84 3.65 10.85
4/27/2023 5:45:00 AM 8.33 46.994 0.323 7.84 2.84 10.88
4/27/2023 6:00:00 AM 8.23 46.814 0.322 7.83 3.66 10.91
4/27/2023 6:15:00 AM 8.13 46.634 0.322 7.83 2.77 10.96
4/27/2023 6:30:00 AM 8.04 46.472 0.321 7.83 2.88 11.05
4/27/2023 6:45:00 AM 7.96 46.328 0.321 7.85 2.58 11.2
4/27/2023 7:00:00 AM 7.9 46.22 0.32 7.87 3.56 11.44
4/27/2023 7:15:00 AM 7.89 46.202 0.32 7.91 3.66 11.72
4/27/2023 7:30:00 AM 7.9 46.22 0.319 7.96 2.61 12.02
4/27/2023 7:45:00 AM 7.93 46.274 0.319 8.02 2.68 12.31
4/27/2023 8:00:00 AM 7.97 46.346 0.319 8.09 2.63 12.58
4/27/2023 8:15:00 AM 8.04 46.472 0.318 8.16 2.51 12.82
4/27/2023 8:30:00 AM 8.11 46.598 0.318 8.24 2.7 13.07
4/27/2023 8:45:00 AM 8.2 46.76 0.317 8.31 2.41 13.31
4/27/2023 9:00:00 AM 8.32 46.976 0.317 8.39 2.58 13.51
4/27/2023 9:15:00 AM 8.47 47.246 0.317 8.46 2.51 13.7
4/27/2023 9:30:00 AM 8.67 47.606 0.316 8.53 2.57 13.86
4/27/2023 9:45:00 AM 8.87 47.966 0.315 8.61 2.36 14.01
4/27/2023 10:00:00 AM 9.12 48.416 0.315 8.67 2.52 14.11
4/27/2023 10:15:00 AM 9.44 48.992 0.314 8.74 2.26 14.2
4/27/2023 10:30:00 AM 9.76 49.568 0.314 8.8 2.43 14.28
4/27/2023 10:45:00 AM 10.09 50.162 0.313 8.86 2.36 14.33
4/27/2023 11:00:00 AM 10.5 50.9 0.313 8.92 2.29 14.41
4/27/2023 11:15:00 AM 10.91 51.638 0.312 8.98 2.21 14.43
4/27/2023 11:30:00 AM 11.25 52.25 0.312 9.03 2.44 14.41
4/27/2023 11:45:00 AM 11.51 52.718 0.311 9.07 2.39 14.4
4/27/2023 12:00:00 PM 11.85 53.33 0.311 9.12 2.4 14.37
4/27/2023 12:15:00 PM 11.87 53.366 0.311 9.16 2.34 14.34
4/27/2023 12:30:00 PM 11.94 53.492 0.311 9.21 2.39 14.25
4/27/2023 12:45:00 PM 12.11 53.798 0.312 9.24 2.4 14.18
4/27/2023 1:00:00 PM 12.43 54.374 0.312 9.27 2.34 14.15
4/27/2023 1:15:00 PM 12.82 55.076 0.311 9.31 2.43 14.18
4/27/2023 1:30:00 PM 13.26 55.868 0.31 9.36 2.5 14.16
4/27/2023 1:45:00 PM 13.64 56.552 0.309 9.4 2.53 14.05
4/27/2023 2:00:00 PM 13.9 57.02 0.309 9.44 2.57 14.04
4/27/2023 2:15:00 PM 14.39 57.902 0.308 9.48 2.44 13.97
4/27/2023 2:30:00 PM 14.62 58.316 0.307 9.51 2.74 13.94
4/27/2023 2:45:00 PM 15.11 59.198 0.306 9.56 2.74 13.84
4/27/2023 3:00:00 PM 15.42 59.756 0.305 9.59 2.53 13.76
4/27/2023 3:15:00 PM 15.59 60.062 0.304 9.62 2.67 13.68
4/27/2023 3:30:00 PM 15.69 60.242 0.304 9.63 3.04 13.63
4/27/2023 3:45:00 PM 15.82 60.476 0.303 9.65 2.68 13.56
4/27/2023 4:00:00 PM 15.89 60.602 0.303 9.66 2.89 13.47
4/27/2023 4:15:00 PM 15.97 60.746 0.303 9.68 2.73 13.38
4/27/2023 4:30:00 PM 16.07 60.926 0.302 9.7 2.82 13.27
4/27/2023 4:45:00 PM 16.08 60.944 0.302 9.71 2.84 13.19
4/27/2023 5:00:00 PM 16.05 60.89 0.302 9.71 2.83 13.05
4/27/2023 5:15:00 PM 15.99 60.782 0.302 9.72 2.83 12.94
4/27/2023 5:30:00 PM 15.9 60.62 0.302 9.72 2.85 12.8
4/27/2023 5:45:00 PM 15.78 60.404 0.302 9.71 2.89 12.67
4/27/2023 6:00:00 PM 15.69 60.242 0.302 9.7 12.39 12.5
4/27/2023 6:15:00 PM 15.59 60.062 0.302 9.7 2.86 12.4
4/27/2023 6:30:00 PM 15.51 59.918 0.302 9.69 2.89 12.23
4/27/2023 6:45:00 PM 15.42 59.756 0.303 9.67 2.98 12.03
4/27/2023 7:00:00 PM 15.35 59.63 0.303 9.65 3.19 11.84
4/27/2023 7:15:00 PM 15.26 59.468 0.303 9.62 3.17 11.57
4/27/2023 7:30:00 PM 15.17 59.306 0.304 9.59 3.04 11.3
4/27/2023 7:45:00 PM 15.08 59.144 0.305 9.54 3.8 10.99
4/27/2023 8:00:00 PM 14.99 58.982 0.306 9.49 2.85 10.64
4/27/2023 8:15:00 PM 14.91 58.838 0.307 9.43 3.03 10.32
4/27/2023 8:30:00 PM 14.85 58.73 0.308 9.37 2.82 10.03
4/27/2023 8:45:00 PM 14.79 58.622 0.309 9.3 2.93 9.77
4/27/2023 9:00:00 PM 14.74 58.532 0.312 9.24 8.33 9.57
4/27/2023 9:15:00 PM 14.7 58.46 0.314 9.16 2.85 9.4
4/27/2023 9:30:00 PM 14.63 58.334 0.315 9.08 2.91 9.3
4/27/2023 9:45:00 PM 14.55 58.19 0.316 9.02 3.09 9.23
4/27/2023 10:00:00 PM 14.48 58.064 0.317 8.96 2.89 9.17
4/27/2023 10:15:00 PM 14.39 57.902 0.318 8.89 2.9 9.14
4/27/2023 10:30:00 PM 14.27 57.686 0.318 8.81 2.94 9.14
4/27/2023 10:45:00 PM 14.15 57.47 0.318 8.73 3.02 9.12
4/27/2023 11:00:00 PM 14.03 57.254 0.318 8.64 3.28 9.12
4/27/2023 11:15:00 PM 13.91 57.038 0.319 8.54 2.78 9.13
4/27/2023 11:30:00 PM 13.8 56.84 0.319 8.46 2.76 9.12
4/27/2023 11:45:00 PM 13.66 56.588 0.32 8.38 2.8 9.14
4/28/2023 12:00:00 AM 13.52 56.336 0.32 8.31 2.82 9.16
4/28/2023 12:15:00 AM 13.4 56.12 0.32 8.25 2.86 9.16
4/28/2023 12:30:00 AM 13.26 55.868 0.321 8.2 2.83 9.19
4/28/2023 12:45:00 AM 13.1 55.58 0.321 8.15 3.02 9.24
4/28/2023 1:00:00 AM 12.94 55.292 0.322 8.11 3.06 9.29
4/28/2023 1:15:00 AM 12.81 55.058 0.322 8.08 2.94 9.32
4/28/2023 1:30:00 AM 12.68 54.824 0.322 8.05 2.85 9.33
4/28/2023 1:45:00 AM 12.52 54.536 0.323 8.02 2.9 9.4
4/28/2023 2:00:00 AM 12.36 54.248 0.323 7.99 2.77 9.43
4/28/2023 2:15:00 AM 12.22 53.996 0.324 7.97 3.13 9.48
4/28/2023 2:30:00 AM 12.08 53.744 0.324 7.96 2.99 9.49
4/28/2023 2:45:00 AM 11.93 53.474 0.324 7.94 3.11 9.55
4/28/2023 3:00:00 AM 11.78 53.204 0.324 7.92 3.17 9.57
4/28/2023 3:15:00 AM 11.61 52.898 0.325 7.91 3.03 9.64
4/28/2023 3:30:00 AM 11.49 52.682 0.325 7.89 2.97 9.68
4/28/2023 3:45:00 AM 11.36 52.448 0.325 7.88 3.11 9.72
4/28/2023 4:00:00 AM 11.23 52.214 0.325 7.87 3.1 9.78
4/28/2023 4:15:00 AM 11.08 51.944 0.326 7.86 2.92 9.83
4/28/2023 4:30:00 AM 10.96 51.728 0.326 7.86 3.13 9.86
4/28/2023 4:45:00 AM 10.88 51.584 0.326 7.84 3.2 9.88
4/28/2023 5:00:00 AM 10.76 51.368 0.327 7.84 2.99 9.93
4/28/2023 5:15:00 AM 10.67 51.206 0.328 7.82 3.86 9.95
4/28/2023 5:30:00 AM 10.56 51.008 0.329 7.82 3.03 9.99
4/28/2023 5:45:00 AM 10.48 50.864 0.33 7.82 3.12 10.02
4/28/2023 6:00:00 AM 10.42 50.756 0.331 7.81 2.94 10.05
4/28/2023 6:15:00 AM 10.37 50.666 0.331 7.81 2.98 10.08
4/28/2023 6:30:00 AM 10.32 50.576 0.33 7.81 2.85 10.13
4/28/2023 6:45:00 AM 10.29 50.522 0.33 7.81 3.09 10.21
4/28/2023 7:00:00 AM 10.26 50.468 0.329 7.82 2.76 10.34
4/28/2023 7:15:00 AM 10.24 50.432 0.329 7.84 2.77 10.46
4/28/2023 7:30:00 AM 10.22 50.396 0.328 7.86 2.89 10.65
4/28/2023 7:45:00 AM 10.21 50.378 0.328 7.89 2.7 10.81
4/28/2023 8:00:00 AM 10.2 50.36 0.327 7.93 2.53 11.05
4/28/2023 8:15:00 AM 10.2 50.36 0.326 7.98 2.66 11.31
4/28/2023 8:30:00 AM 10.21 50.378 0.326 8.03 2.51 11.54
4/28/2023 8:45:00 AM 10.25 50.45 0.325 8.1 2.56 11.82
4/28/2023 9:00:00 AM 10.3 50.54 0.324 8.18 3.47 12.19
4/28/2023 9:15:00 AM 10.36 50.648 0.324 8.27 2.5 12.5
4/28/2023 9:30:00 AM 10.42 50.756 0.323 8.36 2.52 12.78
4/28/2023 9:45:00 AM 10.49 50.882 0.323 8.45 2.47 13.02
4/28/2023 10:00:00 AM 10.57 51.026 0.323 8.52 2.6 13.24
4/28/2023 10:15:00 AM 10.68 51.224 0.322 8.6 2.75 13.43
4/28/2023 10:30:00 AM 10.83 51.494 0.321 8.68 2.45 13.64
4/28/2023 10:45:00 AM 10.94 51.692 0.321 8.75 2.51 13.76
4/28/2023 11:00:00 AM 11.01 51.818 0.32 8.81 2.44 13.85
4/28/2023 11:15:00 AM 11.13 52.034 0.32 8.86 2.53 13.9
4/28/2023 11:30:00 AM 11.18 52.124 0.319 8.91 2.49 13.96
4/28/2023 11:45:00 AM 11.23 52.214 0.319 8.96 2.48 14.01
4/28/2023 12:00:00 PM 11.24 52.232 0.319 9 2.44 14.01
4/28/2023 12:15:00 PM 11.24 52.232 0.319 9.03 2.73 13.86
4/28/2023 12:30:00 PM 11.22 52.196 0.319 9.05 2.34 13.79
4/28/2023 12:45:00 PM 11.2 52.16 0.318 9.07 2.56 13.7
4/28/2023 1:00:00 PM 11.17 52.106 0.318 9.09 2.37 13.65
4/28/2023 1:15:00 PM 11.14 52.052 0.319 9.11 2.31 13.53
4/28/2023 1:30:00 PM 11.11 51.998 0.319 9.11 2.35 13.33
4/28/2023 1:45:00 PM 11.12 52.016 0.32 9.11 2.31 13.19
4/28/2023 2:00:00 PM 11.15 52.07 0.32 9.13 2.41 13.19
4/28/2023 2:15:00 PM 11.22 52.196 0.32 9.16 2.31 13.29
4/28/2023 2:30:00 PM 11.29 52.322 0.319 9.19 2.27 13.35
4/28/2023 2:45:00 PM 11.34 52.412 0.319 9.22 2.28 13.41
4/28/2023 3:00:00 PM 11.42 52.556 0.318 9.25 2.34 13.48
4/28/2023 3:15:00 PM 11.48 52.664 0.316 9.28 2.25 13.52
4/28/2023 3:30:00 PM 11.52 52.736 0.316 9.31 2.28 13.53
4/28/2023 3:45:00 PM 11.57 52.826 0.315 9.34 2.42 13.51
4/28/2023 4:00:00 PM 11.61 52.898 0.314 9.36 2.39 13.5
4/28/2023 4:15:00 PM 11.64 52.952 0.313 9.37 2.44 13.5
4/28/2023 4:30:00 PM 11.69 53.042 0.313 9.39 2.3 13.46
4/28/2023 4:45:00 PM 11.76 53.168 0.312 9.41 2.25 13.43
4/28/2023 5:00:00 PM 11.84 53.312 0.312 9.42 2.36 13.47
4/28/2023 5:15:00 PM 11.94 53.492 0.311 9.46 2.42 13.48
4/28/2023 5:30:00 PM 12 53.6 0.31 9.48 2.36 13.49
4/28/2023 5:45:00 PM 12.02 53.636 0.31 9.5 2.27 13.46
4/28/2023 6:00:00 PM 12.01 53.618 0.31 9.51 2.39 13.38
4/28/2023 6:15:00 PM 11.96 53.528 0.31 9.51 2.38 13.11
4/28/2023 6:30:00 PM 11.9 53.42 0.31 9.49 2.37 12.79
4/28/2023 6:45:00 PM 11.8 53.24 0.31 9.46 2.4 12.41
4/28/2023 7:00:00 PM 11.71 53.078 0.31 9.42 2.43 12.11
4/28/2023 7:15:00 PM 11.63 52.934 0.31 9.38 2.59 11.87
4/28/2023 7:30:00 PM 11.54 52.772 0.31 9.33 2.63 11.6
4/28/2023 7:45:00 PM 11.49 52.682 0.311 9.29 2.69 11.42
4/28/2023 8:00:00 PM 11.45 52.61 0.311 9.25 2.64 11.24
4/28/2023 8:15:00 PM 11.41 52.538 0.311 9.21 2.7 11.04
4/28/2023 8:30:00 PM 11.38 52.484 0.312 9.16 2.67 10.84
4/28/2023 8:45:00 PM 11.35 52.43 0.313 9.1 2.57 10.67
4/28/2023 9:00:00 PM 11.31 52.358 0.314 9.04 2.54 10.54
4/28/2023 9:15:00 PM 11.26 52.268 0.316 8.97 2.6 10.45
4/28/2023 9:30:00 PM 11.19 52.142 0.318 8.89 2.52 10.36
4/28/2023 9:45:00 PM 11.13 52.034 0.32 8.8 2.66 10.29
4/28/2023 10:00:00 PM 11.07 51.926 0.321 8.72 2.56 10.26
4/28/2023 10:15:00 PM 11.01 51.818 0.322 8.64 2.75 10.23
4/28/2023 10:30:00 PM 10.98 51.764 0.322 8.58 2.94 10.19
4/28/2023 10:45:00 PM 10.93 51.674 0.322 8.51 2.85 10.18
4/28/2023 11:00:00 PM 10.9 51.62 0.322 8.45 2.82 10.16
4/28/2023 11:15:00 PM 10.86 51.548 0.321 8.39 2.84 10.15
4/28/2023 11:30:00 PM 10.83 51.494 0.321 8.33 2.81 10.14
4/28/2023 11:45:00 PM 10.79 51.422 0.321 8.28 2.88 10.15
4/29/2023 12:00:00 AM 10.74 51.332 0.321 8.23 3.78 10.15
4/29/2023 12:15:00 AM 10.69 51.242 0.321 8.19 3.05 10.15
4/29/2023 12:30:00 AM 10.63 51.134 0.321 8.15 2.95 10.15
4/29/2023 12:45:00 AM 10.58 51.044 0.321 8.12 2.97 10.16
4/29/2023 1:00:00 AM 10.52 50.936 0.321 8.09 3 10.17
4/29/2023 1:15:00 AM 10.46 50.828 0.321 8.06 3.43 10.16
4/29/2023 1:30:00 AM 10.4 50.72 0.321 8.04 3.5 10.17
4/29/2023 1:45:00 AM 10.35 50.63 0.322 8.02 3.41 10.18
4/29/2023 2:00:00 AM 10.29 50.522 0.322 8 3.43 10.19
4/29/2023 2:15:00 AM 10.22 50.396 0.322 7.98 3.34 10.22
4/29/2023 2:30:00 AM 10.15 50.27 0.322 7.97 3.48 10.24
4/29/2023 2:45:00 AM 10.07 50.126 0.322 7.96 3.34 10.26
4/29/2023 3:00:00 AM 10 50 0.322 7.95 3.42 10.27
4/29/2023 3:15:00 AM 9.93 49.874 0.323 7.93 3.19 10.29
4/29/2023 3:30:00 AM 9.87 49.766 0.322 7.93 3.42 10.32
4/29/2023 3:45:00 AM 9.81 49.658 0.322 7.92 3.42 10.34
4/29/2023 4:00:00 AM 9.76 49.568 0.322 7.91 3.26 10.36
4/29/2023 4:15:00 AM 9.71 49.478 0.322 7.9 3.25 10.38
4/29/2023 4:30:00 AM 9.67 49.406 0.322 7.9 3.3 10.39
4/29/2023 4:45:00 AM 9.63 49.334 0.323 7.89 3.43 10.4
4/29/2023 5:00:00 AM 9.58 49.244 0.323 7.89 3.2 10.42
4/29/2023 5:15:00 AM 9.54 49.172 0.323 7.88 3.47 10.43
4/29/2023 5:30:00 AM 9.5 49.1 0.323 7.88 3.2 10.45
4/29/2023 5:45:00 AM 9.47 49.046 0.321 7.87 4.11 10.46
4/29/2023 6:00:00 AM 9.43 48.974 0.321 7.87 3.24 10.48
4/29/2023 6:15:00 AM 9.39 48.902 0.319 7.87 3.18 10.5
4/29/2023 6:30:00 AM 9.35 48.83 0.319 7.86 3.11 10.53
4/29/2023 6:45:00 AM 9.32 48.776 0.318 7.87 3.04 10.58
4/29/2023 7:00:00 AM 9.3 48.74 0.317 7.88 3.33 10.66
4/29/2023 7:15:00 AM 9.27 48.686 0.316 7.89 3.07 10.78
4/29/2023 7:30:00 AM 9.26 48.668 0.315 7.92 3.05 10.96
4/29/2023 7:45:00 AM 9.25 48.65 0.314 7.95 3.06 11.13
4/29/2023 8:00:00 AM 9.26 48.668 0.313 7.98 2.87 11.35
4/29/2023 8:15:00 AM 9.28 48.704 0.312 8.03 2.91 11.59
4/29/2023 8:30:00 AM 9.29 48.722 0.312 8.08 2.83 11.75
4/29/2023 8:45:00 AM 9.3 48.74 0.311 8.13 2.96 11.9
4/29/2023 9:00:00 AM 9.31 48.758 0.31 8.17 2.83 12.02
4/29/2023 9:15:00 AM 9.32 48.776 0.31 8.21 2.82 12.11
4/29/2023 9:30:00 AM 9.36 48.848 0.31 8.25 2.86 12.26
4/29/2023 9:45:00 AM 9.41 48.938 0.309 8.31 2.8 12.44
4/29/2023 10:00:00 AM 9.48 49.064 0.309 8.38 2.94 12.67
4/29/2023 10:15:00 AM 9.54 49.172 0.309 8.45 2.75 12.82
4/29/2023 10:30:00 AM 9.61 49.298 0.308 8.52 2.73 12.98
4/29/2023 10:45:00 AM 9.68 49.424 0.308 8.58 2.9 13.07
4/29/2023 11:00:00 AM 9.7 49.46 0.308 8.62 2.69 13.12
4/29/2023 11:15:00 AM 9.71 49.478 0.308 8.66 2.82 13.1
4/29/2023 11:30:00 AM 9.73 49.514 0.308 8.69 2.71 13.12
4/29/2023 11:45:00 AM 9.79 49.622 0.309 8.74 2.98 13.18
4/29/2023 12:00:00 PM 9.85 49.73 0.309 8.79 2.74 13.27
4/29/2023 12:15:00 PM 10.01 50.018 0.309 8.84 2.95 13.38
4/29/2023 12:30:00 PM 10.18 50.324 0.308 8.9 2.66 13.51
4/29/2023 12:45:00 PM 10.33 50.594 0.307 8.96 2.7 13.59
4/29/2023 1:00:00 PM 10.46 50.828 0.306 9.01 2.82 13.64
4/29/2023 1:15:00 PM 10.58 51.044 0.305 9.06 2.75 13.68
4/29/2023 1:30:00 PM 10.64 51.152 0.304 9.1 2.85 13.67
4/29/2023 1:45:00 PM 10.65 51.17 0.304 9.13 2.92 13.57
4/29/2023 2:00:00 PM 10.72 51.296 0.303 9.16 2.88 13.51
4/29/2023 2:15:00 PM 10.87 51.566 0.303 9.2 2.88 13.55
4/29/2023 2:30:00 PM 11 51.8 0.302 9.23 2.91 13.55
4/29/2023 2:45:00 PM 11.07 51.926 0.301 9.26 2.89 13.55
4/29/2023 3:00:00 PM 11.18 52.124 0.3 9.29 3.01 13.51
4/29/2023 3:15:00 PM 11.3 52.34 0.299 9.32 3.08 13.5
4/29/2023 3:30:00 PM 11.49 52.682 0.299 9.33 2.97 13.46
4/29/2023 3:45:00 PM 11.59 52.862 0.298 9.35 3.01 13.42
4/29/2023 4:00:00 PM 11.65 52.97 0.298 9.37 3 13.37
4/29/2023 4:15:00 PM 11.74 53.132 0.297 9.39 2.97 13.34
4/29/2023 4:30:00 PM 11.77 53.186 0.296 9.4 2.99 13.23
4/29/2023 4:45:00 PM 11.75 53.15 0.296 9.39 2.97 13.01
4/29/2023 5:00:00 PM 11.74 53.132 0.296 9.38 2.97 12.79
4/29/2023 5:15:00 PM 11.73 53.114 0.296 9.36 2.96 12.54
4/29/2023 5:30:00 PM 11.73 53.114 0.296 9.33 2.94 12.32
4/29/2023 5:45:00 PM 11.75 53.15 0.296 9.31 2.99 12.2
4/29/2023 6:00:00 PM 11.77 53.186 0.296 9.3 2.86 12.16
4/29/2023 6:15:00 PM 11.77 53.186 0.296 9.27 2.92 12.09
4/29/2023 6:30:00 PM 11.77 53.186 0.296 9.25 3.06 11.99
4/29/2023 6:45:00 PM 11.76 53.168 0.296 9.22 3.04 11.88
4/29/2023 7:00:00 PM 11.74 53.132 0.297 9.19 3.03 11.79
4/29/2023 7:15:00 PM 11.71 53.078 0.297 9.15 3.1 11.66
4/29/2023 7:30:00 PM 11.67 53.006 0.297 9.11 3.42 11.48
4/29/2023 7:45:00 PM 11.63 52.934 0.298 9.05 2.97 11.25
4/29/2023 8:00:00 PM 11.58 52.844 0.299 8.98 4.08 11.03
4/29/2023 8:15:00 PM 11.53 52.754 0.299 8.9 3.15 10.84
4/29/2023 8:30:00 PM 11.49 52.682 0.3 8.81 3.04 10.67
4/29/2023 8:45:00 PM 11.45 52.61 0.301 8.74 3.03 10.55
4/29/2023 9:00:00 PM 11.4 52.52 0.301 8.65 3.28 10.47
4/29/2023 9:15:00 PM 11.37 52.466 0.302 8.57 3.18 10.4
4/29/2023 9:30:00 PM 11.32 52.376 0.302 8.5 3.43 10.36
4/29/2023 9:45:00 PM 11.28 52.304 0.303 8.43 3.21 10.32
4/29/2023 10:00:00 PM 11.24 52.232 0.303 8.36 3.35 10.29
4/29/2023 10:15:00 PM 11.2 52.16 0.303 8.31 3.42 10.27
4/29/2023 10:30:00 PM 11.15 52.07 0.304 8.26 3.49 10.25
4/29/2023 10:45:00 PM 11.1 51.98 0.304 8.22 3.48 10.23
4/29/2023 11:00:00 PM 11.06 51.908 0.304 8.17 3.2 10.22
4/29/2023 11:15:00 PM 11.02 51.836 0.305 8.14 3.48 10.21
4/29/2023 11:30:00 PM 10.97 51.746 0.305 8.12 3.56 10.2
4/29/2023 11:45:00 PM 10.93 51.674 0.305 8.09 3.43 10.19
4/30/2023 12:00:00 AM 10.9 51.62 0.306 8.06 3.23 10.19
4/30/2023 12:15:00 AM 10.87 51.566 0.306 8.04 3.37 10.19
4/30/2023 12:30:00 AM 10.84 51.512 0.306 8.02 3.28 10.19
4/30/2023 12:45:00 AM 10.8 51.44 0.307 8.01 3.46 10.2
4/30/2023 1:00:00 AM 10.77 51.386 0.307 7.99 3.33 10.19
4/30/2023 1:15:00 AM 10.75 51.35 0.307 7.98 3.28 10.19
4/30/2023 1:30:00 AM 10.72 51.296 0.307 7.96 4.03 10.19
4/30/2023 1:45:00 AM 10.69 51.242 0.307 7.96 3.21 10.2
4/30/2023 2:00:00 AM 10.67 51.206 0.307 7.94 3.26 10.2
4/30/2023 2:15:00 AM 10.65 51.17 0.307 7.93 3.39 10.2
4/30/2023 2:30:00 AM 10.62 51.116 0.308 7.92 3.44 10.21
4/30/2023 2:45:00 AM 10.6 51.08 0.308 7.92 3.16 10.21
4/30/2023 3:00:00 AM 10.58 51.044 0.308 7.91 3.39 10.22
4/30/2023 3:15:00 AM 10.57 51.026 0.308 7.91 3.26 10.21
4/30/2023 3:30:00 AM 10.55 50.99 0.308 7.9 3.24 10.22
4/30/2023 3:45:00 AM 10.53 50.954 0.308 7.89 3.09 10.22
4/30/2023 4:00:00 AM 10.52 50.936 0.308 7.89 3.18 10.23
4/30/2023 4:15:00 AM 10.5 50.9 0.308 7.89 3.12 10.24
4/30/2023 4:30:00 AM 10.49 50.882 0.309 7.88 3.19 10.23
4/30/2023 4:45:00 AM 10.47 50.846 0.309 7.88 3.27 10.22
4/30/2023 5:00:00 AM 10.46 50.828 0.309 7.87 3.26 10.23
4/30/2023 5:15:00 AM 10.45 50.81 0.309 7.87 3.2 10.23
4/30/2023 5:30:00 AM 10.43 50.774 0.309 7.87 3.09 10.24
4/30/2023 5:45:00 AM 10.41 50.738 0.309 7.86 3.13 10.24
4/30/2023 6:00:00 AM 10.4 50.72 0.309 7.86 3.38 10.24
4/30/2023 6:15:00 AM 10.38 50.684 0.309 7.86 3.16 10.24
4/30/2023 6:30:00 AM 10.38 50.684 0.309 7.86 3.35 10.27
4/30/2023 6:45:00 AM 10.37 50.666 0.309 7.87 3.14 10.32
4/30/2023 7:00:00 AM 10.37 50.666 0.309 7.88 3.04 10.4
4/30/2023 7:15:00 AM 10.37 50.666 0.309 7.9 3.23 10.55
4/30/2023 7:30:00 AM 10.38 50.684 0.309 7.93 7.16 10.72
4/30/2023 7:45:00 AM 10.39 50.702 0.309 7.96 3.31 10.9
4/30/2023 8:00:00 AM 10.41 50.738 0.308 8 3.16 11.03
4/30/2023 8:15:00 AM 10.42 50.756 0.308 8.03 3.13 11.18
4/30/2023 8:30:00 AM 10.46 50.828 0.308 8.09 3.15 11.4
4/30/2023 8:45:00 AM 10.48 50.864 0.308 8.14 2.9 11.54
4/30/2023 9:00:00 AM 10.53 50.954 0.308 8.2 2.92 11.74
4/30/2023 9:15:00 AM 10.58 51.044 0.307 8.27 2.94 11.93
4/30/2023 9:30:00 AM 10.62 51.116 0.307 8.33 2.86 12.1
4/30/2023 9:45:00 AM 10.65 51.17 0.307 8.39 2.94 12.2
4/30/2023 10:00:00 AM 10.68 51.224 0.307 8.44 2.93 12.28
4/30/2023 10:15:00 AM 10.71 51.278 0.307 8.48 2.82 12.34
4/30/2023 10:30:00 AM 10.72 51.296 0.306 8.51 3.67 12.36
4/30/2023 10:45:00 AM 10.74 51.332 0.306 8.54 2.82 12.36
4/30/2023 11:00:00 AM 10.77 51.386 0.306 8.57 2.74 12.41
4/30/2023 11:15:00 AM 10.82 51.476 0.305 8.63 2.66 12.55
4/30/2023 11:30:00 AM 10.88 51.584 0.305 8.68 2.65 12.66
4/30/2023 11:45:00 AM 10.92 51.656 0.304 8.73 2.72 12.75
4/30/2023 12:00:00 PM 10.94 51.692 0.303 8.77 2.7 12.71
4/30/2023 12:15:00 PM 10.96 51.728 0.301 8.8 3.13 12.65
4/30/2023 12:30:00 PM 10.98 51.764 0.3 8.82 3.09 12.61
4/30/2023 12:45:00 PM 11.03 51.854 0.3 8.85 3.53 12.64
4/30/2023 1:00:00 PM 11.1 51.98 0.299 8.89 3.37 12.76
4/30/2023 1:15:00 PM 11.19 52.142 0.299 8.94 3.49 12.86
4/30/2023 1:30:00 PM 11.26 52.268 0.298 8.98 3.42 12.92
4/30/2023 1:45:00 PM 11.31 52.358 0.298 9.02 3.16 12.9
4/30/2023 2:00:00 PM 11.34 52.412 0.298 9.04 3.27 12.81
4/30/2023 2:15:00 PM 11.35 52.43 0.297 9.05 3.39 12.69
4/30/2023 2:30:00 PM 11.36 52.448 0.297 9.05 3.65 12.56
4/30/2023 2:45:00 PM 11.39 52.502 0.297 9.07 3.95 12.54
4/30/2023 3:00:00 PM 11.46 52.628 0.297 9.09 3.87 12.56
4/30/2023 3:15:00 PM 11.53 52.754 0.297 9.11 4.13 12.6
4/30/2023 3:30:00 PM 11.57 52.826 0.296 9.13 4.44 12.6
4/30/2023 3:45:00 PM 11.57 52.826 0.296 9.12 5.2 12.44
4/30/2023 4:00:00 PM 11.56 52.808 0.298 9.09 4.91 12.2
4/30/2023 4:15:00 PM 11.57 52.826 0.301 9.07 5.39 12.06
4/30/2023 4:30:00 PM 11.58 52.844 0.304 9.04 6.96 12
4/30/2023 4:45:00 PM 11.6 52.88 0.307 9.02 6.9 11.94
4/30/2023 5:00:00 PM 11.62 52.916 0.309 9.01 6.89 11.88
4/30/2023 5:15:00 PM 11.61 52.898 0.31 8.96 7.25 11.73
4/30/2023 5:30:00 PM 11.59 52.862 0.311 8.9 8.99 11.57
4/30/2023 5:45:00 PM 11.58 52.844 0.309 8.84 10.4 11.39
4/30/2023 6:00:00 PM 11.56 52.808 0.307 8.76 11.59 11.23
4/30/2023 6:15:00 PM 11.52 52.736 0.304 8.67 13.6 11.09
4/30/2023 6:30:00 PM 11.47 52.646 0.301 8.59 11.31 10.96
4/30/2023 6:45:00 PM 11.4 52.52 0.295 8.48 21.17 10.83
4/30/2023 7:00:00 PM 11.32 52.376 0.288 8.31 29.68 10.68
4/30/2023 7:15:00 PM 11.24 52.232 0.281 8.08 26.05 10.57
4/30/2023 7:30:00 PM 11.15 52.07 0.274 8.01 32.02 10.49
4/30/2023 7:45:00 PM 11.08 51.944 0.27 8.01 51.13 10.46
4/30/2023 8:00:00 PM 11.01 51.818 0.267 7.99 65.32 10.45
4/30/2023 8:15:00 PM 10.94 51.692 0.265 7.95 67.6 10.45
4/30/2023 8:30:00 PM 10.86 51.548 0.263 7.91 75.12 10.47
4/30/2023 8:45:00 PM 10.78 51.404 0.262 7.89 71.97 10.49
4/30/2023 9:00:00 PM 10.71 51.278 0.262 7.86 99.24 10.51
4/30/2023 9:15:00 PM 10.62 51.116 0.26 7.86 74.49 10.53
4/30/2023 9:30:00 PM 10.53 50.954 0.258 7.85 77.49 10.57
4/30/2023 9:45:00 PM 10.43 50.774 0.255 7.84 74.18 10.59
4/30/2023 10:00:00 PM 10.34 50.612 0.251 7.83 75.17 10.62
4/30/2023 10:15:00 PM 10.25 50.45 0.248 7.81 73.75 10.65
4/30/2023 10:30:00 PM 10.17 50.306 0.245 7.77 72.97 10.68
4/30/2023 10:45:00 PM 10.08 50.144 0.243 7.76 72.83 10.7
4/30/2023 11:00:00 PM 10.01 50.018 0.241 7.76 73.47 10.73
4/30/2023 11:15:00 PM 9.93 49.874 0.238 7.75 72.81 10.75
4/30/2023 11:30:00 PM 9.86 49.748 0.237 7.74 71.66 10.77
4/30/2023 11:45:00 PM 9.79 49.622 0.235 7.74 70.12 10.79
5/1/2023 12:00:00 AM 9.72 49.496 0.233 7.72 63.45 10.81
5/1/2023 12:15:00 AM 9.65 49.37 0.232 7.73 67.1 10.83
5/1/2023 12:30:00 AM 9.59 49.262 0.23 7.72 63.53 10.85
5/1/2023 12:45:00 AM 9.52 49.136 0.229 7.72 61.08 10.87
5/1/2023 1:00:00 AM 9.46 49.028 0.229 7.71 57.41 10.89
5/1/2023 1:15:00 AM 9.4 48.92 0.228 7.71 57.54 10.9
5/1/2023 1:30:00 AM 9.34 48.812 0.228 7.71 53.01 10.92
5/1/2023 1:45:00 AM 9.28 48.704 0.228 7.72 52.07 10.93
5/1/2023 2:00:00 AM 9.22 48.596 0.228 7.73 51.38 10.95
5/1/2023 2:15:00 AM 9.17 48.506 0.228 7.73 45.75 10.96
5/1/2023 2:30:00 AM 9.11 48.398 0.228 7.74 46.98 10.98
5/1/2023 2:45:00 AM 9.06 48.308 0.228 7.77 45.31 11
5/1/2023 3:00:00 AM 9.01 48.218 0.228 7.72 42.4 11.01
5/1/2023 3:15:00 AM 8.96 48.128 0.228 7.69 42.14 11.03
5/1/2023 3:30:00 AM 8.91 48.038 0.228 7.68 42.29 11.04
5/1/2023 3:45:00 AM 8.86 47.948 0.227 7.67 39.08 11.05
5/1/2023 4:00:00 AM 8.79 47.822 0.227 7.67 37.5 11.06
5/1/2023 4:15:00 AM 8.72 47.696 0.227 7.67 38.47 11.08
5/1/2023 4:30:00 AM 8.66 47.588 0.227 7.67 35.56 11.1
5/1/2023 4:45:00 AM 8.61 47.498 0.228 7.68 34.84 11.11
5/1/2023 5:00:00 AM 8.54 47.372 0.228 7.68 33.05 11.13
5/1/2023 5:15:00 AM 8.48 47.264 0.228 7.68 33.39 11.14
5/1/2023 5:30:00 AM 8.4 47.12 0.228 7.68 31.2 11.16
5/1/2023 5:45:00 AM 8.34 47.012 0.228 7.68 30.43 11.18
5/1/2023 6:00:00 AM 8.26 46.868 0.228 7.68 28.57 11.2
5/1/2023 6:15:00 AM 8.19 46.742 0.228 7.69 27.83 11.22
5/1/2023 6:30:00 AM 8.13 46.634 0.229 7.69 25.76 11.24
5/1/2023 6:45:00 AM 8.07 46.526 0.229 7.7 25.25 11.27
5/1/2023 7:00:00 AM 8.03 46.454 0.229 7.7 23.96 11.3
5/1/2023 7:15:00 AM 8.01 46.418 0.229 7.72 22.85 11.35
5/1/2023 7:30:00 AM 7.99 46.382 0.23 7.73 22.1 11.4
5/1/2023 7:45:00 AM 7.97 46.346 0.23 7.74 20.68 11.44
5/1/2023 8:00:00 AM 7.97 46.346 0.23 7.76 20.89 11.5
5/1/2023 8:15:00 AM 7.95 46.31 0.23 7.77 21.13 11.52
5/1/2023 8:30:00 AM 7.95 46.31 0.231 7.79 19.99 11.57
5/1/2023 8:45:00 AM 8 46.4 0.231 7.81 19.11 11.65
5/1/2023 9:00:00 AM 8.07 46.526 0.232 7.84 17.33 11.72
5/1/2023 9:15:00 AM 8.14 46.652 0.232 7.88 17.58 11.81
5/1/2023 9:30:00 AM 8.19 46.742 0.233 7.91 17.36 11.84
5/1/2023 9:45:00 AM 8.26 46.868 0.233 7.94 16.31 11.89
5/1/2023 10:00:00 AM 8.38 47.084 0.233 7.97 16.15 11.93
5/1/2023 10:15:00 AM 8.48 47.264 0.233 8 14.54 11.96
5/1/2023 10:30:00 AM 8.55 47.39 0.234 8.03 16.34 11.98
5/1/2023 10:45:00 AM 8.68 47.624 0.234 8.05 15.9 11.97
5/1/2023 11:00:00 AM 8.82 47.876 0.235 8.09 15.02 12
5/1/2023 11:15:00 AM 8.8 47.84 0.235 8.1 13.68 11.95
5/1/2023 11:30:00 AM 8.79 47.822 0.234 8.11 13.24 11.94
5/1/2023 11:45:00 AM 9.22 48.596 0.234 8.16 13.18 12.03
5/1/2023 12:00:00 PM 9.51 49.118 0.234 8.2 13.37 12.08
5/1/2023 12:15:00 PM 9.72 49.496 0.235 8.24 12.85 12.07
5/1/2023 12:30:00 PM 9.85 49.73 0.235 8.27 12.52 11.99
5/1/2023 12:45:00 PM 9.96 49.928 0.235 8.26 12.25 11.88
5/1/2023 1:00:00 PM 10.19 50.342 0.235 8.29 11.63 11.9
5/1/2023 1:15:00 PM 10.53 50.954 0.237 8.34 12 11.91
5/1/2023 1:30:00 PM 10.69 51.242 0.237 8.38 11.59 11.91
5/1/2023 1:45:00 PM 11.01 51.818 0.237 8.44 11.92 11.92
5/1/2023 2:00:00 PM 11.37 52.466 0.237 8.48 11.28 11.92
5/1/2023 2:15:00 PM 11.53 52.754 0.238 8.5 11.07 11.87
5/1/2023 2:30:00 PM 11.64 52.952 0.238 8.54 10.76 11.82
5/1/2023 2:45:00 PM 11.67 53.006 0.238 8.53 11.45 11.69
5/1/2023 3:00:00 PM 11.57 52.826 0.239 8.5 11.01 11.55
5/1/2023 3:15:00 PM 11.53 52.754 0.238 8.5 11.13 11.5
5/1/2023 3:30:00 PM 11.55 52.79 0.238 8.49 11.01 11.47
5/1/2023 3:45:00 PM 11.43 52.574 0.239 8.44 10.81 11.28
5/1/2023 4:00:00 PM 11.63 52.934 0.238 8.44 11.1 11.36
5/1/2023 4:15:00 PM 11.86 53.348 0.238 8.5 10.54 11.48
5/1/2023 4:30:00 PM 11.86 53.348 0.238 8.51 10.65 11.47
5/1/2023 4:45:00 PM 11.69 53.042 0.237 8.46 10.43 11.28
5/1/2023 5:00:00 PM 11.74 53.132 0.238 8.46 9.87 11.35
5/1/2023 5:15:00 PM 11.74 53.132 0.239 8.48 10.75 11.43
5/1/2023 5:30:00 PM 11.66 52.988 0.24 8.48 11.2 11.43
5/1/2023 5:45:00 PM 11.6 52.88 0.239 8.47 11.45 11.42
5/1/2023 6:00:00 PM 11.58 52.844 0.239 8.46 11.72 11.4
5/1/2023 6:15:00 PM 11.51 52.718 0.24 8.44 12.14 11.35
5/1/2023 6:30:00 PM 11.45 52.61 0.241 8.41 13.15 11.27
5/1/2023 6:45:00 PM 11.43 52.574 0.242 8.37 12.94 11.14
5/1/2023 7:00:00 PM 11.38 52.484 0.241 8.31 13.06 11.01
5/1/2023 7:15:00 PM 11.3 52.34 0.242 8.27 12.7 10.93
5/1/2023 7:30:00 PM 11.19 52.142 0.242 8.21 12.5 10.86
5/1/2023 7:45:00 PM 11.1 51.98 0.242 8.16 13.09 10.79
5/1/2023 8:00:00 PM 11.01 51.818 0.242 8.12 11.73 10.71
5/1/2023 8:15:00 PM 10.92 51.656 0.242 8.07 11.53 10.65
5/1/2023 8:30:00 PM 10.83 51.494 0.241 8.03 10.85 10.62
5/1/2023 8:45:00 PM 10.73 51.314 0.241 7.99 10.35 10.59
5/1/2023 9:00:00 PM 10.61 51.098 0.241 7.97 11.11 10.58
5/1/2023 9:15:00 PM 10.5 50.9 0.242 7.93 10.71 10.58
5/1/2023 9:30:00 PM 10.37 50.666 0.243 7.91 10.95 10.59
5/1/2023 9:45:00 PM 10.27 50.486 0.243 7.89 10.08 10.59
5/1/2023 10:00:00 PM 10.17 50.306 0.243 7.87 10.19 10.61
5/1/2023 10:15:00 PM 10.06 50.108 0.242 7.86 10.77 10.63
5/1/2023 10:30:00 PM 9.95 49.91 0.242 7.84 9.46 10.64
5/1/2023 10:45:00 PM 9.84 49.712 0.242 7.83 10.05 10.67
5/1/2023 11:00:00 PM 9.72 49.496 0.242 7.81 10.53 10.69
5/1/2023 11:15:00 PM 9.6 49.28 0.243 7.81 10.34 10.72
5/1/2023 11:30:00 PM 9.51 49.118 0.244 7.8 10.59 10.74
5/1/2023 11:45:00 PM 9.42 48.956 0.244 7.79 11.22 10.77
5/2/2023 12:00:00 AM 9.34 48.812 0.244 7.78 10.73 10.79
5/2/2023 12:15:00 AM 9.26 48.668 0.244 7.77 10.77 10.81
5/2/2023 12:30:00 AM 9.17 48.506 0.245 7.76 10.1 10.83
5/2/2023 12:45:00 AM 9.08 48.344 0.245 7.76 10.49 10.86
5/2/2023 1:00:00 AM 9 48.2 0.246 7.76 10.54 10.88
5/2/2023 1:15:00 AM 8.9 48.02 0.247 7.75 10.79 10.91
5/2/2023 1:30:00 AM 8.8 47.84 0.247 7.74 10.48 10.94
5/2/2023 1:45:00 AM 8.72 47.696 0.248 7.74 10.12 10.96
5/2/2023 2:00:00 AM 8.65 47.57 0.247 7.74 9.65 10.99
5/2/2023 2:15:00 AM 8.55 47.39 0.247 7.74 10.01 11.01
5/2/2023 2:30:00 AM 8.47 47.246 0.246 7.73 10.4 11.04
5/2/2023 2:45:00 AM 8.38 47.084 0.247 7.73 10.13 11.06
5/2/2023 3:00:00 AM 8.31 46.958 0.247 7.73 9.87 11.09
5/2/2023 3:15:00 AM 8.23 46.814 0.247 7.73 10.83 11.11
5/2/2023 3:30:00 AM 8.14 46.652 0.247 7.73 9.88 11.14
5/2/2023 3:45:00 AM 8.04 46.472 0.248 7.73 10.13 11.16
5/2/2023 4:00:00 AM 7.95 46.31 0.248 7.72 10.85 11.19
5/2/2023 4:15:00 AM 7.87 46.166 0.248 7.72 10.66 11.22
5/2/2023 4:30:00 AM 7.79 46.022 0.248 7.72 10.97 11.24
5/2/2023 4:45:00 AM 7.71 45.878 0.248 7.71 10.71 11.27
5/2/2023 5:00:00 AM 7.63 45.734 0.248 7.71 10.42 11.29
5/2/2023 5:15:00 AM 7.57 45.626 0.249 7.71 10.5 11.31
5/2/2023 5:30:00 AM 7.5 45.5 0.249 7.7 10.93 11.33
5/2/2023 5:45:00 AM 7.44 45.392 0.249 7.71 10.78 11.35
5/2/2023 6:00:00 AM 7.36 45.248 0.249 7.71 10.32 11.38
5/2/2023 6:15:00 AM 7.28 45.104 0.248 7.71 10.23 11.42
5/2/2023 6:30:00 AM 7.22 44.996 0.248 7.71 9.95 11.47
5/2/2023 6:45:00 AM 7.17 44.906 0.247 7.72 10.38 11.55
5/2/2023 7:00:00 AM 7.14 44.852 0.247 7.73 10.23 11.62
5/2/2023 7:15:00 AM 7.12 44.816 0.246 7.76 10.23 11.75
5/2/2023 7:30:00 AM 7.11 44.798 0.246 7.79 10.44 11.88
5/2/2023 7:45:00 AM 7.1 44.78 0.245 7.82 9.61 11.99
5/2/2023 8:00:00 AM 7.14 44.852 0.245 7.85 10.55 12.13
5/2/2023 8:15:00 AM 7.19 44.942 0.245 7.9 9.63 12.27
5/2/2023 8:30:00 AM 7.26 45.068 0.245 7.94 9.32 12.38
5/2/2023 8:45:00 AM 7.28 45.104 0.244 7.99 9.54 12.44
5/2/2023 9:00:00 AM 7.31 45.158 0.245 8.01 9.14 12.5
5/2/2023 9:15:00 AM 7.38 45.284 0.244 8.06 10.26 12.57
5/2/2023 9:30:00 AM 7.51 45.518 0.244 8.11 9.18 12.65
5/2/2023 9:45:00 AM 7.67 45.806 0.244 8.17 9.61 12.73
5/2/2023 10:00:00 AM 7.84 46.112 0.244 8.23 8.85 12.77
5/2/2023 10:15:00 AM 8.1 46.58 0.244 8.28 8.82 12.83
5/2/2023 10:30:00 AM 8.43 47.174 0.244 8.34 8.72 12.86
5/2/2023 10:45:00 AM 8.39 47.102 0.244 8.38 8.24 12.83
5/2/2023 11:00:00 AM 8.48 47.264 0.244 8.41 8.52 12.82
5/2/2023 11:15:00 AM 8.54 47.372 0.244 8.44 8.5 12.75
5/2/2023 11:30:00 AM 8.74 47.732 0.244 8.48 7.99 12.79
5/2/2023 11:45:00 AM 8.98 48.164 0.244 8.54 8.08 12.84
5/2/2023 12:00:00 PM 9.14 48.452 0.244 8.58 8.43 12.82
5/2/2023 12:15:00 PM 9.29 48.722 0.245 8.61 8.29 12.83
5/2/2023 12:30:00 PM 9.26 48.668 0.245 8.63 8.01 12.65
5/2/2023 12:45:00 PM 9.39 48.902 0.244 8.64 8.25 12.66
5/2/2023 1:00:00 PM 9.51 49.118 0.244 8.67 8.95 12.71
5/2/2023 1:15:00 PM 9.68 49.424 0.243 8.72 8.28 12.71
5/2/2023 1:30:00 PM 9.71 49.478 0.243 8.72 7.81 12.64
5/2/2023 1:45:00 PM 9.75 49.55 0.243 8.75 7.62 12.64
5/2/2023 2:00:00 PM 9.86 49.748 0.243 8.78 7.92 12.64
5/2/2023 2:15:00 PM 9.96 49.928 0.243 8.8 7.73 12.65
5/2/2023 2:30:00 PM 10.1 50.18 0.243 8.83 7.47 12.67
5/2/2023 2:45:00 PM 10.16 50.288 0.243 8.85 7.92 12.6
5/2/2023 3:00:00 PM 10.25 50.45 0.243 8.87 7.93 12.59
5/2/2023 3:15:00 PM 10.5 50.9 0.242 8.89 7.71 12.63
5/2/2023 3:30:00 PM 10.64 51.152 0.243 8.92 7.34 12.61
5/2/2023 3:45:00 PM 10.67 51.206 0.243 8.94 7.54 12.57
5/2/2023 4:00:00 PM 10.75 51.35 0.243 8.96 7.6 12.54
5/2/2023 4:15:00 PM 10.74 51.332 0.243 8.95 7.5 12.34
5/2/2023 4:30:00 PM 10.8 51.44 0.243 8.95 7.57 12.31
5/2/2023 4:45:00 PM 10.86 51.548 0.243 8.96 7.57 12.33
5/2/2023 5:00:00 PM 10.91 51.638 0.243 8.97 7.7 12.26
5/2/2023 5:15:00 PM 10.92 51.656 0.243 8.97 7.67 12.22
5/2/2023 5:30:00 PM 10.9 51.62 0.244 8.96 7.71 12.13
5/2/2023 5:45:00 PM 10.88 51.584 0.245 8.95 7.38 12.05
5/2/2023 6:00:00 PM 10.84 51.512 0.246 8.92 6.92 11.93
5/2/2023 6:15:00 PM 10.78 51.404 0.246 8.88 7.34 11.75
5/2/2023 6:30:00 PM 10.72 51.296 0.247 8.82 7.43 11.55
5/2/2023 6:45:00 PM 10.67 51.206 0.247 8.78 7.24 11.49
5/2/2023 7:00:00 PM 10.62 51.116 0.247 8.73 7.31 11.42
5/2/2023 7:15:00 PM 10.56 51.008 0.246 8.68 7.24 11.32
5/2/2023 7:30:00 PM 10.49 50.882 0.246 8.62 7.14 11.24
5/2/2023 7:45:00 PM 10.42 50.756 0.246 8.56 7.31 11.17
5/2/2023 8:00:00 PM 10.35 50.63 0.246 8.47 7.08 11.05
5/2/2023 8:15:00 PM 10.26 50.468 0.247 8.39 7.12 10.95
5/2/2023 8:30:00 PM 10.17 50.306 0.247 8.31 7.45 10.88
5/2/2023 8:45:00 PM 10.08 50.144 0.247 8.24 7.15 10.82
5/2/2023 9:00:00 PM 9.99 49.982 0.248 8.18 7.33 10.8
5/2/2023 9:15:00 PM 9.9 49.82 0.247 8.13 6.96 10.79
5/2/2023 9:30:00 PM 9.82 49.676 0.248 8.09 7.44 10.78
5/2/2023 9:45:00 PM 9.73 49.514 0.248 8.05 7.24 10.78
5/2/2023 10:00:00 PM 9.65 49.37 0.249 8.01 7.21 10.77
5/2/2023 10:15:00 PM 9.56 49.208 0.249 7.99 7.25 10.78
5/2/2023 10:30:00 PM 9.47 49.046 0.249 7.95 8.01 10.79
5/2/2023 10:45:00 PM 9.38 48.884 0.249 7.93 7.08 10.79
5/2/2023 11:00:00 PM 9.3 48.74 0.249 7.91 7.52 10.81
5/2/2023 11:15:00 PM 9.22 48.596 0.249 7.89 7.48 10.83
5/2/2023 11:30:00 PM 9.14 48.452 0.25 7.88 7.51 10.83
5/2/2023 11:45:00 PM 9.06 48.308 0.251 7.86 8.03 10.86
5/3/2023 12:00:00 AM 8.98 48.164 0.252 7.85 7.36 10.87
5/3/2023 12:15:00 AM 8.91 48.038 0.253 7.84 7.75 10.9
5/3/2023 12:30:00 AM 8.84 47.912 0.254 7.82 7.26 10.91
5/3/2023 12:45:00 AM 8.77 47.786 0.253 7.81 7.14 10.94
5/3/2023 1:00:00 AM 8.7 47.66 0.252 7.81 7.23 10.95
5/3/2023 1:15:00 AM 8.63 47.534 0.252 7.8 6.93 10.97
5/3/2023 1:30:00 AM 8.57 47.426 0.252 7.79 6.96 10.99
5/3/2023 1:45:00 AM 8.51 47.318 0.252 7.79 7 11.01
5/3/2023 2:00:00 AM 8.44 47.192 0.252 7.78 6.99 11.03
5/3/2023 2:15:00 AM 8.39 47.102 0.253 7.77 7.12 11.05
5/3/2023 2:30:00 AM 8.33 46.994 0.253 7.77 6.94 11.06
5/3/2023 2:45:00 AM 8.28 46.904 0.253 7.77 7.01 11.08
5/3/2023 3:00:00 AM 8.22 46.796 0.253 7.76 6.96 11.1
5/3/2023 3:15:00 AM 8.17 46.706 0.253 7.75 6.8 11.12
5/3/2023 3:30:00 AM 8.11 46.598 0.253 7.75 6.8 11.13
5/3/2023 3:45:00 AM 8.05 46.49 0.253 7.75 6.59 11.15
5/3/2023 4:00:00 AM 8 46.4 0.254 7.75 6.7 11.16
5/3/2023 4:15:00 AM 7.95 46.31 0.254 7.74 6.77 11.18
5/3/2023 4:30:00 AM 7.9 46.22 0.254 7.74 7.38 11.19
5/3/2023 4:45:00 AM 7.84 46.112 0.254 7.74 6.96 11.2
5/3/2023 5:00:00 AM 7.79 46.022 0.254 7.74 6.49 11.23
5/3/2023 5:15:00 AM 7.73 45.914 0.254 7.73 6.61 11.24
5/3/2023 5:30:00 AM 7.67 45.806 0.254 7.73 6.39 11.25
5/3/2023 5:45:00 AM 7.6 45.68 0.255 7.73 6.47 11.28
5/3/2023 6:00:00 AM 7.54 45.572 0.256 7.73 6.44 11.29
5/3/2023 6:15:00 AM 7.47 45.446 0.257 7.73 6.34 11.34
5/3/2023 6:30:00 AM 7.42 45.356 0.257 7.74 6.53 11.41
5/3/2023 6:45:00 AM 7.38 45.284 0.256 7.75 6.35 11.51
5/3/2023 7:00:00 AM 7.36 45.248 0.256 7.77 6.7 11.63
5/3/2023 7:15:00 AM 7.34 45.212 0.255 7.81 6.46 11.84
5/3/2023 7:30:00 AM 7.33 45.194 0.255 7.84 6.4 12.03
5/3/2023 7:45:00 AM 7.32 45.176 0.255 7.9 5.98 12.24
5/3/2023 8:00:00 AM 7.36 45.248 0.255 7.95 6.03 12.43
5/3/2023 8:15:00 AM 7.39 45.302 0.255 8.02 5.98 12.59
5/3/2023 8:30:00 AM 7.39 45.302 0.255 8.06 5.74 12.66
5/3/2023 8:45:00 AM 7.37 45.266 0.254 8.09 6.7 12.66
5/3/2023 9:00:00 AM 7.37 45.266 0.254 8.13 7 12.73
5/3/2023 9:15:00 AM 7.42 45.356 0.254 8.18 6.64 12.88
5/3/2023 9:30:00 AM 7.48 45.464 0.253 8.25 7.18 13.02
5/3/2023 9:45:00 AM 7.56 45.608 0.253 8.31 5.96 13.12
5/3/2023 10:00:00 AM 7.68 45.824 0.252 8.38 5.97 13.24
5/3/2023 10:15:00 AM 7.74 45.932 0.252 8.43 10.91 13.24
5/3/2023 10:30:00 AM 7.8 46.04 0.252 8.37 38.63 12.91
5/3/2023 10:45:00 AM 7.9 46.22 0.252 8.29 66.53 12.59
5/3/2023 11:00:00 AM 7.95 46.31 0.252 8.2 103.67 12.3
5/3/2023 11:15:00 AM 8.04 46.472 0.252 8.14 121.73 12.14
5/3/2023 11:30:00 AM 8.24 46.832 0.252 8.13 135.25 12.12
5/3/2023 11:45:00 AM 8.43 47.174 0.251 8.14 142.05 12.13
5/3/2023 12:00:00 PM 8.67 47.606 0.25 8.24 98.22 12.42
5/3/2023 12:15:00 PM 8.8 47.84 0.249 8.41 52.15 12.8
5/3/2023 12:30:00 PM 8.84 47.912 0.249 8.53 30.01 12.87
5/3/2023 12:45:00 PM 8.94 48.092 0.249 8.59 20.32 12.93
5/3/2023 1:00:00 PM 8.97 48.146 0.248 8.66 14.58 12.98
5/3/2023 1:15:00 PM 9.07 48.326 0.247 8.73 12.48 13
5/3/2023 1:30:00 PM 9.24 48.632 0.246 8.79 10.36 13.05
5/3/2023 1:45:00 PM 9.55 49.19 0.246 8.84 9.84 13.14
5/3/2023 2:00:00 PM 9.61 49.298 0.246 8.89 8.83 13.06
5/3/2023 2:15:00 PM 9.72 49.496 0.246 8.93 8.54 13.05
5/3/2023 2:30:00 PM 9.76 49.568 0.246 8.97 9.13 13.04
5/3/2023 2:45:00 PM 9.76 49.568 0.246 8.98 7.86 12.92
5/3/2023 3:00:00 PM 9.77 49.586 0.246 8.99 8.25 12.86
5/3/2023 3:15:00 PM 9.86 49.748 0.246 9.01 7.66 12.89
5/3/2023 3:30:00 PM 10 50 0.245 9.04 7.85 12.92
5/3/2023 3:45:00 PM 10.08 50.144 0.245 9.06 7.64 12.91
5/3/2023 4:00:00 PM 10.04 50.072 0.245 9.05 7.7 12.62
5/3/2023 4:15:00 PM 9.99 49.982 0.245 8.99 7.97 12.24
5/3/2023 4:30:00 PM 10.02 50.036 0.244 8.94 19.88 12.11
5/3/2023 4:45:00 PM 10.2 50.36 0.244 8.84 53.78 11.96
5/3/2023 5:00:00 PM 10.25 50.45 0.244 8.76 71.81 11.86
5/3/2023 5:15:00 PM 10.16 50.288 0.244 8.74 51.35 11.82
5/3/2023 5:30:00 PM 10.08 50.144 0.244 8.75 30.77 11.79
5/3/2023 5:45:00 PM 10.14 50.252 0.244 8.81 18.36 11.93
5/3/2023 6:00:00 PM 10.13 50.234 0.245 8.81 12.32 11.9
5/3/2023 6:15:00 PM 10.11 50.198 0.246 8.8 11.17 11.91
5/3/2023 6:30:00 PM 10.1 50.18 0.246 8.81 9.42 12.01
5/3/2023 6:45:00 PM 10.07 50.126 0.245 8.82 8.93 12
5/3/2023 7:00:00 PM 9.96 49.928 0.245 8.78 9.11 11.87
5/3/2023 7:15:00 PM 9.86 49.748 0.243 8.73 9.16 11.7
5/3/2023 7:30:00 PM 9.79 49.622 0.242 8.65 10.21 11.53
5/3/2023 7:45:00 PM 9.69 49.442 0.242 8.58 10.03 11.44
5/3/2023 8:00:00 PM 9.58 49.244 0.241 8.5 11.15 11.36
5/3/2023 8:15:00 PM 9.44 48.992 0.241 8.41 11.88 11.29
5/3/2023 8:30:00 PM 9.34 48.812 0.241 8.33 12.77 11.23
5/3/2023 8:45:00 PM 9.28 48.704 0.241 8.27 12.86 11.19
5/3/2023 9:00:00 PM 9.25 48.65 0.242 8.2 12.78 11.14
5/3/2023 9:15:00 PM 9.22 48.596 0.242 8.15 12.58 11.1
5/3/2023 9:30:00 PM 9.17 48.506 0.242 8.1 12.64 11.08
5/3/2023 9:45:00 PM 9.11 48.398 0.242 8.06 12.49 11.07
5/3/2023 10:00:00 PM 9.04 48.272 0.242 8.02 12.12 11.07
5/3/2023 10:15:00 PM 8.98 48.164 0.242 7.99 11.57 11.08
5/3/2023 10:30:00 PM 8.92 48.056 0.241 7.96 12.58 11.09
5/3/2023 10:45:00 PM 8.86 47.948 0.24 7.94 12.56 11.09
5/3/2023 11:00:00 PM 8.79 47.822 0.24 7.92 11.49 11.12
5/3/2023 11:15:00 PM 8.73 47.714 0.239 7.9 12.61 11.14
5/3/2023 11:30:00 PM 8.66 47.588 0.238 7.87 12.57 11.15
5/3/2023 11:45:00 PM 8.6 47.48 0.238 7.87 13.09 11.18
5/4/2023 12:00:00 AM 8.54 47.372 0.237 7.85 22.11 11.2
5/4/2023 12:15:00 AM 8.49 47.282 0.237 7.84 10.47 11.22
5/4/2023 12:30:00 AM 8.43 47.174 0.236 7.83 13.51 11.23
5/4/2023 12:45:00 AM 8.38 47.084 0.235 7.82 13.53 11.25
5/4/2023 1:00:00 AM 8.33 46.994 0.235 7.81 12.49 11.26
5/4/2023 1:15:00 AM 8.29 46.922 0.235 7.8 11.88 11.28
5/4/2023 1:30:00 AM 8.24 46.832 0.235 7.79 14.52 11.29
5/4/2023 1:45:00 AM 8.18 46.724 0.235 7.79 13.28 11.3
5/4/2023 2:00:00 AM 8.14 46.652 0.235 7.78 13.27 11.31
5/4/2023 2:15:00 AM 8.1 46.58 0.236 7.77 12.39 11.33
5/4/2023 2:30:00 AM 8.05 46.49 0.236 7.77 11.31 11.34
5/4/2023 2:45:00 AM 8.01 46.418 0.236 7.75 12.73 11.34
5/4/2023 3:00:00 AM 7.97 46.346 0.237 7.76 11.56 11.36
5/4/2023 3:15:00 AM 7.94 46.292 0.237 7.75 11.13 11.37
5/4/2023 3:30:00 AM 7.9 46.22 0.238 7.75 10.69 11.38
5/4/2023 3:45:00 AM 7.87 46.166 0.238 7.74 10.06 11.39
5/4/2023 4:00:00 AM 7.84 46.112 0.238 7.74 10.44 11.4
5/4/2023 4:15:00 AM 7.81 46.058 0.239 7.73 9.86 11.41
5/4/2023 4:30:00 AM 7.77 45.986 0.239 7.73 10.91 11.42
5/4/2023 4:45:00 AM 7.75 45.95 0.239 7.73 10.41 11.43
5/4/2023 5:00:00 AM 7.73 45.914 0.24 7.73 8.67 11.44
5/4/2023 5:15:00 AM 7.7 45.86 0.24 7.72 9.71 11.45
5/4/2023 5:30:00 AM 7.68 45.824 0.241 7.72 10.05 11.46
5/4/2023 5:45:00 AM 7.66 45.788 0.242 7.72 9.63 11.46
5/4/2023 6:00:00 AM 7.64 45.752 0.243 7.72 9.29 11.47
5/4/2023 6:15:00 AM 7.62 45.716 0.244 7.72 9.19 11.49
5/4/2023 6:30:00 AM 7.61 45.698 0.244 7.72 9.6 11.53
5/4/2023 6:45:00 AM 7.61 45.698 0.243 7.73 10.13 11.63
5/4/2023 7:00:00 AM 7.61 45.698 0.243 7.74 9.14 11.73
5/4/2023 7:15:00 AM 7.61 45.698 0.243 7.76 8.73 11.81
5/4/2023 7:30:00 AM 7.62 45.716 0.243 7.79 8.71 11.95
5/4/2023 7:45:00 AM 7.63 45.734 0.244 7.82 8.33 12.04
5/4/2023 8:00:00 AM 7.69 45.842 0.244 7.85 7.91 12.19
5/4/2023 8:15:00 AM 7.71 45.878 0.244 7.9 7.78 12.35
5/4/2023 8:30:00 AM 7.77 45.986 0.244 7.96 8.1 12.54
5/4/2023 8:45:00 AM 7.84 46.112 0.244 8.04 7.98 12.71
5/4/2023 9:00:00 AM 7.92 46.256 0.244 8.1 7.54 12.86
5/4/2023 9:15:00 AM 7.96 46.328 0.244 8.17 7.64 12.93
5/4/2023 9:30:00 AM 8.03 46.454 0.244 8.23 7.43 13.02
5/4/2023 9:45:00 AM 8.11 46.598 0.244 8.3 7.29 13.13
5/4/2023 10:00:00 AM 8.2 46.76 0.243 8.37 7.24 13.22
5/4/2023 10:15:00 AM 8.28 46.904 0.244 8.42 7.01 13.24
5/4/2023 10:30:00 AM 8.38 47.084 0.243 8.48 7.02 13.3
5/4/2023 10:45:00 AM 8.46 47.228 0.243 8.54 7.69 13.32
5/4/2023 11:00:00 AM 8.56 47.408 0.243 8.58 7.13 13.34
5/4/2023 11:15:00 AM 8.67 47.606 0.243 8.64 6.76 13.41
5/4/2023 11:30:00 AM 8.89 48.002 0.243 8.69 6.67 13.38
5/4/2023 11:45:00 AM 8.93 48.074 0.243 8.7 7.82 13.27
5/4/2023 12:00:00 PM 9 48.2 0.243 8.75 6.58 13.31
5/4/2023 12:15:00 PM 9.19 48.542 0.243 8.81 6.58 13.37
5/4/2023 12:30:00 PM 9.28 48.704 0.243 8.85 6.5 13.31
5/4/2023 12:45:00 PM 9.34 48.812 0.244 8.86 7.29 13.16
5/4/2023 1:00:00 PM 9.77 49.586 0.244 8.9 8.13 13.26
5/4/2023 1:15:00 PM 10.12 50.216 0.244 8.96 8.23 13.28
5/4/2023 1:30:00 PM 10.09 50.162 0.242 8.97 7.01 13.02
5/4/2023 1:45:00 PM 10.13 50.234 0.241 8.99 7.15 12.93
5/4/2023 2:00:00 PM 10.24 50.432 0.24 9 7.18 12.84
5/4/2023 2:15:00 PM 10.52 50.936 0.24 9.04 7.06 12.9
5/4/2023 2:30:00 PM 10.64 51.152 0.24 9.08 7.46 12.89
5/4/2023 2:45:00 PM 10.8 51.44 0.24 9.1 7.47 12.9
5/4/2023 3:00:00 PM 10.98 51.764 0.24 9.13 7.09 12.89
5/4/2023 3:15:00 PM 11.14 52.052 0.24 9.16 7.19 12.91
5/4/2023 3:30:00 PM 11.29 52.322 0.24 9.18 8.92 12.91
5/4/2023 3:45:00 PM 11.55 52.79 0.24 9.2 8.24 12.92
5/4/2023 4:00:00 PM 11.67 53.006 0.241 9.22 9.09 12.85
5/4/2023 4:15:00 PM 11.6 52.88 0.242 9.21 9.93 12.66
5/4/2023 4:30:00 PM 11.56 52.808 0.243 9.2 10.66 12.6
5/4/2023 4:45:00 PM 11.74 53.132 0.243 9.23 9.38 12.63
5/4/2023 5:00:00 PM 11.8 53.24 0.244 9.24 8.66 12.64
5/4/2023 5:15:00 PM 11.75 53.15 0.245 9.25 8.83 12.55
5/4/2023 5:30:00 PM 11.76 53.168 0.244 9.25 9.01 12.49
5/4/2023 5:45:00 PM 11.83 53.294 0.244 9.27 8.44 12.49
5/4/2023 6:00:00 PM 11.84 53.312 0.244 9.26 8.19 12.34
5/4/2023 6:15:00 PM 11.82 53.276 0.245 9.25 8.04 12.19
5/4/2023 6:30:00 PM 11.79 53.222 0.246 9.23 7.58 12.08
5/4/2023 6:45:00 PM 11.76 53.168 0.246 9.21 7.48 11.95
5/4/2023 7:00:00 PM 11.73 53.114 0.246 9.18 7.64 11.79
5/4/2023 7:15:00 PM 11.68 53.024 0.247 9.13 6.8 11.51
5/4/2023 7:30:00 PM 11.65 52.97 0.246 9.07 6.65 11.29
5/4/2023 7:45:00 PM 11.61 52.898 0.246 9.01 6.71 11.15
5/4/2023 8:00:00 PM 11.58 52.844 0.246 8.97 6.68 11.04
5/4/2023 8:15:00 PM 11.54 52.772 0.246 8.9 6.49 10.91
5/4/2023 8:30:00 PM 11.48 52.664 0.246 8.82 6.69 10.8
5/4/2023 8:45:00 PM 11.41 52.538 0.247 8.74 6.32 10.74
5/4/2023 9:00:00 PM 11.33 52.394 0.247 8.65 7.62 10.69
5/4/2023 9:15:00 PM 11.24 52.232 0.248 8.56 6.5 10.65
5/4/2023 9:30:00 PM 11.15 52.07 0.248 8.46 6.71 10.63
5/4/2023 9:45:00 PM 11.05 51.89 0.249 8.37 6.9 10.61
5/4/2023 10:00:00 PM 10.96 51.728 0.249 8.3 6.83 10.61
5/4/2023 10:15:00 PM 10.88 51.584 0.25 8.23 6.65 10.6
5/4/2023 10:30:00 PM 10.79 51.422 0.25 8.16 6.43 10.6
5/4/2023 10:45:00 PM 10.69 51.242 0.251 8.1 7.65 10.61
5/4/2023 11:00:00 PM 10.59 51.062 0.251 8.06 6.8 10.62
5/4/2023 11:15:00 PM 10.5 50.9 0.252 8.02 6.52 10.63
5/4/2023 11:30:00 PM 10.41 50.738 0.252 7.98 6.79 10.65
5/4/2023 11:45:00 PM 10.32 50.576 0.252 7.95 7.28 10.66
5/5/2023 12:00:00 AM 10.22 50.396 0.253 7.93 6.72 10.69
5/5/2023 12:15:00 AM 10.12 50.216 0.254 7.9 6.9 10.7
5/5/2023 12:30:00 AM 10.02 50.036 0.255 7.87 6.83 10.73
5/5/2023 12:45:00 AM 9.92 49.856 0.256 7.86 6.88 10.75
5/5/2023 1:00:00 AM 9.83 49.694 0.257 7.85 6.88 10.78
5/5/2023 1:15:00 AM 9.73 49.514 0.257 7.83 6.83 10.81
5/5/2023 1:30:00 AM 9.66 49.388 0.257 7.81 7.54 10.83
5/5/2023 1:45:00 AM 9.59 49.262 0.256 7.81 6.56 10.87
5/5/2023 2:00:00 AM 9.52 49.136 0.256 7.79 6.87 10.89
5/5/2023 2:15:00 AM 9.46 49.028 0.255 7.79 6.72 10.91
5/5/2023 2:30:00 AM 9.39 48.902 0.255 7.78 6.46 10.94
5/5/2023 2:45:00 AM 9.33 48.794 0.255 7.78 6.66 10.96
5/5/2023 3:00:00 AM 9.25 48.65 0.255 7.77 6.69 10.98
5/5/2023 3:15:00 AM 9.17 48.506 0.255 7.77 6.83 11.01
5/5/2023 3:30:00 AM 9.09 48.362 0.255 7.76 6.62 11.04
5/5/2023 3:45:00 AM 9.02 48.236 0.255 7.76 6.71 11.06
5/5/2023 4:00:00 AM 8.94 48.092 0.255 7.75 6.93 11.09
5/5/2023 4:15:00 AM 8.87 47.966 0.255 7.75 7 11.11
5/5/2023 4:30:00 AM 8.8 47.84 0.255 7.74 7.09 11.14
5/5/2023 4:45:00 AM 8.73 47.714 0.255 7.74 6.77 11.16
5/5/2023 5:00:00 AM 8.65 47.57 0.255 7.74 6.79 11.18
5/5/2023 5:15:00 AM 8.58 47.444 0.255 7.73 8.63 11.21
5/5/2023 5:30:00 AM 8.5 47.3 0.255 7.73 7.01 11.23
5/5/2023 5:45:00 AM 8.42 47.156 0.255 7.73 6.74 11.26
5/5/2023 6:00:00 AM 8.35 47.03 0.255 7.72 7.13 11.29
5/5/2023 6:15:00 AM 8.28 46.904 0.256 7.73 6.67 11.35
5/5/2023 6:30:00 AM 8.2 46.76 0.256 7.73 7.65 11.44
5/5/2023 6:45:00 AM 8.13 46.634 0.257 7.75 6.27 11.57
5/5/2023 7:00:00 AM 8.07 46.526 0.256 7.77 6.3 11.73
5/5/2023 7:15:00 AM 8.02 46.436 0.255 7.8 6.29 11.93
5/5/2023 7:30:00 AM 7.98 46.364 0.255 7.85 6.2 12.14
5/5/2023 7:45:00 AM 7.97 46.346 0.254 7.89 6.68 12.35
5/5/2023 8:00:00 AM 7.96 46.328 0.254 7.95 6.08 12.57
5/5/2023 8:15:00 AM 7.97 46.346 0.254 8.02 6.08 12.77
5/5/2023 8:30:00 AM 8 46.4 0.254 8.08 5.68 12.94
5/5/2023 8:45:00 AM 8.04 46.472 0.254 8.16 5.71 13.11
5/5/2023 9:00:00 AM 8.13 46.634 0.254 8.22 5.82 13.22
5/5/2023 9:15:00 AM 8.33 46.994 0.253 8.31 5.55 13.38
5/5/2023 9:30:00 AM 8.52 47.336 0.253 8.38 5.5 13.48
5/5/2023 9:45:00 AM 8.72 47.696 0.253 8.46 5.48 13.59
5/5/2023 10:00:00 AM 9.01 48.218 0.252 8.54 5.46 13.68
5/5/2023 10:15:00 AM 9.32 48.776 0.252 8.62 5.46 13.76
5/5/2023 10:30:00 AM 9.34 48.812 0.252 8.68 5.41 13.7
5/5/2023 10:45:00 AM 9.34 48.812 0.252 8.71 5.35 13.61
5/5/2023 11:00:00 AM 9.52 49.136 0.251 8.76 5.35 13.66
5/5/2023 11:15:00 AM 9.66 49.388 0.251 8.83 5.38 13.69
5/5/2023 11:30:00 AM 9.68 49.424 0.251 8.87 5.22 13.64
5/5/2023 11:45:00 AM 9.84 49.712 0.251 8.91 5.44 13.66
5/5/2023 12:00:00 PM 9.98 49.964 0.251 8.95 5.53 13.64
5/5/2023 12:15:00 PM 10.16 50.288 0.251 8.98 6.22 13.61
5/5/2023 12:30:00 PM 10.46 50.828 0.251 9.02 5.26 13.62
5/5/2023 12:45:00 PM 10.67 51.206 0.251 9.08 5.34 13.64
5/5/2023 1:00:00 PM 10.92 51.656 0.251 9.12 5.22 13.63
5/5/2023 1:15:00 PM 11.28 52.304 0.251 9.17 5.34 13.59
5/5/2023 1:30:00 PM 11.29 52.322 0.251 9.19 5.34 13.48
5/5/2023 1:45:00 PM 11.55 52.79 0.251 9.23 5.17 13.44
5/5/2023 2:00:00 PM 11.59 52.862 0.25 9.25 5.17 13.31
5/5/2023 2:15:00 PM 11.7 53.06 0.249 9.28 5.39 13.26
5/5/2023 2:30:00 PM 11.87 53.366 0.249 9.3 5.33 13.26
5/5/2023 2:45:00 PM 12.14 53.852 0.249 9.33 5.63 13.22
5/5/2023 3:00:00 PM 12.12 53.816 0.249 9.33 5.38 12.99
5/5/2023 3:15:00 PM 12.19 53.942 0.249 9.35 5.17 13
5/5/2023 3:30:00 PM 12.27 54.086 0.248 9.38 5.44 13.04
5/5/2023 3:45:00 PM 12.4 54.32 0.248 9.4 5.38 13.02
5/5/2023 4:00:00 PM 12.6 54.68 0.248 9.42 6.12 13.04
5/5/2023 4:15:00 PM 12.67 54.806 0.248 9.44 5.38 13.02
5/5/2023 4:30:00 PM 12.67 54.806 0.248 9.46 5.46 12.96
5/5/2023 4:45:00 PM 12.74 54.932 0.248 9.47 5.37 12.9
5/5/2023 5:00:00 PM 12.92 55.256 0.248 9.48 6.43 12.88
5/5/2023 5:15:00 PM 13.04 55.472 0.248 9.5 5.37 12.83
5/5/2023 5:30:00 PM 13.13 55.634 0.248 9.51 5.32 12.71
5/5/2023 5:45:00 PM 13.19 55.742 0.248 9.52 5.38 12.57
5/5/2023 6:00:00 PM 13.26 55.868 0.248 9.52 5.24 12.39
5/5/2023 6:15:00 PM 13.22 55.796 0.248 9.49 5.39 12.07
5/5/2023 6:30:00 PM 13.24 55.832 0.248 9.47 5.38 11.87
5/5/2023 6:45:00 PM 13.23 55.814 0.25 9.45 5.17 11.72
5/5/2023 7:00:00 PM 13.21 55.778 0.251 9.43 5.35 11.6
5/5/2023 7:15:00 PM 13.13 55.634 0.251 9.41 5.26 11.42
5/5/2023 7:30:00 PM 13.02 55.436 0.252 9.36 5.45 11.21
5/5/2023 7:45:00 PM 12.94 55.292 0.252 9.32 5.38 11.06
5/5/2023 8:00:00 PM 12.86 55.148 0.252 9.28 5.19 10.89
5/5/2023 8:15:00 PM 12.78 55.004 0.252 9.23 5.39 10.73
5/5/2023 8:30:00 PM 12.7 54.86 0.252 9.18 6.42 10.59
5/5/2023 8:45:00 PM 12.6 54.68 0.252 9.1 5.56 10.48
5/5/2023 9:00:00 PM 12.5 54.5 0.252 9.04 5.52 10.4
5/5/2023 9:15:00 PM 12.38 54.284 0.252 8.96 5.59 10.36
5/5/2023 9:30:00 PM 12.25 54.05 0.253 8.88 5.58 10.33
5/5/2023 9:45:00 PM 12.11 53.798 0.253 8.78 5.92 10.31
5/5/2023 10:00:00 PM 11.97 53.546 0.254 8.69 6.01 10.32
5/5/2023 10:15:00 PM 11.8 53.24 0.255 8.58 5.77 10.32
5/5/2023 10:30:00 PM 11.65 52.97 0.255 8.48 6.06 10.34
5/5/2023 10:45:00 PM 11.5 52.7 0.256 8.39 6.2 10.35
5/5/2023 11:00:00 PM 11.36 52.448 0.256 8.31 6.1 10.37
5/5/2023 11:15:00 PM 11.21 52.178 0.256 8.23 6.04 10.38
5/5/2023 11:30:00 PM 11.07 51.926 0.257 8.18 6.06 10.42
5/5/2023 11:45:00 PM 10.92 51.656 0.257 8.12 6.17 10.44
5/6/2023 12:00:00 AM 10.78 51.404 0.257 8.07 6.84 10.48
5/6/2023 12:15:00 AM 10.64 51.152 0.258 8.03 6.32 10.51
5/6/2023 12:30:00 AM 10.5 50.9 0.258 7.99 6.19 10.55
5/6/2023 12:45:00 AM 10.38 50.684 0.259 7.97 6.58 10.58
5/6/2023 1:00:00 AM 10.25 50.45 0.26 7.94 6.11 10.62
5/6/2023 1:15:00 AM 10.12 50.216 0.262 7.91 5.87 10.66
5/6/2023 1:30:00 AM 9.99 49.982 0.263 7.88 6.26 10.69
5/6/2023 1:45:00 AM 9.86 49.748 0.263 7.87 6.12 10.73
5/6/2023 2:00:00 AM 9.74 49.532 0.263 7.84 6.12 10.76
5/6/2023 2:15:00 AM 9.61 49.298 0.262 7.83 6.42 10.8
5/6/2023 2:30:00 AM 9.49 49.082 0.262 7.82 6.06 10.85
5/6/2023 2:45:00 AM 9.36 48.848 0.262 7.81 6.24 10.88
5/6/2023 3:00:00 AM 9.23 48.614 0.262 7.8 5.96 10.93
5/6/2023 3:15:00 AM 9.12 48.416 0.262 7.78 6.14 10.96
5/6/2023 3:30:00 AM 9 48.2 0.263 7.77 6.26 11
5/6/2023 3:45:00 AM 8.88 47.984 0.263 7.76 6.02 11.04
5/6/2023 4:00:00 AM 8.76 47.768 0.263 7.76 5.89 11.07
5/6/2023 4:15:00 AM 8.65 47.57 0.263 7.75 5.92 11.1
5/6/2023 4:30:00 AM 8.55 47.39 0.263 7.74 6.27 11.15
5/6/2023 4:45:00 AM 8.44 47.192 0.263 7.73 7.06 11.18
5/6/2023 5:00:00 AM 8.34 47.012 0.263 7.73 5.71 11.21
5/6/2023 5:15:00 AM 8.24 46.832 0.264 7.73 5.99 11.25
5/6/2023 5:30:00 AM 8.13 46.634 0.264 7.72 6.29 11.28
5/6/2023 5:45:00 AM 8.03 46.454 0.264 7.72 6.03 11.31
5/6/2023 6:00:00 AM 7.95 46.31 0.265 7.71 6.68 11.36
5/6/2023 6:15:00 AM 7.85 46.13 0.265 7.72 6.02 11.44
5/6/2023 6:30:00 AM 7.77 45.986 0.265 7.73 6.64 11.57
5/6/2023 6:45:00 AM 7.71 45.878 0.266 7.75 5.47 11.74
5/6/2023 7:00:00 AM 7.65 45.77 0.266 7.78 6.45 11.95
5/6/2023 7:15:00 AM 7.62 45.716 0.268 7.81 6.17 12.16
5/6/2023 7:30:00 AM 7.6 45.68 0.268 7.85 5.36 12.36
5/6/2023 7:45:00 AM 7.61 45.698 0.268 7.89 5.28 12.56
5/6/2023 8:00:00 AM 7.65 45.77 0.267 7.95 6.13 12.75
5/6/2023 8:15:00 AM 7.71 45.878 0.267 8.02 5.22 12.95
5/6/2023 8:30:00 AM 7.81 46.058 0.267 8.08 5.11 13.11
5/6/2023 8:45:00 AM 7.92 46.256 0.267 8.16 5.15 13.28
5/6/2023 9:00:00 AM 8.05 46.49 0.266 8.23 5.02 13.41
5/6/2023 9:15:00 AM 8.23 46.814 0.266 8.3 4.91 13.54
5/6/2023 9:30:00 AM 8.43 47.174 0.266 8.38 4.92 13.66
5/6/2023 9:45:00 AM 8.67 47.606 0.265 8.45 4.85 13.76
5/6/2023 10:00:00 AM 8.93 48.074 0.265 8.53 5.54 13.84
5/6/2023 10:15:00 AM 9.23 48.614 0.265 8.61 4.85 13.92
5/6/2023 10:30:00 AM 9.53 49.154 0.264 8.68 4.87 13.96
5/6/2023 10:45:00 AM 9.87 49.766 0.264 8.76 4.87 14.01
5/6/2023 11:00:00 AM 10.23 50.414 0.263 8.82 5.71 14.01
5/6/2023 11:15:00 AM 10.56 51.008 0.263 8.89 4.81 14
5/6/2023 11:30:00 AM 10.96 51.728 0.263 8.96 4.97 14
5/6/2023 11:45:00 AM 11.34 52.412 0.263 9.02 4.83 13.97
5/6/2023 12:00:00 PM 11.77 53.186 0.262 9.08 4.73 13.94
5/6/2023 12:15:00 PM 12.19 53.942 0.262 9.14 4.74 13.89
5/6/2023 12:30:00 PM 12.62 54.716 0.262 9.2 4.89 13.86
5/6/2023 12:45:00 PM 13.03 55.454 0.262 9.25 4.93 13.78
5/6/2023 1:00:00 PM 13.46 56.228 0.261 9.3 5 13.7
5/6/2023 1:15:00 PM 13.85 56.93 0.261 9.35 4.94 13.64
5/6/2023 1:30:00 PM 14.17 57.506 0.261 9.39 4.91 13.49
5/6/2023 1:45:00 PM 14.37 57.866 0.262 9.41 4.96 13.3
5/6/2023 2:00:00 PM 14.48 58.064 0.263 9.44 4.75 13.12
5/6/2023 2:15:00 PM 14.86 58.748 0.263 9.46 4.67 13.08
5/6/2023 2:30:00 PM 15.28 59.504 0.262 9.49 4.88 13.02
5/6/2023 2:45:00 PM 15.54 59.972 0.262 9.53 4.98 12.93
5/6/2023 3:00:00 PM 15.85 60.53 0.262 9.57 5.16 12.88
5/6/2023 3:15:00 PM 16.07 60.926 0.261 9.6 6.26 12.8
5/6/2023 3:30:00 PM 16.22 61.196 0.261 9.62 5.42 12.76
5/6/2023 3:45:00 PM 16.45 61.61 0.261 9.64 4.79 12.71
5/6/2023 4:00:00 PM 16.7 62.06 0.261 9.67 5.25 12.63
5/6/2023 4:15:00 PM 16.93 62.474 0.26 9.69 5.4 12.53
5/6/2023 4:30:00 PM 17.01 62.618 0.261 9.69 5.5 12.31
5/6/2023 4:45:00 PM 17.13 62.834 0.26 9.7 5.14 12.19
5/6/2023 5:00:00 PM 17.28 63.104 0.26 9.72 5.39 12.07
5/6/2023 5:15:00 PM 17.4 63.32 0.259 9.72 5.2 11.93
5/6/2023 5:30:00 PM 17.41 63.338 0.259 9.72 5.13 11.76
5/6/2023 5:45:00 PM 17.36 63.248 0.259 9.71 5.29 11.58
5/6/2023 6:00:00 PM 17.31 63.158 0.259 9.7 5.82 11.41
5/6/2023 6:15:00 PM 17.23 63.014 0.259 9.67 5.77 11.24
5/6/2023 6:30:00 PM 17.16 62.888 0.259 9.66 5.34 11.09
5/6/2023 6:45:00 PM 17.1 62.78 0.259 9.64 5.39 10.94
5/6/2023 7:00:00 PM 17.01 62.618 0.26 9.62 5.4 10.75
5/6/2023 7:15:00 PM 16.9 62.42 0.26 9.58 5.52 10.51
5/6/2023 7:30:00 PM 16.8 62.24 0.261 9.55 5.29 10.36
5/6/2023 7:45:00 PM 16.68 62.024 0.263 9.5 5.58 10.15
5/6/2023 8:00:00 PM 16.57 61.826 0.264 9.46 5.66 9.95
5/6/2023 8:15:00 PM 16.41 61.538 0.264 9.4 5.58 9.75
5/6/2023 8:30:00 PM 16.25 61.25 0.264 9.35 5.77 9.56
5/6/2023 8:45:00 PM 16.09 60.962 0.263 9.29 5.91 9.47
5/6/2023 9:00:00 PM 15.92 60.656 0.263 9.23 6.08 9.4
5/6/2023 9:15:00 PM 15.74 60.332 0.264 9.16 6 9.35
5/6/2023 9:30:00 PM 15.57 60.026 0.264 9.09 6.15 9.32
5/6/2023 9:45:00 PM 15.38 59.684 0.264 9.01 6.35 9.31
5/6/2023 10:00:00 PM 15.19 59.342 0.265 8.93 7 9.33
5/6/2023 10:15:00 PM 15 59 0.265 8.85 6.6 9.34
5/6/2023 10:30:00 PM 14.82 58.676 0.266 8.76 7.3 9.35
5/6/2023 10:45:00 PM 14.63 58.334 0.266 8.66 7.04 9.37
5/6/2023 11:00:00 PM 14.46 58.028 0.267 8.56 7.86 9.39
5/6/2023 11:15:00 PM 14.27 57.686 0.268 8.46 8.36 9.42
5/6/2023 11:30:00 PM 14.11 57.398 0.268 8.37 9.49 9.45
5/6/2023 11:45:00 PM 13.93 57.074 0.268 8.28 9.17 9.48
5/7/2023 12:00:00 AM 13.76 56.768 0.268 8.21 9.35 9.51
5/7/2023 12:15:00 AM 13.6 56.48 0.269 8.15 9.67 9.55
5/7/2023 12:30:00 AM 13.43 56.174 0.269 8.09 10.64 9.58
5/7/2023 12:45:00 AM 13.25 55.85 0.27 8.04 10.54 9.62
5/7/2023 1:00:00 AM 13.08 55.544 0.27 8 11.24 9.67
5/7/2023 1:15:00 AM 12.91 55.238 0.27 7.96 10.79 9.71
5/7/2023 1:30:00 AM 12.76 54.968 0.271 7.92 11 9.73
5/7/2023 1:45:00 AM 12.61 54.698 0.272 7.9 11.04 9.79
5/7/2023 2:00:00 AM 12.45 54.41 0.274 7.88 11.02 9.82
5/7/2023 2:15:00 AM 12.31 54.158 0.275 7.85 11.17 9.86
5/7/2023 2:30:00 AM 12.16 53.888 0.276 7.83 10.3 9.89
5/7/2023 2:45:00 AM 12.02 53.636 0.276 7.81 12.01 9.93
5/7/2023 3:00:00 AM 11.88 53.384 0.276 7.8 11.53 9.98
5/7/2023 3:15:00 AM 11.73 53.114 0.275 7.78 12.34 10.02
5/7/2023 3:30:00 AM 11.59 52.862 0.275 7.77 11.67 10.06
5/7/2023 3:45:00 AM 11.46 52.628 0.274 7.76 9.79 10.1
5/7/2023 4:00:00 AM 11.33 52.394 0.275 7.73 9.33 10.13
5/7/2023 4:15:00 AM 11.2 52.16 0.275 7.73 10.17 10.17
5/7/2023 4:30:00 AM 11.06 51.908 0.276 7.73 10.14 10.22
5/7/2023 4:45:00 AM 10.93 51.674 0.276 7.72 9.04 10.25
5/7/2023 5:00:00 AM 10.79 51.422 0.276 7.72 8.51 10.31
5/7/2023 5:15:00 AM 10.67 51.206 0.276 7.7 10.46 10.33
5/7/2023 5:30:00 AM 10.55 50.99 0.277 7.7 7.23 10.37
5/7/2023 5:45:00 AM 10.42 50.756 0.277 7.7 5.91 10.41
5/7/2023 6:00:00 AM 10.31 50.558 0.278 7.69 6.07 10.46
5/7/2023 6:15:00 AM 10.2 50.36 0.278 7.7 5.81 10.54
5/7/2023 6:30:00 AM 10.1 50.18 0.278 7.71 5.72 10.67
5/7/2023 6:45:00 AM 10.01 50.018 0.278 7.72 5.53 10.84
5/7/2023 7:00:00 AM 9.96 49.928 0.278 7.75 5.46 11.04
5/7/2023 7:15:00 AM 9.91 49.838 0.278 7.79 5.69 11.29
5/7/2023 7:30:00 AM 9.87 49.766 0.279 7.83 5.27 11.52
5/7/2023 7:45:00 AM 9.87 49.766 0.279 7.88 5.18 11.75
5/7/2023 8:00:00 AM 9.92 49.856 0.28 7.94 5.32 11.98
5/7/2023 8:15:00 AM 10.02 50.036 0.281 8.03 5.27 12.29
5/7/2023 8:30:00 AM 10.15 50.27 0.28 8.12 5.15 12.53
5/7/2023 8:45:00 AM 10.29 50.522 0.28 8.22 5.14 12.76
5/7/2023 9:00:00 AM 10.45 50.81 0.279 8.32 4.96 12.95
5/7/2023 9:15:00 AM 10.6 51.08 0.278 8.4 4.8 13.1
5/7/2023 9:30:00 AM 10.74 51.332 0.278 8.47 4.89 13.21
5/7/2023 9:45:00 AM 10.91 51.638 0.278 8.55 5.04 13.35
5/7/2023 10:00:00 AM 11.08 51.944 0.277 8.63 5.02 13.45
5/7/2023 10:15:00 AM 11.28 52.304 0.277 8.72 4.91 13.54
5/7/2023 10:30:00 AM 11.47 52.646 0.277 8.79 4.64 13.62
5/7/2023 10:45:00 AM 11.58 52.844 0.276 8.85 4.83 13.62
5/7/2023 11:00:00 AM 11.68 53.024 0.276 8.91 4.71 13.61
5/7/2023 11:15:00 AM 11.84 53.312 0.276 8.97 4.64 13.62
5/7/2023 11:30:00 AM 12.01 53.618 0.275 9.03 4.61 13.64
5/7/2023 11:45:00 AM 12.3 54.14 0.275 9.09 4.7 13.65
5/7/2023 12:00:00 PM 12.67 54.806 0.274 9.16 4.89 13.68
5/7/2023 12:15:00 PM 13.03 55.454 0.274 9.22 4.69 13.65
5/7/2023 12:30:00 PM 13.41 56.138 0.274 9.28 4.92 13.64
5/7/2023 12:45:00 PM 13.78 56.804 0.273 9.33 4.8 13.6
5/7/2023 1:00:00 PM 14.01 57.218 0.273 9.38 4.73 13.55
5/7/2023 1:15:00 PM 14.15 57.47 0.273 9.42 4.91 13.48
5/7/2023 1:30:00 PM 14.26 57.668 0.272 9.47 5.64 13.37
5/7/2023 1:45:00 PM 14.21 57.578 0.272 9.49 6.35 13.12
5/7/2023 2:00:00 PM 14.24 57.632 0.272 9.51 6.16 12.91
5/7/2023 2:15:00 PM 14.25 57.65 0.272 9.51 7.61 12.65
5/7/2023 2:30:00 PM 14.28 57.704 0.272 9.51 5.1 12.45
5/7/2023 2:45:00 PM 14.42 57.956 0.271 9.53 5.21 12.4
5/7/2023 3:00:00 PM 14.59 58.262 0.271 9.55 4.77 12.41
5/7/2023 3:15:00 PM 14.61 58.298 0.271 9.55 4.56 12.23
5/7/2023 3:30:00 PM 14.6 58.28 0.271 9.54 4.49 11.95
5/7/2023 3:45:00 PM 14.59 58.262 0.27 9.53 4.64 11.7
5/7/2023 4:00:00 PM 14.56 58.208 0.27 9.49 4.43 11.34
5/7/2023 4:15:00 PM 14.56 58.208 0.27 9.47 4.76 11.14
5/7/2023 4:30:00 PM 14.61 58.298 0.269 9.46 4.51 11.11
5/7/2023 4:45:00 PM 14.63 58.334 0.268 9.45 4.72 11.02
5/7/2023 5:00:00 PM 14.62 58.316 0.267 9.43 5.01 10.81
5/7/2023 5:15:00 PM 14.59 58.262 0.268 9.4 4.97 10.63
5/7/2023 5:30:00 PM 14.55 58.19 0.268 9.36 5.13 10.51
5/7/2023 5:45:00 PM 14.51 58.118 0.269 9.32 4.7 10.42
5/7/2023 6:00:00 PM 14.47 58.046 0.269 9.29 4.96 10.38
5/7/2023 6:15:00 PM 14.4 57.92 0.269 9.26 4.78 10.32
5/7/2023 6:30:00 PM 14.32 57.776 0.269 9.22 5.01 10.23
5/7/2023 6:45:00 PM 14.24 57.632 0.269 9.16 4.93 10.19
5/7/2023 7:00:00 PM 14.14 57.452 0.269 9.11 5.24 10.1
5/7/2023 7:15:00 PM 14.05 57.29 0.27 9.04 5.04 9.99
5/7/2023 7:30:00 PM 13.95 57.11 0.27 8.97 5.35 9.94
5/7/2023 7:45:00 PM 13.85 56.93 0.271 8.89 5.6 9.87
5/7/2023 8:00:00 PM 13.74 56.732 0.272 8.8 5.54 9.84
5/7/2023 8:15:00 PM 13.64 56.552 0.274 8.71 5.79 9.8
5/7/2023 8:30:00 PM 13.54 56.372 0.276 8.6 6.34 9.75
5/7/2023 8:45:00 PM 13.45 56.21 0.276 8.51 6.33 9.72
5/7/2023 9:00:00 PM 13.36 56.048 0.276 8.42 6.29 9.7
5/7/2023 9:15:00 PM 13.27 55.886 0.275 8.34 6.61 9.7
5/7/2023 9:30:00 PM 13.18 55.724 0.274 8.28 6.63 9.72
5/7/2023 9:45:00 PM 13.11 55.598 0.274 8.22 6.81 9.72
5/7/2023 10:00:00 PM 13.02 55.436 0.273 8.16 7.42 9.74
5/7/2023 10:15:00 PM 12.93 55.274 0.272 8.12 7.19 9.75
5/7/2023 10:30:00 PM 12.86 55.148 0.272 8.07 7.17 9.77
5/7/2023 10:45:00 PM 12.79 55.022 0.272 8.03 7.31 9.79
5/7/2023 11:00:00 PM 12.73 54.914 0.271 8 7.32 9.81
5/7/2023 11:15:00 PM 12.67 54.806 0.269 7.97 7.91 9.84
5/7/2023 11:30:00 PM 12.6 54.68 0.268 7.95 7.92 9.83
5/7/2023 11:45:00 PM 12.54 54.572 0.266 7.92 8.16 9.86
5/8/2023 12:00:00 AM 12.48 54.464 0.265 7.9 7.37 9.88
5/8/2023 12:15:00 AM 12.41 54.338 0.262 7.89 7.98 9.92
5/8/2023 12:30:00 AM 12.33 54.194 0.261 7.87 8.56 9.95
5/8/2023 12:45:00 AM 12.27 54.086 0.261 7.86 9.18 9.98
5/8/2023 1:00:00 AM 12.2 53.96 0.261 7.85 9.86 10.01
5/8/2023 1:15:00 AM 12.14 53.852 0.26 7.84 9.38 10.03
5/8/2023 1:30:00 AM 12.08 53.744 0.26 7.82 10.21 10.05
5/8/2023 1:45:00 AM 12.03 53.654 0.26 7.82 35.43 10.07
5/8/2023 2:00:00 AM 11.99 53.582 0.259 7.81 11.07 10.08
5/8/2023 2:15:00 AM 11.95 53.51 0.258 7.8 11.86 10.11
5/8/2023 2:30:00 AM 11.91 53.438 0.258 7.81 10.83 10.12
5/8/2023 2:45:00 AM 11.86 53.348 0.258 7.81 10.8 10.14
5/8/2023 3:00:00 AM 11.81 53.258 0.259 7.81 11.79 10.16
5/8/2023 3:15:00 AM 11.76 53.168 0.258 7.8 11.28 10.18
5/8/2023 3:30:00 AM 11.7 53.06 0.258 7.8 13.49 10.21
5/8/2023 3:45:00 AM 11.65 52.97 0.258 7.79 13.66 10.22
5/8/2023 4:00:00 AM 11.59 52.862 0.258 7.79 13.78 10.24
5/8/2023 4:15:00 AM 11.54 52.772 0.257 7.78 14.3 10.26
5/8/2023 4:30:00 AM 11.49 52.682 0.258 7.79 12.33 10.29
5/8/2023 4:45:00 AM 11.44 52.592 0.258 7.79 12.74 10.3
5/8/2023 5:00:00 AM 11.39 52.502 0.258 7.78 12.48 10.32
5/8/2023 5:15:00 AM 11.35 52.43 0.258 7.78 11.77 10.33
5/8/2023 5:30:00 AM 11.3 52.34 0.258 7.78 13.38 10.34
5/8/2023 5:45:00 AM 11.26 52.268 0.257 7.77 12.56 10.36
5/8/2023 6:00:00 AM 11.22 52.196 0.257 7.77 11.91 10.38
5/8/2023 6:15:00 AM 11.19 52.142 0.256 7.77 12.6 10.4
5/8/2023 6:30:00 AM 11.15 52.07 0.256 7.77 13.78 10.44
5/8/2023 6:45:00 AM 11.12 52.016 0.256 7.78 11.92 10.5
5/8/2023 7:00:00 AM 11.11 51.998 0.256 7.79 11.52 10.6
5/8/2023 7:15:00 AM 11.09 51.962 0.256 7.81 12.33 10.69
5/8/2023 7:30:00 AM 11.08 51.944 0.255 7.83 11.27 10.79
5/8/2023 7:45:00 AM 11.07 51.926 0.254 7.86 11.91 10.96
5/8/2023 8:00:00 AM 11.09 51.962 0.253 7.92 10.54 11.18
5/8/2023 8:15:00 AM 11.06 51.908 0.252 7.95 10.13 11.26
5/8/2023 8:30:00 AM 11.15 52.07 0.251 8.01 10.16 11.47
5/8/2023 8:45:00 AM 11.32 52.376 0.25 8.1 10.34 11.73
5/8/2023 9:00:00 AM 11.47 52.646 0.25 8.19 9.68 11.91
5/8/2023 9:15:00 AM 11.62 52.916 0.249 8.27 10.58 12.03
5/8/2023 9:30:00 AM 11.84 53.312 0.249 8.36 9.54 12.2
5/8/2023 9:45:00 AM 12.08 53.744 0.248 8.45 9.36 12.32
5/8/2023 10:00:00 AM 12.33 54.194 0.248 8.55 10.44 12.42
5/8/2023 10:15:00 AM 12.56 54.608 0.247 8.64 9.51 12.52
5/8/2023 10:30:00 AM 12.77 54.986 0.247 8.71 9.73 12.58
5/8/2023 10:45:00 AM 12.98 55.364 0.247 8.78 9.16 12.63
5/8/2023 11:00:00 AM 13.23 55.814 0.247 8.84 18.68 12.59
5/8/2023 11:15:00 AM 13.44 56.192 0.248 8.85 27.38 12.41
5/8/2023 11:30:00 AM 13.6 56.48 0.247 8.9 21.65 12.46
5/8/2023 11:45:00 AM 13.84 56.912 0.247 8.97 14.97 12.49
5/8/2023 12:00:00 PM 14.22 57.596 0.247 9.04 11.45 12.55
5/8/2023 12:15:00 PM 14.58 58.244 0.247 9.11 9.48 12.52
5/8/2023 12:30:00 PM 14.74 58.532 0.247 9.16 8.8 12.4
5/8/2023 12:45:00 PM 15.11 59.198 0.246 9.21 8.57 12.41
5/8/2023 1:00:00 PM 15.42 59.756 0.246 9.26 8.37 12.4
5/8/2023 1:15:00 PM 15.81 60.458 0.246 9.32 8.12 12.44
5/8/2023 1:30:00 PM 16.09 60.962 0.246 9.37 8.39 12.43
5/8/2023 1:45:00 PM 16.4 61.52 0.246 9.42 8.07 12.42
5/8/2023 2:00:00 PM 16.53 61.754 0.246 9.46 8.34 12.36
5/8/2023 2:15:00 PM 16.78 62.204 0.246 9.5 7.69 12.33
5/8/2023 2:30:00 PM 17.11 62.798 0.247 9.54 7.73 12.3
5/8/2023 2:45:00 PM 17.36 63.248 0.248 9.57 7.95 12.24
5/8/2023 3:00:00 PM 17.61 63.698 0.248 9.6 7.72 12.18
5/8/2023 3:15:00 PM 17.79 64.022 0.247 9.62 7.57 12.13
5/8/2023 3:30:00 PM 17.98 64.364 0.246 9.65 7.75 12.05
5/8/2023 3:45:00 PM 18.12 64.616 0.246 9.68 7.41 11.97
5/8/2023 4:00:00 PM 18.25 64.85 0.246 9.69 7.51 11.88
5/8/2023 4:15:00 PM 18.33 64.994 0.245 9.7 7.72 11.79
5/8/2023 4:30:00 PM 18.4 65.12 0.245 9.72 7.55 11.7
5/8/2023 4:45:00 PM 18.46 65.228 0.245 9.73 7.38 11.6
5/8/2023 5:00:00 PM 18.49 65.282 0.245 9.74 7.26 11.46
5/8/2023 5:15:00 PM 18.48 65.264 0.245 9.72 7.64 11.3
5/8/2023 5:30:00 PM 18.43 65.174 0.246 9.72 7.61 11.15
5/8/2023 5:45:00 PM 18.34 65.012 0.246 9.7 7.23 10.99
5/8/2023 6:00:00 PM 18.28 64.904 0.246 9.69 7.42 10.85
5/8/2023 6:15:00 PM 18.2 64.76 0.246 9.69 7.55 10.7
5/8/2023 6:30:00 PM 18.12 64.616 0.246 9.67 7.45 10.58
5/8/2023 6:45:00 PM 18.01 64.418 0.246 9.64 7.4 10.43
5/8/2023 7:00:00 PM 17.87 64.166 0.247 9.6 7.36 10.2
5/8/2023 7:15:00 PM 17.76 63.968 0.247 9.58 7.79 10.01
5/8/2023 7:30:00 PM 17.65 63.77 0.247 9.54 7.39 9.88
5/8/2023 7:45:00 PM 17.56 63.608 0.248 9.5 7.57 9.71
5/8/2023 8:00:00 PM 17.44 63.392 0.248 9.46 7.52 9.54
5/8/2023 8:15:00 PM 17.3 63.14 0.248 9.41 7.54 9.37
5/8/2023 8:30:00 PM 17.14 62.852 0.249 9.35 8.09 9.25
5/8/2023 8:45:00 PM 16.99 62.582 0.249 9.3 7.73 9.16
5/8/2023 9:00:00 PM 16.83 62.294 0.25 9.23 7.45 9.09
5/8/2023 9:15:00 PM 16.67 62.006 0.251 9.16 7.73 9.04
5/8/2023 9:30:00 PM 16.5 61.7 0.253 9.09 7.17 9.01
5/8/2023 9:45:00 PM 16.33 61.394 0.254 9 7.6 8.99
5/8/2023 10:00:00 PM 16.16 61.088 0.256 8.92 7.31 9.01
5/8/2023 10:15:00 PM 15.99 60.782 0.257 8.82 7.24 9.01
5/8/2023 10:30:00 PM 15.82 60.476 0.257 8.75 7.85 9.01
5/8/2023 10:45:00 PM 15.63 60.134 0.258 8.64 7.5 9.03
5/8/2023 11:00:00 PM 15.46 59.828 0.257 8.54 7.95 9.05
5/8/2023 11:15:00 PM 15.28 59.504 0.257 8.45 7.42 9.08
5/8/2023 11:30:00 PM 15.1 59.18 0.257 8.35 7.11 9.12
5/8/2023 11:45:00 PM 14.93 58.874 0.258 8.28 7.3 9.16
5/9/2023 12:00:00 AM 14.77 58.586 0.258 8.19 7.56 9.17
5/9/2023 12:15:00 AM 14.59 58.262 0.259 8.14 7.55 9.23
5/9/2023 12:30:00 AM 14.41 57.938 0.259 8.07 7.23 9.26
5/9/2023 12:45:00 AM 14.25 57.65 0.26 8.04 7.28 9.32
5/9/2023 1:00:00 AM 14.08 57.344 0.26 8 7.52 9.34
5/9/2023 1:15:00 AM 13.91 57.038 0.261 7.96 7.21 9.38
5/9/2023 1:30:00 AM 13.76 56.768 0.261 7.93 7.34 9.44
5/9/2023 1:45:00 AM 13.59 56.462 0.262 7.9 7.18 9.48
5/9/2023 2:00:00 AM 13.43 56.174 0.263 7.87 7.49 9.52
5/9/2023 2:15:00 AM 13.29 55.922 0.263 7.86 7.05 9.57
5/9/2023 2:30:00 AM 13.17 55.706 0.264 7.83 7.83 9.6
5/9/2023 2:45:00 AM 13.03 55.454 0.264 7.82 7.51 9.66
5/9/2023 3:00:00 AM 12.91 55.238 0.265 7.81 6.92 9.68
5/9/2023 3:15:00 AM 12.78 55.004 0.265 7.79 7.7 9.72
5/9/2023 3:30:00 AM 12.65 54.77 0.266 7.78 6.98 9.76
5/9/2023 3:45:00 AM 12.53 54.554 0.266 7.77 6.93 9.8
5/9/2023 4:00:00 AM 12.41 54.338 0.267 7.76 6.94 9.83
5/9/2023 4:15:00 AM 12.31 54.158 0.267 7.75 7.17 9.87
5/9/2023 4:30:00 AM 12.21 53.978 0.268 7.74 6.87 9.9
5/9/2023 4:45:00 AM 12.11 53.798 0.269 7.73 6.3 9.93
5/9/2023 5:00:00 AM 12.01 53.618 0.27 7.73 6.64 9.95
5/9/2023 5:15:00 AM 11.92 53.456 0.272 7.72 6.72 9.97
5/9/2023 5:30:00 AM 11.83 53.294 0.273 7.72 6.45 10
5/9/2023 5:45:00 AM 11.75 53.15 0.273 7.71 6.25 10.01
5/9/2023 6:00:00 AM 11.67 53.006 0.274 7.71 6.43 10.05
5/9/2023 6:15:00 AM 11.6 52.88 0.273 7.71 6.16 10.11
5/9/2023 6:30:00 AM 11.54 52.772 0.273 7.72 5.95 10.21
5/9/2023 6:45:00 AM 11.49 52.682 0.272 7.74 6.03 10.36
5/9/2023 7:00:00 AM 11.45 52.61 0.272 7.77 5.68 10.58
5/9/2023 7:15:00 AM 11.44 52.592 0.272 7.81 5.68 10.84
5/9/2023 7:30:00 AM 11.43 52.574 0.272 7.86 5.52 11.08
5/9/2023 7:45:00 AM 11.41 52.538 0.272 7.91 5.51 11.24
5/9/2023 8:00:00 AM 11.4 52.52 0.272 7.95 5.38 11.36
5/9/2023 8:15:00 AM 11.4 52.52 0.272 8.01 5.64 11.57
5/9/2023 8:30:00 AM 11.41 52.538 0.272 8.06 5.31 11.73
5/9/2023 8:45:00 AM 11.49 52.682 0.272 8.16 5.29 11.99
5/9/2023 9:00:00 AM 11.62 52.916 0.272 8.26 5.32 12.23
5/9/2023 9:15:00 AM 11.79 53.222 0.272 8.36 5.36 12.46
5/9/2023 9:30:00 AM 11.94 53.492 0.272 8.46 5.06 12.66
5/9/2023 9:45:00 AM 12.01 53.618 0.272 8.55 5 12.78
5/9/2023 10:00:00 AM 12.1 53.78 0.271 8.63 4.98 12.89
5/9/2023 10:15:00 AM 12.15 53.87 0.271 8.7 4.9 12.97
5/9/2023 10:30:00 AM 12.26 54.068 0.271 8.77 5.65 13.06
5/9/2023 10:45:00 AM 12.56 54.608 0.271 8.85 4.72 13.17
5/9/2023 11:00:00 AM 12.97 55.346 0.27 8.92 4.81 13.23
5/9/2023 11:15:00 AM 13.33 55.994 0.27 8.99 4.61 13.3
5/9/2023 11:30:00 AM 13.55 56.39 0.269 9.07 4.76 13.3
5/9/2023 11:45:00 AM 13.83 56.894 0.268 9.13 4.67 13.28
5/9/2023 12:00:00 PM 14.18 57.524 0.268 9.19 4.73 13.31
5/9/2023 12:15:00 PM 14.35 57.83 0.269 9.26 4.68 13.28
5/9/2023 12:30:00 PM 14.66 58.388 0.269 9.31 4.56 13.26
5/9/2023 12:45:00 PM 15.06 59.108 0.269 9.37 4.47 13.24
5/9/2023 1:00:00 PM 15.29 59.522 0.269 9.41 4.77 13.2
5/9/2023 1:15:00 PM 15.59 60.062 0.268 9.46 4.63 13.15
5/9/2023 1:30:00 PM 15.9 60.62 0.267 9.51 4.45 13.09
5/9/2023 1:45:00 PM 16.21 61.178 0.266 9.55 4.58 13.03
5/9/2023 2:00:00 PM 16.45 61.61 0.266 9.58 4.48 12.94
5/9/2023 2:15:00 PM 16.74 62.132 0.265 9.63 4.82 12.9
5/9/2023 2:30:00 PM 16.89 62.402 0.265 9.66 4.7 12.83
5/9/2023 2:45:00 PM 17.03 62.654 0.264 9.69 4.57 12.75
5/9/2023 3:00:00 PM 17.2 62.96 0.264 9.71 4.94 12.72
5/9/2023 3:15:00 PM 17.34 63.212 0.264 9.74 5.24 12.66
5/9/2023 3:30:00 PM 17.5 63.5 0.263 9.78 5.01 12.6
5/9/2023 3:45:00 PM 17.66 63.788 0.263 9.79 5.04 12.52
5/9/2023 4:00:00 PM 17.72 63.896 0.263 9.8 5.13 12.43
5/9/2023 4:15:00 PM 17.76 63.968 0.263 9.82 5.34 12.34
5/9/2023 4:30:00 PM 17.82 64.076 0.262 9.83 5.12 12.24
5/9/2023 4:45:00 PM 17.86 64.148 0.262 9.84 5.32 12.13
5/9/2023 5:00:00 PM 17.85 64.13 0.262 9.84 5.33 12.01
5/9/2023 5:15:00 PM 17.81 64.058 0.262 9.84 5.17 11.89
5/9/2023 5:30:00 PM 17.77 63.986 0.262 9.84 4.97 11.72
5/9/2023 5:45:00 PM 17.7 63.86 0.262 9.85 5.12 11.58
5/9/2023 6:00:00 PM 17.61 63.698 0.261 9.84 5.22 11.45
5/9/2023 6:15:00 PM 17.52 63.536 0.262 9.82 5.75 11.27
5/9/2023 6:30:00 PM 17.42 63.356 0.261 9.81 5.31 11.14
5/9/2023 6:45:00 PM 17.27 63.086 0.261 9.79 5.21 10.95
5/9/2023 7:00:00 PM 17.1 62.78 0.261 9.76 5.58 10.78
5/9/2023 7:15:00 PM 16.94 62.492 0.261 9.74 5.49 10.6
5/9/2023 7:30:00 PM 16.76 62.168 0.262 9.71 5.15 10.4
5/9/2023 7:45:00 PM 16.59 61.862 0.263 9.67 5.09 10.2
5/9/2023 8:00:00 PM 16.41 61.538 0.264 9.62 4.92 10
5/9/2023 8:15:00 PM 16.24 61.232 0.264 9.59 5.59 9.78
5/9/2023 8:30:00 PM 16.09 60.962 0.264 9.52 5.31 9.61
5/9/2023 8:45:00 PM 15.94 60.692 0.264 9.48 5.51 9.48
5/9/2023 9:00:00 PM 15.77 60.386 0.263 9.42 6.23 9.37
5/9/2023 9:15:00 PM 15.6 60.08 0.263 9.38 5.57 9.34
5/9/2023 9:30:00 PM 15.43 59.774 0.264 9.32 6.2 9.3
5/9/2023 9:45:00 PM 15.25 59.45 0.264 9.26 5.75 9.29
5/9/2023 10:00:00 PM 15.07 59.126 0.265 9.18 5.84 9.28
5/9/2023 10:15:00 PM 14.89 58.802 0.265 9.11 6.09 9.29
5/9/2023 10:30:00 PM 14.69 58.442 0.266 9.03 5.95 9.31
5/9/2023 10:45:00 PM 14.49 58.082 0.266 8.94 5.91 9.33
5/9/2023 11:00:00 PM 14.28 57.704 0.267 8.84 5.67 9.36
5/9/2023 11:15:00 PM 14.1 57.38 0.267 8.74 5.73 9.38
5/9/2023 11:30:00 PM 13.93 57.074 0.268 8.64 6.05 9.4
5/9/2023 11:45:00 PM 13.74 56.732 0.269 8.53 5.34 9.44
5/10/2023 12:00:00 AM 13.55 56.39 0.27 8.43 5.31 9.48
5/10/2023 12:15:00 AM 13.38 56.084 0.271 8.34 5.88 9.51
5/10/2023 12:30:00 AM 13.22 55.796 0.271 8.26 5.6 9.55
5/10/2023 12:45:00 AM 13.05 55.49 0.272 8.18 5.67 9.58
5/10/2023 1:00:00 AM 12.87 55.166 0.272 8.12 13.39 9.62
5/10/2023 1:15:00 AM 12.72 54.896 0.273 8.08 5.4 9.66
5/10/2023 1:30:00 AM 12.55 54.59 0.273 8.03 6.33 9.71
5/10/2023 1:45:00 AM 12.4 54.32 0.273 7.99 5.84 9.75
5/10/2023 2:00:00 AM 12.24 54.032 0.274 7.97 5.52 9.8
5/10/2023 2:15:00 AM 12.09 53.762 0.274 7.94 5.95 9.84
5/10/2023 2:30:00 AM 11.94 53.492 0.275 7.91 5.31 9.88
5/10/2023 2:45:00 AM 11.78 53.204 0.277 7.89 5.52 9.93
5/10/2023 3:00:00 AM 11.63 52.934 0.278 7.86 5.62 9.97
5/10/2023 3:15:00 AM 11.5 52.7 0.279 7.85 5.45 9.99
5/10/2023 3:30:00 AM 11.35 52.43 0.28 7.83 5.23 10.05
5/10/2023 3:45:00 AM 11.21 52.178 0.281 7.82 5.53 10.09
5/10/2023 4:00:00 AM 11.07 51.926 0.28 7.8 5.53 10.13
5/10/2023 4:15:00 AM 10.94 51.692 0.28 7.79 5.59 10.18
5/10/2023 4:30:00 AM 10.81 51.458 0.28 7.77 5.57 10.21
5/10/2023 4:45:00 AM 10.68 51.224 0.279 7.77 6.26 10.26
5/10/2023 5:00:00 AM 10.54 50.972 0.28 7.76 5.34 10.29
5/10/2023 5:15:00 AM 10.42 50.756 0.28 7.76 5.2 10.34
5/10/2023 5:30:00 AM 10.29 50.522 0.28 7.74 6.29 10.37
5/10/2023 5:45:00 AM 10.19 50.342 0.281 7.74 5.22 10.41
5/10/2023 6:00:00 AM 10.08 50.144 0.281 7.74 5.29 10.47
5/10/2023 6:15:00 AM 9.96 49.928 0.282 7.74 5.13 10.55
5/10/2023 6:30:00 AM 9.86 49.748 0.282 7.75 4.98 10.67
5/10/2023 6:45:00 AM 9.77 49.586 0.282 7.76 4.92 10.83
5/10/2023 7:00:00 AM 9.7 49.46 0.283 7.79 4.71 11.05
5/10/2023 7:15:00 AM 9.66 49.388 0.283 7.83 4.44 11.29
5/10/2023 7:30:00 AM 9.63 49.334 0.283 7.87 4.78 11.54
5/10/2023 7:45:00 AM 9.63 49.334 0.284 7.92 4.77 11.74
5/10/2023 8:00:00 AM 9.66 49.388 0.284 7.97 5.09 11.97
5/10/2023 8:15:00 AM 9.74 49.532 0.284 8.03 4.59 12.16
5/10/2023 8:30:00 AM 9.83 49.694 0.284 8.1 4.67 12.35
5/10/2023 8:45:00 AM 9.94 49.892 0.284 8.17 4.57 12.53
5/10/2023 9:00:00 AM 10.12 50.216 0.284 8.25 4.5 12.69
5/10/2023 9:15:00 AM 10.35 50.63 0.284 8.33 4.36 12.86
5/10/2023 9:30:00 AM 10.6 51.08 0.284 8.41 4.54 12.99
5/10/2023 9:45:00 AM 10.85 51.53 0.284 8.48 4.52 13.09
5/10/2023 10:00:00 AM 11.12 52.016 0.284 8.56 4.2 13.16
5/10/2023 10:15:00 AM 11.41 52.538 0.284 8.64 4.98 13.28
5/10/2023 10:30:00 AM 11.7 53.06 0.284 8.71 5.25 13.35
5/10/2023 10:45:00 AM 12.01 53.618 0.284 8.77 4.35 13.4
5/10/2023 11:00:00 AM 12.37 54.266 0.283 8.84 5.23 13.43
5/10/2023 11:15:00 AM 12.72 54.896 0.283 8.91 4.95 13.48
5/10/2023 11:30:00 AM 13.06 55.508 0.282 8.97 4.17 13.44
5/10/2023 11:45:00 AM 13.43 56.174 0.282 9.04 3.88 13.45
5/10/2023 12:00:00 PM 13.81 56.858 0.281 9.1 3.87 13.43
5/10/2023 12:15:00 PM 14.12 57.416 0.281 9.15 4.14 13.37
5/10/2023 12:30:00 PM 14.54 58.172 0.281 9.21 4 13.34
5/10/2023 12:45:00 PM 14.88 58.784 0.28 9.28 3.99 13.29
5/10/2023 1:00:00 PM 15.29 59.522 0.28 9.32 4.21 13.22
5/10/2023 1:15:00 PM 15.64 60.152 0.279 9.38 4.07 13.16
5/10/2023 1:30:00 PM 15.99 60.782 0.279 9.42 4.35 13.07
5/10/2023 1:45:00 PM 16.35 61.43 0.279 9.46 3.96 12.97
5/10/2023 2:00:00 PM 16.61 61.898 0.279 9.5 4.57 12.94
5/10/2023 2:15:00 PM 16.95 62.51 0.278 9.53 4.18 12.84
5/10/2023 2:30:00 PM 17.22 62.996 0.278 9.56 4.09 12.76
5/10/2023 2:45:00 PM 17.57 63.626 0.278 9.59 4.12 12.66
5/10/2023 3:00:00 PM 17.79 64.022 0.277 9.62 4.29 12.57
5/10/2023 3:15:00 PM 18.02 64.436 0.277 9.64 4.3 12.5
5/10/2023 3:30:00 PM 18.26 64.868 0.277 9.67 4.05 12.4
5/10/2023 3:45:00 PM 18.46 65.228 0.277 9.69 4.3 12.29
5/10/2023 4:00:00 PM 18.65 65.57 0.276 9.7 4.31 12.18
5/10/2023 4:15:00 PM 18.8 65.84 0.276 9.73 4.08 12.09
5/10/2023 4:30:00 PM 18.95 66.11 0.276 9.73 4.31 11.96
5/10/2023 4:45:00 PM 19.05 66.29 0.276 9.75 4.28 11.83
5/10/2023 5:00:00 PM 19.12 66.416 0.276 9.74 4.39 11.71
5/10/2023 5:15:00 PM 19.15 66.47 0.276 9.76 4.57 11.55
5/10/2023 5:30:00 PM 19.16 66.488 0.276 9.75 5.2 11.4
5/10/2023 5:45:00 PM 19.13 66.434 0.277 9.74 4.66 11.25
5/10/2023 6:00:00 PM 19.11 66.398 0.278 9.74 5.06 11.03
5/10/2023 6:15:00 PM 19.02 66.236 0.279 9.72 5.73 10.85
5/10/2023 6:30:00 PM 18.91 66.038 0.279 9.68 7.79 10.58
5/10/2023 6:45:00 PM 18.8 65.84 0.279 9.63 10.81 10.24
5/10/2023 7:00:00 PM 18.68 65.624 0.279 9.58 12.29 9.96
5/10/2023 7:15:00 PM 18.58 65.444 0.278 9.54 11.59 9.73
5/10/2023 7:30:00 PM 18.5 65.3 0.277 9.51 9.82 9.62
5/10/2023 7:45:00 PM 18.4 65.12 0.277 9.47 9.86 9.52
5/10/2023 8:00:00 PM 18.31 64.958 0.276 9.44 9.41 9.4
5/10/2023 8:15:00 PM 18.18 64.724 0.276 9.39 8.41 9.26
5/10/2023 8:30:00 PM 18.02 64.436 0.277 9.34 7.5 9.08
5/10/2023 8:45:00 PM 17.86 64.148 0.277 9.29 6.54 8.9
5/10/2023 9:00:00 PM 17.7 63.86 0.277 9.22 6.48 8.8
5/10/2023 9:15:00 PM 17.52 63.536 0.277 9.14 6.07 8.71
5/10/2023 9:30:00 PM 17.36 63.248 0.277 9.08 5.78 8.67
5/10/2023 9:45:00 PM 17.19 62.942 0.277 9.01 5.5 8.65
5/10/2023 10:00:00 PM 17.02 62.636 0.278 8.94 5.64 8.65
5/10/2023 10:15:00 PM 16.84 62.312 0.278 8.85 5.33 8.66
5/10/2023 10:30:00 PM 16.62 61.916 0.279 8.76 7.02 8.67
5/10/2023 10:45:00 PM 16.43 61.574 0.279 8.66 8.46 8.69
5/10/2023 11:00:00 PM 16.23 61.214 0.28 8.55 11.51 8.72
5/10/2023 11:15:00 PM 16.02 60.836 0.28 8.45 5.9 8.74
5/10/2023 11:30:00 PM 15.84 60.512 0.281 8.35 6.27 8.77
5/10/2023 11:45:00 PM 15.65 60.17 0.281 8.27 5.39 8.82
5/11/2023 12:00:00 AM 15.46 59.828 0.282 8.2 5.9 8.85
5/11/2023 12:15:00 AM 15.29 59.522 0.282 8.14 5.44 8.88
5/11/2023 12:30:00 AM 15.11 59.198 0.283 8.08 6 8.93
5/11/2023 12:45:00 AM 14.91 58.838 0.284 8.04 6.37 8.94
5/11/2023 1:00:00 AM 14.73 58.514 0.286 8 6.18 9.01
5/11/2023 1:15:00 AM 14.55 58.19 0.286 7.95 8.89 9.04
5/11/2023 1:30:00 AM 14.37 57.866 0.287 7.93 6.43 9.09
5/11/2023 1:45:00 AM 14.19 57.542 0.287 7.9 6.76 9.14
5/11/2023 2:00:00 AM 14.02 57.236 0.287 7.88 6.37 9.18
5/11/2023 2:15:00 AM 13.86 56.948 0.287 7.86 9 9.23
5/11/2023 2:30:00 AM 13.71 56.678 0.287 7.84 6.96 9.25
5/11/2023 2:45:00 AM 13.53 56.354 0.287 7.82 5.7 9.32
5/11/2023 3:00:00 AM 13.36 56.048 0.287 7.81 5.37 9.38
5/11/2023 3:15:00 AM 13.2 55.76 0.287 7.8 10.18 9.41
5/11/2023 3:30:00 AM 13.05 55.49 0.287 7.79 5.48 9.46
5/11/2023 3:45:00 AM 12.9 55.22 0.288 7.78 4.88 9.5
5/11/2023 4:00:00 AM 12.77 54.986 0.288 7.77 5.45 9.54
5/11/2023 4:15:00 AM 12.62 54.716 0.289 7.76 4.96 9.58
5/11/2023 4:30:00 AM 12.47 54.446 0.289 7.75 5.29 9.63
5/11/2023 4:45:00 AM 12.33 54.194 0.289 7.74 5.68 9.64
5/11/2023 5:00:00 AM 12.2 53.96 0.29 7.73 6.06 9.71
5/11/2023 5:15:00 AM 12.06 53.708 0.29 7.73 5.68 9.75
5/11/2023 5:30:00 AM 11.93 53.474 0.29 7.72 8.14 9.81
5/11/2023 5:45:00 AM 11.81 53.258 0.29 7.72 6.71 9.84
5/11/2023 6:00:00 AM 11.7 53.06 0.291 7.71 7.03 9.89
5/11/2023 6:15:00 AM 11.58 52.844 0.291 7.72 7.21 9.97
5/11/2023 6:30:00 AM 11.48 52.664 0.292 7.72 7.01 10.09
5/11/2023 6:45:00 AM 11.39 52.502 0.292 7.74 6.91 10.3
5/11/2023 7:00:00 AM 11.33 52.394 0.292 7.77 10.83 10.51
5/11/2023 7:15:00 AM 11.28 52.304 0.292 7.8 9.13 10.74
5/11/2023 7:30:00 AM 11.26 52.268 0.293 7.84 6.86 10.96
5/11/2023 7:45:00 AM 11.26 52.268 0.293 7.88 14.87 11.16
5/11/2023 8:00:00 AM 11.3 52.34 0.293 7.93 14.72 11.38
5/11/2023 8:15:00 AM 11.37 52.466 0.294 7.98 12.6 11.56
5/11/2023 8:30:00 AM 11.46 52.628 0.294 8.05 6.36 11.76
5/11/2023 8:45:00 AM 11.61 52.898 0.295 8.12 10.07 11.96
5/11/2023 9:00:00 AM 11.81 53.258 0.296 8.2 6.55 12.14
5/11/2023 9:15:00 AM 12.06 53.708 0.297 8.28 5.85 12.36
5/11/2023 9:30:00 AM 12.29 54.122 0.298 8.37 6.09 12.51
5/11/2023 9:45:00 AM 12.58 54.644 0.298 8.45 11.98 12.63
5/11/2023 10:00:00 AM 12.85 55.13 0.297 8.53 11.17 12.73
5/11/2023 10:15:00 AM 13.12 55.616 0.296 8.6 10.3 12.81
5/11/2023 10:30:00 AM 13.34 56.012 0.296 8.67 9.78 12.86
5/11/2023 10:45:00 AM 13.6 56.48 0.295 8.74 10.43 12.91
5/11/2023 11:00:00 AM 13.89 57.002 0.294 8.81 6.54 12.98
5/11/2023 11:15:00 AM 14.2 57.56 0.293 8.87 6.55 13.03
5/11/2023 11:30:00 AM 14.55 58.19 0.293 8.93 6.32 13.03
5/11/2023 11:45:00 AM 14.93 58.874 0.292 9 6.26 13.02
5/11/2023 12:00:00 PM 15.28 59.504 0.292 9.06 6.37 13.04
5/11/2023 12:15:00 PM 15.69 60.242 0.291 9.12 9.07 12.98
5/11/2023 12:30:00 PM 16.15 61.07 0.291 9.18 4.42 12.9
5/11/2023 12:45:00 PM 16.52 61.736 0.29 9.23 11.88 12.91
5/11/2023 1:00:00 PM 16.99 62.582 0.29 9.29 5.59 12.84
5/11/2023 1:15:00 PM 17.37 63.266 0.29 9.33 3.91 12.8
5/11/2023 1:30:00 PM 17.61 63.698 0.289 9.37 4.42 12.67
5/11/2023 1:45:00 PM 17.89 64.202 0.289 9.41 4.05 12.56
5/11/2023 2:00:00 PM 18.28 64.904 0.288 9.44 3.97 12.49
5/11/2023 2:15:00 PM 18.43 65.174 0.288 9.48 3.94 12.42
5/11/2023 2:30:00 PM 18.75 65.75 0.288 9.51 4.22 12.3
5/11/2023 2:45:00 PM 18.95 66.11 0.287 9.54 4.11 12.22
5/11/2023 3:00:00 PM 19.2 66.56 0.287 9.56 4.13 12.01
5/11/2023 3:15:00 PM 19.26 66.668 0.287 9.58 4.08 11.89
5/11/2023 3:30:00 PM 19.32 66.776 0.286 9.59 4.2 11.76
5/11/2023 3:45:00 PM 19.32 66.776 0.286 9.61 4.18 11.63
5/11/2023 4:00:00 PM 19.46 67.028 0.286 9.61 4.28 11.54
5/11/2023 4:15:00 PM 19.66 67.388 0.286 9.62 4.44 11.47
5/11/2023 4:30:00 PM 19.77 67.586 0.285 9.63 4.01 11.39
5/11/2023 4:45:00 PM 19.88 67.784 0.285 9.63 3.95 11.25
5/11/2023 5:00:00 PM 19.96 67.92799 0.285 9.65 4.15 11.11
5/11/2023 5:15:00 PM 19.87 67.766 0.285 9.63 3.94 10.91
5/11/2023 5:30:00 PM 19.92 67.856 0.286 9.61 4.87 10.78
5/11/2023 5:45:00 PM 19.89 67.802 0.286 9.6 4.52 10.65
5/11/2023 6:00:00 PM 19.78 67.604 0.286 9.6 4.51 10.44
5/11/2023 6:15:00 PM 19.68 67.424 0.287 9.57 4.56 10.2
5/11/2023 6:30:00 PM 19.61 67.298 0.286 9.54 4.29 9.97
5/11/2023 6:45:00 PM 19.56 67.208 0.286 9.51 4.43 9.79
5/11/2023 7:00:00 PM 19.5 67.1 0.286 9.47 4.4 9.59
5/11/2023 7:15:00 PM 19.43 66.974 0.286 9.45 4.6 9.45
5/11/2023 7:30:00 PM 19.36 66.848 0.286 9.42 4.24 9.32
5/11/2023 7:45:00 PM 19.24 66.632 0.286 9.36 4.75 9.2
5/11/2023 8:00:00 PM 19.11 66.398 0.286 9.33 4.99 9.04
5/11/2023 8:15:00 PM 18.96 66.128 0.287 9.25 4.71 8.88
5/11/2023 8:30:00 PM 18.79 65.82201 0.287 9.18 6.5 8.7
5/11/2023 8:45:00 PM 18.63 65.534 0.288 9.12 4.75 8.58
5/11/2023 9:00:00 PM 18.48 65.264 0.288 9.03 4.98 8.46
5/11/2023 9:15:00 PM 18.34 65.012 0.289 8.95 5.13 8.39
5/11/2023 9:30:00 PM 18.21 64.778 0.289 8.88 5.24 8.33
5/11/2023 9:45:00 PM 18.08 64.544 0.289 8.79 5.29 8.3
5/11/2023 10:00:00 PM 17.93 64.274 0.29 8.71 5.54 8.3
5/11/2023 10:15:00 PM 17.79 64.022 0.29 8.62 5.61 8.3
5/11/2023 10:30:00 PM 17.62 63.716 0.291 8.52 5.76 8.31
5/11/2023 10:45:00 PM 17.44 63.392 0.291 8.43 5.66 8.33
5/11/2023 11:00:00 PM 17.26 63.068 0.291 8.32 6.11 8.35
5/11/2023 11:15:00 PM 17.07 62.726 0.292 8.24 5.81 8.37
5/11/2023 11:30:00 PM 16.89 62.402 0.292 8.17 5.8 8.41
5/11/2023 11:45:00 PM 16.71 62.078 0.293 8.11 6.39 8.46
5/12/2023 12:00:00 AM 16.54 61.772 0.293 8.05 6.08 8.48
5/12/2023 12:15:00 AM 16.36 61.448 0.293 8.01 6.38 8.49
5/12/2023 12:30:00 AM 16.18 61.124 0.294 7.98 6.37 8.55
5/12/2023 12:45:00 AM 16 60.8 0.294 7.94 6.58 8.6
5/12/2023 1:00:00 AM 15.82 60.476 0.295 7.92 6.15 8.63
5/12/2023 1:15:00 AM 15.64 60.152 0.296 7.89 6.25 8.68
5/12/2023 1:30:00 AM 15.47 59.846 0.298 7.87 6.26 8.72
5/12/2023 1:45:00 AM 15.3 59.54 0.299 7.84 5.92 8.75
5/12/2023 2:00:00 AM 15.13 59.234 0.3 7.82 5.98 8.78
5/12/2023 2:15:00 AM 14.96 58.928 0.301 7.8 6.44 8.83
5/12/2023 2:30:00 AM 14.8 58.64 0.302 7.79 5.83 8.89
5/12/2023 2:45:00 AM 14.64 58.352 0.302 7.78 6.42 8.91
5/12/2023 3:00:00 AM 14.5 58.1 0.302 7.78 6.22 8.97
5/12/2023 3:15:00 AM 14.35 57.83 0.302 7.75 6.24 9
5/12/2023 3:30:00 AM 14.21 57.578 0.302 7.75 6.06 9.05
5/12/2023 3:45:00 AM 14.08 57.344 0.302 7.74 5.55 9.1
5/12/2023 4:00:00 AM 13.95 57.11 0.302 7.74 5.73 9.13
5/12/2023 4:15:00 AM 14.02 57.236 0.3 7.72 6.12 9.12
5/12/2023 4:30:00 AM 13.9 57.02 0.3 7.72 7.46 9.13
5/12/2023 4:45:00 AM 13.78 56.804 0.3 7.71 6.11 9.17
5/12/2023 5:00:00 AM 13.65 56.57 0.301 7.7 5.76 9.23
5/12/2023 5:15:00 AM 13.52 56.336 0.301 7.7 5.99 9.25
5/12/2023 5:30:00 AM 13.4 56.12 0.301 7.69 5.39 9.29
5/12/2023 5:45:00 AM 13.29 55.922 0.302 7.69 5.78 9.33
5/12/2023 6:00:00 AM 13.18 55.724 0.302 7.69 5.22 9.38
5/12/2023 6:15:00 AM 13.08 55.544 0.302 7.69 5.58 9.46
5/12/2023 6:30:00 AM 13 55.4 0.302 7.71 5.46 9.56
5/12/2023 6:45:00 AM 12.93 55.274 0.303 7.71 5.39 9.74
5/12/2023 7:00:00 AM 12.88 55.184 0.303 7.75 5.49 9.95
5/12/2023 7:15:00 AM 12.83 55.094 0.303 7.76 5.05 10.15
5/12/2023 7:30:00 AM 12.81 55.058 0.303 7.8 4.98 10.33
5/12/2023 7:45:00 AM 12.83 55.094 0.303 7.84 5.26 10.58
5/12/2023 8:00:00 AM 12.89 55.202 0.303 7.89 4.99 10.83
5/12/2023 8:15:00 AM 12.95 55.31 0.303 7.94 5.06 11.01
5/12/2023 8:30:00 AM 13.05 55.49 0.303 7.99 5.18 11.2
5/12/2023 8:45:00 AM 13.19 55.742 0.303 8.06 4.83 11.39
5/12/2023 9:00:00 AM 13.39 56.102 0.303 8.14 4.82 11.58
5/12/2023 9:15:00 AM 13.66 56.588 0.303 8.21 4.72 11.74
5/12/2023 9:30:00 AM 13.97 57.146 0.303 8.3 5 11.92
5/12/2023 9:45:00 AM 14.23 57.614 0.304 8.39 4.7 12.04
5/12/2023 10:00:00 AM 14.48 58.064 0.304 8.47 4.69 12.16
5/12/2023 10:15:00 AM 14.75 58.55 0.305 8.56 4.44 12.23
5/12/2023 10:30:00 AM 15.03 59.054 0.305 8.62 4.65 12.32
5/12/2023 10:45:00 AM 15.33 59.594 0.305 8.7 4.41 12.4
5/12/2023 11:00:00 AM 15.63 60.134 0.305 8.76 4.48 12.45
5/12/2023 11:15:00 AM 15.92 60.656 0.305 8.82 4.49 12.46
5/12/2023 11:30:00 AM 16.17 61.106 0.304 8.88 4.51 12.5
5/12/2023 11:45:00 AM 16.47 61.646 0.304 8.94 4.5 12.51
5/12/2023 12:00:00 PM 16.75 62.15 0.303 9.01 4.31 12.52
5/12/2023 12:15:00 PM 17.04 62.672 0.302 9.06 4.22 12.5
5/12/2023 12:30:00 PM 17.36 63.248 0.301 9.11 22.1 12.48
5/12/2023 12:45:00 PM 17.76 63.968 0.3 9.14 5.81 12.46
5/12/2023 1:00:00 PM 18.1 64.58 0.3 9.22 4.81 12.41
5/12/2023 1:15:00 PM 18.4 65.12 0.299 9.27 4.16 12.33
5/12/2023 1:30:00 PM 18.68 65.624 0.296 9.3 4.12 12.23
5/12/2023 1:45:00 PM 18.97 66.146 0.298 9.34 5.61 12.12
5/12/2023 2:00:00 PM 19.34 66.812 0.298 9.38 148.19 12.12
5/12/2023 2:15:00 PM 19.71 67.478 0.298 9.4 5.37 12.01
5/12/2023 2:30:00 PM 20.03 68.054 0.297 9.44 4.56 11.94
5/12/2023 2:45:00 PM 20.29 68.522 0.297 9.48 4.3 11.87
5/12/2023 3:00:00 PM 20.59 69.062 0.297 9.5 4.35 11.76
5/12/2023 3:15:00 PM 20.95 69.71 0.296 9.52 6.45 11.6
5/12/2023 3:30:00 PM 21.13 70.034 0.296 9.56 4.58 11.57
5/12/2023 3:45:00 PM 21.39 70.502 0.296 9.56 4.62 11.43
5/12/2023 4:00:00 PM 21.47 70.646 0.295 9.58 4.56 11.31
5/12/2023 4:15:00 PM 21.6 70.88 0.295 9.6 4.78 11.18
5/12/2023 4:30:00 PM 21.68 71.024 0.294 9.61 4.53 11.04
5/12/2023 4:45:00 PM 21.72 71.096 0.294 9.63 4.74 10.89
5/12/2023 5:00:00 PM 21.76 71.168 0.294 9.63 4.5 10.77
5/12/2023 5:15:00 PM 21.76 71.168 0.293 9.63 4.47 10.62
5/12/2023 5:30:00 PM 21.71 71.078 0.293 9.62 4.89 10.48
5/12/2023 5:45:00 PM 21.65 70.97 0.293 9.61 4.43 10.28
5/12/2023 6:00:00 PM 21.58 70.844 0.294 9.6 4.23 10.15
5/12/2023 6:15:00 PM 21.51 70.718 0.295 9.59 4.48 9.92
5/12/2023 6:30:00 PM 21.45 70.61 0.296 9.56 4.49 9.78
5/12/2023 6:45:00 PM 21.41 70.538 0.296 9.53 1497.39 9.58
5/12/2023 7:00:00 PM 21.38 70.484 0.296 9.53 14.65 9.38
5/12/2023 7:15:00 PM 21.34 70.412 0.296 9.47 4.49 9.17
5/12/2023 7:30:00 PM 21.29 70.32201 0.296 9.44 4.89 8.97
5/12/2023 7:45:00 PM 21.23 70.214 0.296 9.39 4.59 8.75
5/12/2023 8:00:00 PM 21.15 70.07 0.296 9.36 4.68 8.52
5/12/2023 8:15:00 PM 21.06 69.908 0.296 9.27 10.76 8.29
5/12/2023 8:30:00 PM 20.96 69.728 0.296 9.2 7.1 8.11
5/12/2023 8:45:00 PM 20.84 69.512 0.297 9.12 4.91 7.94
5/12/2023 9:00:00 PM 20.73 69.314 0.297 9.04 4.51 7.8
5/12/2023 9:15:00 PM 20.61 69.098 0.298 8.96 4.7 7.7
5/12/2023 9:30:00 PM 20.5 68.9 0.298 8.86 4.45 7.64
5/12/2023 9:45:00 PM 20.38 68.684 0.299 8.77 4.53 7.61
5/12/2023 10:00:00 PM 20.25 68.45 0.299 8.68 4.73 7.6
5/12/2023 10:15:00 PM 20.14 68.252 0.3 8.58 4.62 7.58
5/12/2023 10:30:00 PM 20.01 68.018 0.3 8.49 4.63 7.59
5/12/2023 10:45:00 PM 19.87 67.766 0.301 8.39 4.79 7.6
5/12/2023 11:00:00 PM 19.74 67.532 0.301 8.32 4.84 7.6
5/12/2023 11:15:00 PM 19.58 67.244 0.301 8.22 4.6 7.62
5/12/2023 11:30:00 PM 19.43 66.974 0.302 8.14 4.74 7.67
5/12/2023 11:45:00 PM 19.26 66.668 0.302 8.1 4.62 7.67
5/13/2023 12:00:00 AM 19.09 66.362 0.303 8.02 4.86 7.71
5/13/2023 12:15:00 AM 18.93 66.074 0.303 7.98 4.73 7.74
5/13/2023 12:30:00 AM 18.75 65.75 0.304 7.94 5.05 7.78
5/13/2023 12:45:00 AM 18.58 65.444 0.304 7.93 4.93 7.81
5/13/2023 1:00:00 AM 18.43 65.174 0.304 7.88 4.82 7.85
5/13/2023 1:15:00 AM 18.27 64.886 0.305 7.85 5.19 7.86
5/13/2023 1:30:00 AM 18.12 64.616 0.305 7.83 5.07 7.89
5/13/2023 1:45:00 AM 17.97 64.346 0.306 7.83 5.05 7.94
5/13/2023 2:00:00 AM 17.81 64.058 0.307 7.79 5.19 7.97
5/13/2023 2:15:00 AM 17.64 63.752 0.308 7.78 5.37 8.01
5/13/2023 2:30:00 AM 17.47 63.446 0.31 7.77 5.03 8.05
5/13/2023 2:45:00 AM 17.31 63.158 0.311 7.76 5.18 8.08
5/13/2023 3:00:00 AM 17.15 62.87 0.312 7.74 5.12 8.13
5/13/2023 3:15:00 AM 17 62.6 0.313 7.73 5.36 8.17
5/13/2023 3:30:00 AM 16.84 62.312 0.314 7.74 5.3 8.21
5/13/2023 3:45:00 AM 16.7 62.06 0.314 7.72 5.15 8.24
5/13/2023 4:00:00 AM 16.54 61.772 0.314 7.71 5.09 8.29
5/13/2023 4:15:00 AM 16.4 61.52 0.313 7.71 4.92 8.35
5/13/2023 4:30:00 AM 16.26 61.268 0.313 7.7 5.56 8.39
5/13/2023 4:45:00 AM 16.13 61.034 0.313 7.69 5.13 8.4
5/13/2023 5:00:00 AM 16 60.8 0.313 7.69 5.31 8.47
5/13/2023 5:15:00 AM 15.88 60.584 0.314 7.69 5.22 8.5
5/13/2023 5:30:00 AM 15.75 60.35 0.314 7.68 5.37 8.55
5/13/2023 5:45:00 AM 15.63 60.134 0.314 7.69 5.08 8.58
5/13/2023 6:00:00 AM 15.5 59.9 0.314 7.68 5.45 8.61
5/13/2023 6:15:00 AM 15.4 59.72 0.315 7.68 5.23 8.69
5/13/2023 6:30:00 AM 15.3 59.54 0.315 7.68 5.58 8.78
5/13/2023 6:45:00 AM 15.21 59.378 0.315 7.69 5.06 8.94
5/13/2023 7:00:00 AM 15.14 59.252 0.315 7.72 5.08 9.09
5/13/2023 7:15:00 AM 15.08 59.144 0.315 7.73 5.19 9.31
5/13/2023 7:30:00 AM 15.04 59.072 0.315 7.76 5.02 9.49
5/13/2023 7:45:00 AM 15.04 59.072 0.315 7.8 4.7 9.7
5/13/2023 8:00:00 AM 15.09 59.162 0.315 7.84 4.87 9.99
5/13/2023 8:15:00 AM 15.13 59.234 0.315 7.89 4.91 10.19
5/13/2023 8:30:00 AM 15.21 59.378 0.315 7.94 4.79 10.39
5/13/2023 8:45:00 AM 15.32 59.576 0.315 7.99 4.64 10.54
5/13/2023 9:00:00 AM 15.42 59.756 0.315 8.05 4.77 10.71
5/13/2023 9:15:00 AM 15.57 60.026 0.315 8.12 5.06 10.88
5/13/2023 9:30:00 AM 15.73 60.314 0.315 8.18 5.15 11.04
5/13/2023 9:45:00 AM 15.85 60.53 0.314 8.24 4.59 11.15
5/13/2023 10:00:00 AM 15.99 60.782 0.315 8.32 4.64 11.26
5/13/2023 10:15:00 AM 16.19 61.142 0.315 8.37 5.77 11.35
5/13/2023 10:30:00 AM 16.38 61.484 0.315 8.44 5.63 11.48
5/13/2023 10:45:00 AM 16.57 61.826 0.316 8.51 5.46 11.56
5/13/2023 11:00:00 AM 16.73 62.114 0.317 8.57 5.72 11.62
5/13/2023 11:15:00 AM 16.89 62.402 0.317 8.64 5.48 11.68
5/13/2023 11:30:00 AM 17.03 62.654 0.317 8.7 5.5 11.68
5/13/2023 11:45:00 AM 17.15 62.87 0.318 8.75 5.18 11.7
5/13/2023 12:00:00 PM 17.2 62.96 0.318 8.79 4.77 11.73
5/13/2023 12:15:00 PM 17.28 63.104 0.318 8.83 5.25 11.72
5/13/2023 12:30:00 PM 17.38 63.284 0.317 8.89 5.33 11.7
5/13/2023 12:45:00 PM 17.61 63.698 0.317 8.93 5.1 11.72
5/13/2023 1:00:00 PM 17.91 64.238 0.317 8.97 5.26 11.71
5/13/2023 1:15:00 PM 18.2 64.76 0.316 9.01 5.19 11.76
5/13/2023 1:30:00 PM 18.36 65.048 0.316 9.05 4.46 11.7
5/13/2023 1:45:00 PM 18.56 65.408 0.315 9.1 4.19 11.68
5/13/2023 2:00:00 PM 18.75 65.75 0.314 9.13 4.31 11.65
5/13/2023 2:15:00 PM 18.91 66.038 0.313 9.17 4.37 11.61
5/13/2023 2:30:00 PM 19.11 66.398 0.313 9.21 4.44 11.55
5/13/2023 2:45:00 PM 19.42 66.956 0.312 9.24 4.53 11.49
5/13/2023 3:00:00 PM 19.7 67.46 0.312 9.26 5.05 11.46
5/13/2023 3:15:00 PM 19.96 67.92799 0.298 9.28 5.51 11.39
5/13/2023 3:30:00 PM 20.19 68.342 0.296 9.32 350.75 11.29
5/13/2023 3:45:00 PM 20.42 68.756 0.31 9.34 4.53 11.18
5/13/2023 4:00:00 PM 20.61 69.098 0.31 9.37 4.5 11.12
5/13/2023 4:15:00 PM 20.76 69.368 0.309 9.39 4.6 11.01
5/13/2023 4:30:00 PM 20.8 69.44 0.308 9.43 4.49 10.91
5/13/2023 4:45:00 PM 20.86 69.548 0.308 9.43 5.22 10.81
5/13/2023 5:00:00 PM 20.79 69.422 0.308 9.45 4.58 10.7
5/13/2023 5:15:00 PM 20.71 69.278 0.308 9.45 4.5 10.56
5/13/2023 5:30:00 PM 20.64 69.152 0.307 9.46 4.24 10.49
5/13/2023 5:45:00 PM 20.54 68.972 0.307 9.45 4.32 10.35
5/13/2023 6:00:00 PM 20.4 68.72 0.307 9.45 4.44 10.16
5/13/2023 6:15:00 PM 20.27 68.486 0.306 9.46 4.66 10.06
5/13/2023 6:30:00 PM 20.13 68.234 0.306 9.43 4.61 9.91
5/13/2023 6:45:00 PM 20.01 68.018 0.306 9.41 4.15 9.74
5/13/2023 7:00:00 PM 19.86 67.748 0.307 9.42 4.38 9.61
5/13/2023 7:15:00 PM 19.72 67.496 0.307 9.37 4.61 9.46
5/13/2023 7:30:00 PM 19.54 67.172 0.308 9.34 4.57 9.31
5/13/2023 7:45:00 PM 19.37 66.866 0.31 9.33 4.46 9.12
5/13/2023 8:00:00 PM 19.22 66.596 0.311 9.26 4.48 8.91
5/13/2023 8:15:00 PM 19.1 66.38 0.312 9.22 4.44 8.73
5/13/2023 8:30:00 PM 18.97 66.146 0.313 9.16 4.66 8.56
5/13/2023 8:45:00 PM 18.82 65.876 0.313 9.09 4.61 8.4
5/13/2023 9:00:00 PM 18.67 65.606 0.313 9.02 4.57 8.26
5/13/2023 9:15:00 PM 18.54 65.372 0.313 8.96 4.43 8.19
5/13/2023 9:30:00 PM 18.42 65.156 0.313 8.87 4.62 8.1
5/13/2023 9:45:00 PM 18.3 64.94 0.312 8.8 4.74 8.06
5/13/2023 10:00:00 PM 18.17 64.706 0.312 8.72 4.68 8.01
5/13/2023 10:15:00 PM 18.07 64.526 0.312 8.66 4.95 7.99
5/13/2023 10:30:00 PM 17.95 64.31 0.312 8.56 4.66 8
5/13/2023 10:45:00 PM 17.84 64.112 0.312 8.5 4.74 8
5/13/2023 11:00:00 PM 17.73 63.914 0.312 8.41 4.79 8.02
5/13/2023 11:15:00 PM 17.61 63.698 0.313 8.36 4.75 8.02
5/13/2023 11:30:00 PM 17.49 63.482 0.313 8.27 4.47 8.01
5/13/2023 11:45:00 PM 17.37 63.266 0.313 8.2 4.79 8.04
5/14/2023 12:00:00 AM 17.26 63.068 0.314 8.14 4.79 8.03
5/14/2023 12:15:00 AM 17.13 62.834 0.314 8.11 5.66 8.05
5/14/2023 12:30:00 AM 16.99 62.582 0.314 8.04 4.73 8.08
5/14/2023 12:45:00 AM 16.85 62.33 0.315 8 4.74 8.11
5/14/2023 1:00:00 AM 16.68 62.024 0.315 7.96 4.89 8.15
5/14/2023 1:15:00 AM 16.5 61.7 0.316 7.93 5.34 8.2
5/14/2023 1:30:00 AM 16.32 61.376 0.317 7.9 5.25 8.24
5/14/2023 1:45:00 AM 16.13 61.034 0.317 7.88 5.2 8.28
5/14/2023 2:00:00 AM 15.95 60.71 0.318 7.86 5.19 8.35
5/14/2023 2:15:00 AM 15.77 60.386 0.318 7.84 4.92 8.38
5/14/2023 2:30:00 AM 15.58 60.044 0.319 7.82 4.9 8.45
5/14/2023 2:45:00 AM 15.39 59.702 0.32 7.8 5.59 8.49
5/14/2023 3:00:00 AM 15.22 59.396 0.321 7.79 5.37 8.54
5/14/2023 3:15:00 AM 15.03 59.054 0.322 7.78 5.06 8.59
5/14/2023 3:30:00 AM 14.87 58.766 0.324 7.77 5.02 8.64
5/14/2023 3:45:00 AM 14.69 58.442 0.325 7.77 4.99 8.7
5/14/2023 4:00:00 AM 14.53 58.154 0.326 7.75 5.12 8.74
5/14/2023 4:15:00 AM 14.37 57.866 0.328 7.74 5.07 8.8
5/14/2023 4:30:00 AM 14.23 57.614 0.328 7.73 4.91 8.83
5/14/2023 4:45:00 AM 14.09 57.362 0.329 7.72 5.1 8.88
5/14/2023 5:00:00 AM 13.97 57.146 0.329 7.72 5.08 8.9
5/14/2023 5:15:00 AM 14.04 57.272 0.328 7.71 4.92 8.88
5/14/2023 5:30:00 AM 13.92 57.056 0.327 7.7 4.8 8.91
5/14/2023 5:45:00 AM 13.81 56.858 0.327 7.71 4.95 8.97
5/14/2023 6:00:00 AM 13.71 56.678 0.327 7.7 5.1 9.04
5/14/2023 6:15:00 AM 13.61 56.498 0.327 7.7 5.18 9.1
5/14/2023 6:30:00 AM 13.53 56.354 0.327 7.7 4.91 9.21
5/14/2023 6:45:00 AM 13.46 56.228 0.326 7.72 4.9 9.36
5/14/2023 7:00:00 AM 13.42 56.156 0.326 7.73 4.84 9.53
5/14/2023 7:15:00 AM 13.39 56.102 0.326 7.76 4.86 9.71
5/14/2023 7:30:00 AM 13.39 56.102 0.326 7.78 4.74 9.91
5/14/2023 7:45:00 AM 13.39 56.102 0.326 7.81 4.73 10.09
5/14/2023 8:00:00 AM 13.4 56.12 0.326 7.84 4.6 10.25
5/14/2023 8:15:00 AM 13.43 56.174 0.325 7.88 4.72 10.4
5/14/2023 8:30:00 AM 13.46 56.228 0.325 7.91 4.31 10.53
5/14/2023 8:45:00 AM 13.53 56.354 0.325 7.95 4.67 10.66
5/14/2023 9:00:00 AM 13.62 56.516 0.325 7.99 4.34 10.78
5/14/2023 9:15:00 AM 13.8 56.84 0.325 8.03 4.24 10.9
5/14/2023 9:30:00 AM 14.03 57.254 0.325 8.07 4.64 11
5/14/2023 9:45:00 AM 14.25 57.65 0.325 8.12 4.58 11.12
5/14/2023 10:00:00 AM 14.55 58.19 0.325 8.17 4.35 11.2
5/14/2023 10:15:00 AM 14.9 58.82 0.325 8.23 4.53 11.32
5/14/2023 10:30:00 AM 15.25 59.45 0.325 8.29 5.05 11.34
5/14/2023 10:45:00 AM 15.63 60.134 0.325 8.35 4.78 11.42
5/14/2023 11:00:00 AM 16.08 60.944 0.325 8.41 4.74 11.49
5/14/2023 11:15:00 AM 16.46 61.628 0.325 8.46 4.66 11.48
5/14/2023 11:30:00 AM 16.84 62.312 0.325 8.52 5.01 11.53
5/14/2023 11:45:00 AM 17.18 62.924 0.326 8.57 4.92 11.53
5/14/2023 12:00:00 PM 17.5 63.5 0.327 8.62 4.79 11.55
5/14/2023 12:15:00 PM 17.81 64.058 0.328 8.66 4.72 11.53
5/14/2023 12:30:00 PM 18.16 64.688 0.328 8.71 4.74 11.52
5/14/2023 12:45:00 PM 18.47 65.246 0.329 8.75 4.88 11.49
5/14/2023 1:00:00 PM 18.78 65.804 0.329 8.8 4.82 11.46
5/14/2023 1:15:00 PM 19.05 66.29 0.33 8.85 4.89 11.41
5/14/2023 1:30:00 PM 19.31 66.758 0.329 8.89 5.1 11.33
5/14/2023 1:45:00 PM 19.52 67.136 0.329 8.94 4.96 11.26
5/14/2023 2:00:00 PM 19.73 67.514 0.328 8.99 5.32 11.22
5/14/2023 2:15:00 PM 19.97 67.946 0.328 9.01 5.1 11.12
5/14/2023 2:30:00 PM 20.11 68.198 0.327 9.03 3.98 11.08
5/14/2023 2:45:00 PM 20.3 68.54 0.326 9.07 7.02 11.01
5/14/2023 3:00:00 PM 20.5 68.9 0.325 9.1 7.35 10.94
5/14/2023 3:15:00 PM 20.6 69.08 0.325 9.12 4.76 10.88
5/14/2023 3:30:00 PM 20.71 69.278 0.324 9.16 6.21 10.82
5/14/2023 3:45:00 PM 20.82 69.476 0.324 9.18 6.12 10.76
5/14/2023 4:00:00 PM 20.9 69.62 0.323 9.2 5.47 10.67
5/14/2023 4:15:00 PM 20.92 69.656 0.323 9.22 5.05 10.62
5/14/2023 4:30:00 PM 20.81 69.458 0.322 9.25 5.24 10.56
5/14/2023 4:45:00 PM 20.64 69.152 0.322 9.25 5.28 10.48
5/14/2023 5:00:00 PM 20.49 68.882 0.321 9.26 5.44 10.44
5/14/2023 5:15:00 PM 20.32 68.576 0.321 9.27 5.18 10.32
5/14/2023 5:30:00 PM 20.11 68.198 0.321 9.27 5.03 10.31
5/14/2023 5:45:00 PM 19.94 67.892 0.32 9.28 5.08 10.24
5/14/2023 6:00:00 PM 19.75 67.55 0.32 9.28 4.72 10.1
5/14/2023 6:15:00 PM 19.54 67.172 0.32 9.3 5.25 10
5/14/2023 6:30:00 PM 19.39 66.902 0.319 9.29 5.27 9.97
5/14/2023 6:45:00 PM 19.2 66.56 0.319 9.27 5.29 9.88
5/14/2023 7:00:00 PM 19.06 66.308 0.319 9.25 5.23 9.76
5/14/2023 7:15:00 PM 18.88 65.984 0.319 9.23 4.99 9.61
5/14/2023 7:30:00 PM 18.72 65.696 0.319 9.21 5.52 9.48
5/14/2023 7:45:00 PM 18.54 65.372 0.32 9.18 5.04 9.34
5/14/2023 8:00:00 PM 18.38 65.084 0.32 9.15 5.18 9.18
5/14/2023 8:15:00 PM 18.21 64.778 0.32 9.1 5.4 9.02
5/14/2023 8:30:00 PM 18.03 64.454 0.321 9.04 5.74 8.85
5/14/2023 8:45:00 PM 17.87 64.166 0.322 8.98 5.84 8.69
5/14/2023 9:00:00 PM 17.67 63.806 0.323 8.91 4.99 8.56
5/14/2023 9:15:00 PM 17.51 63.518 0.323 8.83 4.99 8.46
5/14/2023 9:30:00 PM 17.33 63.194 0.324 8.76 7.15 8.39
5/14/2023 9:45:00 PM 17.18 62.924 0.324 8.68 5.04 8.34
5/14/2023 10:00:00 PM 17.03 62.654 0.324 8.61 5.11 8.29
5/14/2023 10:15:00 PM 16.88 62.384 0.325 8.52 5.34 8.28
5/14/2023 10:30:00 PM 16.75 62.15 0.325 8.45 5.19 8.28
5/14/2023 10:45:00 PM 16.6 61.88 0.325 8.38 5.08 8.27
5/14/2023 11:00:00 PM 16.46 61.628 0.325 8.32 4.85 8.28
5/14/2023 11:15:00 PM 16.3 61.34 0.325 8.26 5.29 8.3
5/14/2023 11:30:00 PM 16.16 61.088 0.325 8.21 4.78 8.31
5/14/2023 11:45:00 PM 16.01 60.818 0.325 8.16 5.05 8.32
5/15/2023 12:00:00 AM 15.87 60.566 0.326 8.12 5.31 8.37
5/15/2023 12:15:00 AM 15.71 60.278 0.326 8.08 4.97 8.37
5/15/2023 12:30:00 AM 15.55 59.99 0.326 8.03 4.84 8.39
5/15/2023 12:45:00 AM 15.4 59.72 0.327 8 4.97 8.44
5/15/2023 1:00:00 AM 15.23 59.414 0.327 7.96 5.01 8.48
5/15/2023 1:15:00 AM 15.05 59.09 0.327 7.94 5.3 8.52
5/15/2023 1:30:00 AM 14.87 58.766 0.328 7.91 4.89 8.58
5/15/2023 1:45:00 AM 14.71 58.478 0.328 7.89 4.73 8.6
5/15/2023 2:00:00 AM 14.52 58.136 0.329 7.87 5.06 8.67
5/15/2023 2:15:00 AM 14.35 57.83 0.329 7.85 5.13 8.7
5/15/2023 2:30:00 AM 14.19 57.542 0.329 7.83 5.16 8.74
5/15/2023 2:45:00 AM 14.03 57.254 0.329 7.82 5.03 8.79
5/15/2023 3:00:00 AM 14.06 57.308 0.328 7.81 5.09 8.78
5/15/2023 3:15:00 AM 13.89 57.002 0.328 7.8 5.09 8.83
5/15/2023 3:30:00 AM 13.73 56.714 0.329 7.78 5.32 8.86
5/15/2023 3:45:00 AM 13.56 56.408 0.329 7.78 5.24 8.91
5/15/2023 4:00:00 AM 13.41 56.138 0.33 7.77 5.31 8.96
5/15/2023 4:15:00 AM 13.24 55.832 0.331 7.76 5.24 9.02
5/15/2023 4:30:00 AM 13.09 55.562 0.332 7.75 5.81 9.05
5/15/2023 4:45:00 AM 12.92 55.256 0.333 7.75 5.24 9.11
5/15/2023 5:00:00 AM 12.76 54.968 0.335 7.74 4.75 9.15
5/15/2023 5:15:00 AM 12.6 54.68 0.337 7.74 4.68 9.2
5/15/2023 5:30:00 AM 12.44 54.392 0.338 7.73 4.95 9.26
5/15/2023 5:45:00 AM 12.29 54.122 0.34 7.73 4.92 9.3
5/15/2023 6:00:00 AM 12.14 53.852 0.341 7.73 4.75 9.38
5/15/2023 6:15:00 AM 12 53.6 0.342 7.73 4.88 9.45
5/15/2023 6:30:00 AM 11.88 53.384 0.342 7.73 4.56 9.54
5/15/2023 6:45:00 AM 11.78 53.204 0.342 7.74 4.73 9.68
5/15/2023 7:00:00 AM 11.7 53.06 0.342 7.75 4.49 9.8
5/15/2023 7:15:00 AM 11.65 52.97 0.342 7.77 4.51 9.96
5/15/2023 7:30:00 AM 11.62 52.916 0.341 7.79 4.48 10.12
5/15/2023 7:45:00 AM 11.61 52.898 0.341 7.81 4.54 10.27
5/15/2023 8:00:00 AM 11.62 52.916 0.341 7.84 4.36 10.41
5/15/2023 8:15:00 AM 11.67 53.006 0.34 7.85 4.63 10.54
5/15/2023 8:30:00 AM 11.77 53.186 0.34 7.88 4.5 10.69
5/15/2023 8:45:00 AM 11.9 53.42 0.34 7.91 4.67 10.82
5/15/2023 9:00:00 AM 12.08 53.744 0.34 7.95 4.08 10.91
5/15/2023 9:15:00 AM 12.34 54.212 0.339 7.98 4.39 11
5/15/2023 9:30:00 AM 12.63 54.734 0.339 8.03 4.08 11.1
5/15/2023 9:45:00 AM 12.95 55.31 0.339 8.06 4 11.18
5/15/2023 10:00:00 AM 13.36 56.048 0.339 8.09 3.99 11.25
5/15/2023 10:15:00 AM 13.74 56.732 0.339 8.14 4.29 11.32
5/15/2023 10:30:00 AM 14.12 57.416 0.339 8.17 4.17 11.33
5/15/2023 10:45:00 AM 14.56 58.208 0.339 8.22 4.2 11.37
5/15/2023 11:00:00 AM 14.97 58.946 0.339 8.27 4.33 11.4
5/15/2023 11:15:00 AM 15.37 59.666 0.339 8.32 4.05 11.41
5/15/2023 11:30:00 AM 15.8 60.44 0.338 8.36 4.01 11.44
5/15/2023 11:45:00 AM 16.2 61.16 0.338 8.4 3.77 11.4
5/15/2023 12:00:00 PM 16.6 61.88 0.338 8.45 3.89 11.43
5/15/2023 12:15:00 PM 16.98 62.564 0.339 8.49 4.02 11.37
5/15/2023 12:30:00 PM 17.36 63.248 0.339 8.52 3.87 11.35
5/15/2023 12:45:00 PM 17.73 63.914 0.339 8.56 3.84 11.35
5/15/2023 1:00:00 PM 18.06 64.508 0.34 8.61 3.8 11.28
5/15/2023 1:15:00 PM 18.36 65.048 0.34 8.64 3.89 11.21
5/15/2023 1:30:00 PM 18.64 65.552 0.34 8.69 3.62 11.18
5/15/2023 1:45:00 PM 18.9 66.02 0.34 8.73 3.78 11.1
5/15/2023 2:00:00 PM 19.12 66.416 0.34 8.76 3.85 11.07
5/15/2023 2:15:00 PM 19.35 66.83 0.339 8.8 4.05 11
5/15/2023 2:30:00 PM 19.56 67.208 0.339 8.84 3.94 10.95
5/15/2023 2:45:00 PM 19.77 67.586 0.339 8.86 4.2 10.88
5/15/2023 3:00:00 PM 19.99 67.982 0.339 8.92 3.77 10.83
5/15/2023 3:15:00 PM 20.13 68.234 0.338 8.93 3.57 10.71
5/15/2023 3:30:00 PM 20.23 68.414 0.338 8.95 3.75 10.65
5/15/2023 3:45:00 PM 20.32 68.576 0.337 8.97 3.77 10.51
5/15/2023 4:00:00 PM 20.39 68.702 0.337 9.02 3.87 10.48
5/15/2023 4:15:00 PM 20.41 68.738 0.336 9.02 4.06 10.32
5/15/2023 4:30:00 PM 20.43 68.774 0.336 9.04 4.05 10.32
5/15/2023 4:45:00 PM 20.45 68.81 0.335 9.05 4.23 10.25
5/15/2023 5:00:00 PM 20.41 68.738 0.335 9.06 4.14 10.16
5/15/2023 5:15:00 PM 20.38 68.684 0.334 9.07 3.95 10.07
5/15/2023 5:30:00 PM 20.28 68.504 0.333 9.1 3.91 9.96
5/15/2023 5:45:00 PM 20.15 68.27 0.333 9.08 4.09 9.9
5/15/2023 6:00:00 PM 19.98 67.964 0.333 9.08 4.06 9.81
5/15/2023 6:15:00 PM 19.81 67.658 0.333 9.07 3.94 9.65
5/15/2023 6:30:00 PM 19.6 67.28 0.332 9.08 4.06 9.63
5/15/2023 6:45:00 PM 19.42 66.956 0.332 9.06 3.86 9.52
5/15/2023 7:00:00 PM 19.24 66.632 0.332 9.06 4.33 9.46
5/15/2023 7:15:00 PM 19.07 66.326 0.332 9.03 3.99 9.35
5/15/2023 7:30:00 PM 18.91 66.038 0.332 9.01 4.25 9.23
5/15/2023 7:45:00 PM 18.75 65.75 0.332 8.98 4.32 9.09
5/15/2023 8:00:00 PM 18.61 65.498 0.333 8.94 4.29 8.93
5/15/2023 8:15:00 PM 18.47 65.246 0.333 8.9 4.35 8.74
5/15/2023 8:30:00 PM 18.33 64.994 0.333 8.85 4.3 8.61
5/15/2023 8:45:00 PM 18.17 64.706 0.334 8.78 5.21 8.44
5/15/2023 9:00:00 PM 18 64.4 0.335 8.71 5.44 8.32
5/15/2023 9:15:00 PM 17.8 64.04 0.336 8.64 4.57 8.18
5/15/2023 9:30:00 PM 17.64 63.752 0.337 8.56 4.9 8.15
5/15/2023 9:45:00 PM 17.49 63.482 0.338 8.48 4.57 8.09
5/15/2023 10:00:00 PM 17.33 63.194 0.339 8.41 4.61 8.06
5/15/2023 10:15:00 PM 17.19 62.942 0.34 8.34 4.49 8.03
5/15/2023 10:30:00 PM 17.05 62.69 0.341 8.27 4.79 8.01
5/15/2023 10:45:00 PM 16.92 62.456 0.341 8.21 4.97 8.01
5/15/2023 11:00:00 PM 16.76 62.168 0.341 8.16 4.58 8.02
5/15/2023 11:15:00 PM 16.62 61.916 0.341 8.11 4.96 8.03
5/15/2023 11:30:00 PM 16.47 61.646 0.341 8.07 4.94 8.03
5/15/2023 11:45:00 PM 16.33 61.394 0.341 8.04 5.05 8.06
5/16/2023 12:00:00 AM 16.2 61.16 0.341 8 4.69 8.08
5/16/2023 12:15:00 AM 16.07 60.926 0.341 7.97 5.1 8.09
5/16/2023 12:30:00 AM 15.92 60.656 0.34 7.94 4.97 8.09
5/16/2023 12:45:00 AM 15.78 60.404 0.34 7.91 4.95 8.15
5/16/2023 1:00:00 AM 15.65 60.17 0.34 7.9 5.07 8.18
5/16/2023 1:15:00 AM 15.49 59.882 0.341 7.89 4.67 8.2
5/16/2023 1:30:00 AM 15.34 59.612 0.341 7.87 5.17 8.25
5/16/2023 1:45:00 AM 15.18 59.324 0.341 7.85 5.05 8.29
5/16/2023 2:00:00 AM 15.03 59.054 0.341 7.83 4.71 8.31
5/16/2023 2:15:00 AM 14.88 58.784 0.341 7.82 4.87 8.37
5/16/2023 2:30:00 AM 14.75 58.55 0.341 7.82 4.88 8.4
5/16/2023 2:45:00 AM 14.6 58.28 0.341 7.79 4.91 8.45
5/16/2023 3:00:00 AM 14.47 58.046 0.342 7.78 5.26 8.48
5/16/2023 3:15:00 AM 14.32 57.776 0.342 7.79 5.43 8.51
5/16/2023 3:30:00 AM 14.17 57.506 0.342 7.77 5.14 8.58
5/16/2023 3:45:00 AM 14.03 57.254 0.342 7.76 5.2 8.6
5/16/2023 4:00:00 AM 13.99 57.182 0.342 7.76 7.31 8.63
5/16/2023 4:15:00 AM 13.91 57.038 0.342 7.75 5.62 8.64
5/16/2023 4:30:00 AM 13.74 56.732 0.342 7.74 5.58 8.63
5/16/2023 4:45:00 AM 13.59 56.462 0.343 7.74 5.43 8.72
5/16/2023 5:00:00 AM 13.43 56.174 0.343 7.73 5.63 8.78
5/16/2023 5:15:00 AM 13.3 55.94 0.344 7.73 5.54 8.81
5/16/2023 5:30:00 AM 13.15 55.67 0.344 7.72 5.21 8.87
5/16/2023 5:45:00 AM 13 55.4 0.345 7.72 5.45 8.89
5/16/2023 6:00:00 AM 12.86 55.148 0.347 7.72 5.31 8.95
5/16/2023 6:15:00 AM 12.73 54.914 0.348 7.73 5.47 8.98
5/16/2023 6:30:00 AM 12.61 54.698 0.35 7.72 5.26 9.09
5/16/2023 6:45:00 AM 12.52 54.536 0.351 7.73 5.29 9.19
5/16/2023 7:00:00 AM 12.45 54.41 0.352 7.74 5.04 9.35
5/16/2023 7:15:00 AM 12.41 54.338 0.352 7.75 5.33 9.43
5/16/2023 7:30:00 AM 12.4 54.32 0.353 7.77 4.95 9.58
5/16/2023 7:45:00 AM 12.4 54.32 0.353 7.78 5.23 9.71
5/16/2023 8:00:00 AM 12.44 54.392 0.353 7.8 5.11 9.84
5/16/2023 8:15:00 AM 12.5 54.5 0.353 7.82 4.75 9.98
5/16/2023 8:30:00 AM 12.61 54.698 0.352 7.84 5.1 10.09
5/16/2023 8:45:00 AM 12.78 55.004 0.352 7.87 4.66 10.23
5/16/2023 9:00:00 AM 12.99 55.382 0.351 7.9 4.74 10.3
5/16/2023 9:15:00 AM 13.25 55.85 0.351 7.93 4.84 10.4
5/16/2023 9:30:00 AM 13.57 56.426 0.351 7.96 4.82 10.46
5/16/2023 9:45:00 AM 13.91 57.038 0.35 8 4.65 10.55
5/16/2023 10:00:00 AM 14.24 57.632 0.35 8.04 5.8 10.59
5/16/2023 10:15:00 AM 14.61 58.298 0.35 8.07 4.63 10.63
5/16/2023 10:30:00 AM 15.02 59.036 0.35 8.1 4.74 10.6
5/16/2023 10:45:00 AM 15.44 59.792 0.35 8.14 4.9 10.68
5/16/2023 11:00:00 AM 15.91 60.638 0.35 8.18 4.47 10.69
5/16/2023 11:15:00 AM 16.34 61.412 0.35 8.22 4.39 10.7
5/16/2023 11:30:00 AM 16.75 62.15 0.35 8.27 4.76 10.72
5/16/2023 11:45:00 AM 17.13 62.834 0.35 8.3 4.6 10.75
5/16/2023 12:00:00 PM 17.48 63.464 0.35 8.33 4.67 10.71
5/16/2023 12:15:00 PM 17.71 63.878 0.35 8.38 4.53 10.73
5/16/2023 12:30:00 PM 18 64.4 0.35 8.4 4.52 10.69
5/16/2023 12:45:00 PM 18.18 64.724 0.351 8.44 4.43 10.65
5/16/2023 1:00:00 PM 18.49 65.282 0.352 8.47 4.43 10.61
5/16/2023 1:15:00 PM 18.78 65.804 0.352 8.5 4.34 10.6
5/16/2023 1:30:00 PM 18.99 66.182 0.353 8.52 4.39 10.51
5/16/2023 1:45:00 PM 19.27 66.686 0.353 8.56 4.35 10.52
5/16/2023 2:00:00 PM 19.43 66.974 0.354 8.59 4.33 10.46
5/16/2023 2:15:00 PM 19.58 67.244 0.354 8.62 4.33 10.41
5/16/2023 2:30:00 PM 19.6 67.28 0.354 8.65 4.28 10.33
5/16/2023 2:45:00 PM 19.59 67.262 0.354 8.68 4.32 10.28
5/16/2023 3:00:00 PM 19.52 67.136 0.354 8.7 4.43 10.23
5/16/2023 3:15:00 PM 19.56 67.208 0.353 8.72 4.37 10.17
5/16/2023 3:30:00 PM 19.56 67.208 0.353 8.75 4.15 10.15
5/16/2023 3:45:00 PM 19.47 67.046 0.353 8.75 4.48 10.09
5/16/2023 4:00:00 PM 19.33 66.794 0.352 8.77 4.5 10.07
5/16/2023 4:15:00 PM 19.24 66.632 0.352 8.78 4.81 10.01
5/16/2023 4:30:00 PM 19.24 66.632 0.351 8.79 4.2 9.97
5/16/2023 4:45:00 PM 19.13 66.434 0.351 8.83 4.38 9.93
5/16/2023 5:00:00 PM 19.07 66.326 0.35 8.82 4.42 9.9
5/16/2023 5:15:00 PM 19.04 66.272 0.35 8.83 4.25 9.83
5/16/2023 5:30:00 PM 18.93 66.074 0.349 8.83 4.33 9.76
5/16/2023 5:45:00 PM 18.82 65.876 0.349 8.84 4.35 9.73
5/16/2023 6:00:00 PM 18.69 65.642 0.349 8.86 5.19 9.69
5/16/2023 6:15:00 PM 18.58 65.444 0.348 8.85 4.52 9.6
5/16/2023 6:30:00 PM 18.43 65.174 0.347 8.83 4.29 9.56
5/16/2023 6:45:00 PM 18.35 65.03 0.347 8.83 4.13 9.48
5/16/2023 7:00:00 PM 18.24 64.832 0.347 8.83 4.09 9.35
5/16/2023 7:15:00 PM 18.12 64.616 0.346 8.8 4.68 9.3
5/16/2023 7:30:00 PM 18 64.4 0.346 8.79 4.03 9.19
5/16/2023 7:45:00 PM 17.9 64.22 0.346 8.75 4.02 9.06
5/16/2023 8:00:00 PM 17.78 64.004 0.347 8.71 4.82 8.88
5/16/2023 8:15:00 PM 17.66 63.788 0.347 8.67 4.16 8.72
5/16/2023 8:30:00 PM 17.57 63.626 0.347 8.61 4.59 8.56
5/16/2023 8:45:00 PM 17.49 63.482 0.347 8.54 4.33 8.43
5/16/2023 9:00:00 PM 17.4 63.32 0.348 8.48 4.16 8.33
5/16/2023 9:15:00 PM 17.3 63.14 0.348 8.41 4.65 8.22
5/16/2023 9:30:00 PM 17.18 62.924 0.348 8.36 4.29 8.13
5/16/2023 9:45:00 PM 17.05 62.69 0.348 8.29 4.46 8.09
5/16/2023 10:00:00 PM 16.89 62.402 0.349 8.24 4.81 8.07
5/16/2023 10:15:00 PM 16.77 62.186 0.349 8.19 4.71 8.02
5/16/2023 10:30:00 PM 16.65 61.97 0.349 8.14 5.03 8
5/16/2023 10:45:00 PM 16.57 61.826 0.349 8.1 5.1 7.97
5/16/2023 11:00:00 PM 16.5 61.7 0.35 8.07 4.64 7.96
5/16/2023 11:15:00 PM 16.43 61.574 0.35 8.03 4.7 7.97
5/16/2023 11:30:00 PM 16.29 61.322 0.35 8.01 5.01 7.98
5/16/2023 11:45:00 PM 16.1 60.98 0.35 7.98 5.11 8.01
5/17/2023 12:00:00 AM 15.96 60.728 0.35 7.96 16.85 7.99
5/17/2023 12:15:00 AM 15.86 60.548 0.351 7.94 4.83 8.05
5/17/2023 12:30:00 AM 15.79 60.422 0.351 7.93 4.73 8.05
5/17/2023 12:45:00 AM 15.7 60.26 0.351 7.9 4.61 8.07
5/17/2023 1:00:00 AM 15.61 60.098 0.351 7.88 4.71 8.07
5/17/2023 1:15:00 AM 15.53 59.954 0.351 7.86 4.79 8.09
5/17/2023 1:30:00 AM 15.46 59.828 0.351 7.85 4.99 8.1
5/17/2023 1:45:00 AM 15.39 59.702 0.352 7.83 4.59 8.11
5/17/2023 2:00:00 AM 15.27 59.486 0.352 7.82 4.82 8.16
5/17/2023 2:15:00 AM 15.15 59.27 0.352 7.81 4.76 8.18
5/17/2023 2:30:00 AM 15.07 59.126 0.352 7.8 4.93 8.19
5/17/2023 2:45:00 AM 14.98 58.964 0.352 7.8 4.82 8.25
5/17/2023 3:00:00 AM 14.89 58.802 0.352 7.79 4.93 8.28
5/17/2023 3:15:00 AM 14.81 58.658 0.352 7.78 4.95 8.3
5/17/2023 3:30:00 AM 14.7 58.46 0.352 7.78 4.94 8.34
5/17/2023 3:45:00 AM 14.59 58.262 0.352 7.77 4.95 8.37
5/17/2023 4:00:00 AM 14.51 58.118 0.353 7.76 4.77 8.41
5/17/2023 4:15:00 AM 14.41 57.938 0.353 7.76 4.83 8.42
5/17/2023 4:30:00 AM 14.3 57.74 0.353 7.76 5.06 8.43
5/17/2023 4:45:00 AM 14.18 57.524 0.353 7.75 4.82 8.47
5/17/2023 5:00:00 AM 14.08 57.344 0.353 7.75 5.03 8.52
5/17/2023 5:15:00 AM 13.97 57.146 0.354 7.75 4.78 8.57
5/17/2023 5:30:00 AM 13.86 56.948 0.354 7.74 14.37 8.57
5/17/2023 5:45:00 AM 13.77 56.786 0.354 7.74 5.02 8.63
5/17/2023 6:00:00 AM 13.68 56.624 0.355 7.74 4.82 8.67
5/17/2023 6:15:00 AM 13.56 56.408 0.355 7.74 4.63 8.7
5/17/2023 6:30:00 AM 13.46 56.228 0.356 7.74 4.88 8.77
5/17/2023 6:45:00 AM 13.38 56.084 0.357 7.74 4.57 8.83
5/17/2023 7:00:00 AM 13.28 55.904 0.358 7.76 4.43 8.93
5/17/2023 7:15:00 AM 13.21 55.778 0.358 7.76 4.37 9.02
5/17/2023 7:30:00 AM 13.16 55.688 0.359 7.77 4.39 9.12
5/17/2023 7:45:00 AM 13.1 55.58 0.36 7.79 4.38 9.27
5/17/2023 8:00:00 AM 13.1 55.58 0.361 7.8 4.4 9.41
5/17/2023 8:15:00 AM 13.05 55.49 0.361 7.82 4.54 9.56
5/17/2023 8:30:00 AM 13.04 55.472 0.362 7.85 4.67 9.7
5/17/2023 8:45:00 AM 13.04 55.472 0.362 7.87 4.33 9.87
5/17/2023 9:00:00 AM 13.05 55.49 0.362 7.89 4.33 9.96
5/17/2023 9:15:00 AM 13.09 55.562 0.362 7.91 4.59 10.07
5/17/2023 9:30:00 AM 13.08 55.544 0.362 7.94 4.07 10.19
5/17/2023 9:45:00 AM 13.22 55.796 0.362 7.96 4.33 10.26
5/17/2023 10:00:00 AM 13.55 56.39 0.362 7.98 4.06 10.35
5/17/2023 10:15:00 AM 13.68 56.624 0.362 8.01 4.25 10.43
5/17/2023 10:30:00 AM 13.71 56.678 0.362 8.03 4.12 10.5
5/17/2023 10:45:00 AM 14.04 57.272 0.362 8.06 4.11 10.58
5/17/2023 11:00:00 AM 14.47 58.046 0.362 8.08 3.91 10.55
5/17/2023 11:15:00 AM 14.87 58.766 0.362 8.1 3.99 10.56
5/17/2023 11:30:00 AM 15.2 59.36 0.362 8.13 4.22 10.61
5/17/2023 11:45:00 AM 15.64 60.152 0.362 8.15 6.03 10.63
5/17/2023 12:00:00 PM 16.12 61.016 0.362 8.19 4.31 10.61
5/17/2023 12:15:00 PM 16.64 61.952 0.363 8.22 4.45 10.62
5/17/2023 12:30:00 PM 17.05 62.69 0.363 8.24 4.24 10.6
5/17/2023 12:45:00 PM 17.46 63.428 0.363 8.27 4.36 10.58
5/17/2023 1:00:00 PM 17.72 63.896 0.363 8.3 4.21 10.53
5/17/2023 1:15:00 PM 18.02 64.436 0.363 8.3 8 10.44
5/17/2023 1:30:00 PM 18.4 65.12 0.363 8.33 4.93 10.38
5/17/2023 1:45:00 PM 18.63 65.534 0.363 8.37 6.87 10.42
5/17/2023 2:00:00 PM 19 66.2 0.363 8.41 4.34 10.4
5/17/2023 2:15:00 PM 19.21 66.578 0.363 8.41 4.28 10.33
5/17/2023 2:30:00 PM 19.4 66.92 0.363 8.45 4.38 10.31
5/17/2023 2:45:00 PM 19.53 67.154 0.363 8.47 4.19 10.25
5/17/2023 3:00:00 PM 19.61 67.298 0.364 8.5 4.1 10.23
5/17/2023 3:15:00 PM 19.73 67.514 0.364 8.52 4.29 10.2
5/17/2023 3:30:00 PM 19.77 67.586 0.365 8.54 4.01 10.15
5/17/2023 3:45:00 PM 19.8 67.64 0.365 8.56 4.16 10.11
5/17/2023 4:00:00 PM 19.75 67.55 0.366 8.59 4.1 10.06
5/17/2023 4:15:00 PM 19.73 67.514 0.366 8.59 4.09 9.99
5/17/2023 4:30:00 PM 19.72 67.496 0.366 8.61 4.12 9.99
5/17/2023 4:45:00 PM 19.62 67.316 0.366 8.63 4.13 9.94
5/17/2023 5:00:00 PM 19.5 67.1 0.365 8.65 4.16 9.92
5/17/2023 5:15:00 PM 19.31 66.758 0.365 8.66 4.16 9.88
5/17/2023 5:30:00 PM 19.07 66.326 0.364 8.66 3.87 9.83
5/17/2023 5:45:00 PM 18.83 65.894 0.364 8.68 4.16 9.82
5/17/2023 6:00:00 PM 18.5 65.3 0.363 8.67 4.22 9.8
5/17/2023 6:15:00 PM 18.18 64.724 0.363 8.67 4.28 9.8
5/17/2023 6:30:00 PM 17.89 64.202 0.363 8.67 3.9 9.77
5/17/2023 6:45:00 PM 17.6 63.68 0.362 8.67 4.17 9.75
5/17/2023 7:00:00 PM 17.29 63.122 0.362 8.66 4.07 9.69
5/17/2023 7:15:00 PM 17.01 62.618 0.361 8.64 3.9 9.63
5/17/2023 7:30:00 PM 16.74 62.132 0.36 8.63 4.1 9.56
5/17/2023 7:45:00 PM 16.48 61.664 0.36 8.61 4.06 9.49
5/17/2023 8:00:00 PM 16.23 61.214 0.36 8.59 4.16 9.39
5/17/2023 8:15:00 PM 15.99 60.782 0.36 8.54 4.05 9.29
5/17/2023 8:30:00 PM 15.75 60.35 0.36 8.5 4.05 9.17
5/17/2023 8:45:00 PM 15.53 59.954 0.361 8.45 4.35 9.01
5/17/2023 9:00:00 PM 15.28 59.504 0.361 8.4 3.98 8.96
5/17/2023 9:15:00 PM 15.07 59.126 0.361 8.35 4.21 8.89
5/17/2023 9:30:00 PM 14.83 58.694 0.361 8.29 4.29 8.85
5/17/2023 9:45:00 PM 14.61 58.298 0.362 8.25 4.48 8.81
5/17/2023 10:00:00 PM 14.41 57.938 0.362 8.2 4.27 8.79
5/17/2023 10:15:00 PM 14.22 57.596 0.362 8.16 4.69 8.8
5/17/2023 10:30:00 PM 14.04 57.272 0.362 8.13 4.7 8.78
5/17/2023 10:45:00 PM 13.89 57.002 0.362 8.09 4.51 8.78
5/17/2023 11:00:00 PM 13.88 56.984 0.361 8.06 4.51 8.73
5/17/2023 11:15:00 PM 13.72 56.696 0.361 8.03 4.13 8.76
5/17/2023 11:30:00 PM 13.56 56.408 0.361 8 4.26 8.8
5/17/2023 11:45:00 PM 13.41 56.138 0.361 7.98 4.86 8.79
5/18/2023 12:00:00 AM 13.26 55.868 0.362 7.97 4.65 8.85
5/18/2023 12:15:00 AM 13.12 55.616 0.362 7.94 4.86 8.88
5/18/2023 12:30:00 AM 12.99 55.382 0.362 7.93 4.84 8.91
5/18/2023 12:45:00 AM 12.85 55.13 0.363 7.91 4.87 8.93
5/18/2023 1:00:00 AM 12.73 54.914 0.363 7.89 5.12 8.97
5/18/2023 1:15:00 AM 12.61 54.698 0.363 7.88 4.47 8.97
5/18/2023 1:30:00 AM 12.48 54.464 0.364 7.87 4.61 9.01
5/18/2023 1:45:00 AM 12.36 54.248 0.364 7.85 4.66 9.05
5/18/2023 2:00:00 AM 12.25 54.05 0.364 7.84 4.63 9.08
5/18/2023 2:15:00 AM 12.14 53.852 0.364 7.83 4.48 9.11
5/18/2023 2:30:00 AM 12.02 53.636 0.364 7.82 4.58 9.14
5/18/2023 2:45:00 AM 11.91 53.438 0.364 7.81 4.64 9.17
5/18/2023 3:00:00 AM 11.8 53.24 0.364 7.81 4.48 9.21
5/18/2023 3:15:00 AM 11.68 53.024 0.364 7.8 4.51 9.22
5/18/2023 3:30:00 AM 11.57 52.826 0.364 7.79 6.33 9.26
5/18/2023 3:45:00 AM 11.46 52.628 0.364 7.79 5.4 9.29
5/18/2023 4:00:00 AM 11.35 52.43 0.364 7.78 4.78 9.32
5/18/2023 4:15:00 AM 11.24 52.232 0.363 7.77 5.16 9.35
5/18/2023 4:30:00 AM 11.13 52.034 0.363 7.77 4.69 9.39
5/18/2023 4:45:00 AM 11 51.8 0.363 7.77 4.64 9.45
5/18/2023 5:00:00 AM 10.88 51.584 0.363 7.77 4.72 9.47
5/18/2023 5:15:00 AM 10.76 51.368 0.363 7.76 4.53 9.51
5/18/2023 5:30:00 AM 10.64 51.152 0.364 7.76 4.66 9.54
5/18/2023 5:45:00 AM 10.52 50.936 0.364 7.76 4.68 9.59
5/18/2023 6:00:00 AM 10.42 50.756 0.364 7.76 4.55 9.65
5/18/2023 6:15:00 AM 10.31 50.558 0.364 7.76 6.09 9.72
5/18/2023 6:30:00 AM 10.21 50.378 0.364 7.77 4.73 9.81
5/18/2023 6:45:00 AM 10.14 50.252 0.364 7.77 4.37 9.89
5/18/2023 7:00:00 AM 10.08 50.144 0.365 7.78 4.83 10.03
5/18/2023 7:15:00 AM 10.02 50.036 0.365 7.79 4.61 10.14
5/18/2023 7:30:00 AM 9.99 49.982 0.365 7.81 4.44 10.27
5/18/2023 7:45:00 AM 9.99 49.982 0.366 7.82 4.25 10.4
5/18/2023 8:00:00 AM 10.02 50.036 0.366 7.83 4.51 10.49
5/18/2023 8:15:00 AM 10.07 50.126 0.366 7.85 4.55 10.6
5/18/2023 8:30:00 AM 10.15 50.27 0.367 7.86 4.39 10.69
5/18/2023 8:45:00 AM 10.28 50.504 0.367 7.88 4.18 10.8
5/18/2023 9:00:00 AM 10.45 50.81 0.368 7.91 4.08 10.89
5/18/2023 9:15:00 AM 10.67 51.206 0.368 7.93 4.31 10.98
5/18/2023 9:30:00 AM 10.96 51.728 0.369 7.95 4.24 11.02
5/18/2023 9:45:00 AM 11.27 52.286 0.369 7.97 4.11 11.06
5/18/2023 10:00:00 AM 11.64 52.952 0.37 8 4.14 11.1
5/18/2023 10:15:00 AM 12.05 53.69 0.37 8.02 4.15 11.13
5/18/2023 10:30:00 AM 12.45 54.41 0.37 8.05 4.12 11.14
5/18/2023 10:45:00 AM 12.89 55.202 0.37 8.07 3.95 11.12
5/18/2023 11:00:00 AM 13.43 56.174 0.37 8.1 5.32 11.13
5/18/2023 11:15:00 AM 13.93 57.074 0.37 8.12 4.09 11.12
5/18/2023 11:30:00 AM 14.48 58.064 0.37 8.14 3.9 11.08
5/18/2023 11:45:00 AM 15.04 59.072 0.37 8.16 3.99 11.06
5/18/2023 12:00:00 PM 15.55 59.99 0.37 8.19 3.87 11.03
5/18/2023 12:15:00 PM 16.03 60.854 0.372 8.21 4.06 10.98
5/18/2023 12:30:00 PM 16.48 61.664 0.371 8.24 5.48 10.92
5/18/2023 12:45:00 PM 16.95 62.51 0.371 8.26 3.76 10.91
5/18/2023 1:00:00 PM 17.33 63.194 0.371 8.28 4.04 10.83
5/18/2023 1:15:00 PM 17.71 63.878 0.372 8.3 4.09 10.78
5/18/2023 1:30:00 PM 18.04 64.472 0.372 8.32 4.28 10.72
5/18/2023 1:45:00 PM 18.3 64.94 0.372 8.33 3.81 10.67
5/18/2023 2:00:00 PM 18.63 65.534 0.372 8.36 4.05 10.63
5/18/2023 2:15:00 PM 18.85 65.93 0.371 8.38 3.7 10.55
5/18/2023 2:30:00 PM 19.1 66.38 0.371 8.39 3.84 10.5
5/18/2023 2:45:00 PM 19.31 66.758 0.371 8.4 3.91 10.46
5/18/2023 3:00:00 PM 19.47 67.046 0.371 8.42 3.92 10.33
5/18/2023 3:15:00 PM 19.66 67.388 0.371 8.43 3.7 10.32
5/18/2023 3:30:00 PM 19.77 67.586 0.372 8.45 3.81 10.28
5/18/2023 3:45:00 PM 19.83 67.694 0.372 8.46 3.84 10.2
5/18/2023 4:00:00 PM 19.9 67.82 0.372 8.48 3.78 10.15
5/18/2023 4:15:00 PM 19.94 67.892 0.372 8.48 3.99 10.05
5/18/2023 4:30:00 PM 19.92 67.856 0.372 8.5 3.91 10.01
5/18/2023 4:45:00 PM 19.91 67.838 0.372 8.51 3.79 9.94
5/18/2023 5:00:00 PM 19.82 67.676 0.372 8.51 3.76 9.87
5/18/2023 5:15:00 PM 19.76 67.568 0.373 8.51 4.33 9.8
5/18/2023 5:30:00 PM 19.62 67.316 0.373 8.52 3.68 9.72
5/18/2023 5:45:00 PM 19.44 66.992 0.372 8.52 3.58 9.73
5/18/2023 6:00:00 PM 19.21 66.578 0.372 8.52 3.91 9.67
5/18/2023 6:15:00 PM 18.98 66.164 0.372 8.52 3.89 9.61
5/18/2023 6:30:00 PM 18.71 65.67799 0.371 8.52 4.13 9.56
5/18/2023 6:45:00 PM 18.44 65.192 0.371 8.5 3.84 9.53
5/18/2023 7:00:00 PM 18.17 64.706 0.371 8.49 3.9 9.48

These are provisional data and have not been subject to a quality assurance process, but rather are the raw data reported by the instrument.
H: value is above sensor operating range
L: value is below sensor operating range
Offline: station is not reporting data
NC: parameter is not collected at site

Data Availability & Limitations

Uncertainty and potential for error can be associated with environmental monitoring data. Provisional data have not been subject to a quality assurance process, but rather are the raw data reported by the instrument. Data users are cautioned to consider carefully the provisional nature of the information before using it for decisions that concern personal or public safety or the conduct of business that involves substantial monetary or operational consequences.

Approved data are currently available by request by emailing: [email protected]. Approved data have been subject to a quality assurance process to correct for equipment or fouling drift. Data recorded during equipment malfunctions have been removed.

View Historical Stations that have been discontinued.